SondeTracker

Meteorological Radiosondes Database

Operations

Sounding was ended - last measurement: 2022-12-06 02:46:29z

MAP
About Radiosonde

Number: U0150025

Launch Site: Huelva (ES)

Type: RS41

AUX: NO

Frequency: 402.504 MHz

Max Speed: 143 km/h at 32012 m

Average Speed: 52.93 km/h

Max Altitude: 33528 m

Average Ascent Speed: 5.01 m/s

Average Descent Speed: 5.23 m/s

Status: UNKNOWN

Status Changes
Launch Site Type AUX Frequency Status Finder Landing Point Description Changes made by
APRS Statistics

Received Frames: 985

First Frame [UTC]: 2022-12-05 23:31:48z

Last Frame [UTC]: 2022-12-06 02:46:29z

Receivers: CT1EDG, CT7AUS-11, EA4EKH-11, EA4GBR-10, EA7KDT, WINDFER

Flight Time: 03:14:41 h

Distance From First Measurement: 156.00 km

Nearest City: Alcalá del Valle (ES) [5.26 km]

Nearest Hunter: EA7KE [47.19 km]

Ground Altitude: 774 m

Distance from QTH: 0.00 km

APRS Data
Receiver Number Date/Time [UTC] φ λ Course [°] Speed [km/h] Altitude [m] Description
EA7KDTU01500252022-12-06 02:46:2936.9337-5.1252294411943Clb=-2.3m/s t=4.0C h=89.1% p=805.4hPa 402.502 MHz Type=RS41-SGP ser=U0150025 Radiosonde
EA7KDTU01500252022-12-06 02:45:5836.9338-5.1261294411959Clb=-2.4m/s t=3.9C h=88.6% p=803.7hPa 402.502 MHz Type=RS41-SGP ser=U0150025 Radiosonde
EA7KDTU01500252022-12-06 02:44:5636.9326-5.1371475432153Clb=-2.3m/s t=2.5C h=97.2% p=784.8hPa 402.502 MHz Type=RS41-SGP ser=U0150025 Radiosonde
EA7KDTU01500252022-12-06 02:44:2536.9324-5.1380274412171Clb=-2.5m/s t=2.5C h=95.0% p=783.2hPa 402.502 MHz Type=RS41-SGP ser=U0150025 Radiosonde
EA7KDTU01500252022-12-06 02:43:5336.9318-5.141784372245Clb=-2.4m/s t=2.3C h=91.9% p=776.2hPa 402.502 MHz Type=RS41-SGP ser=U0150025 Radiosonde
EA7KDTU01500252022-12-06 02:43:2236.9316-5.1453283352320Clb=-2.4m/s t=1.8C h=93.5% p=769.0hPa 402.502 MHz Type=RS41-SGP ser=U0150025 Radiosonde
EA7KDTU01500252022-12-06 02:42:5136.9309-5.149381482390Clb=-2.4m/s t=1.4C h=94.6% p=762.3hPa 402.502 MHz Type=RS41-SGP ser=U0150025 Radiosonde
EA7KDTU01500252022-12-06 02:42:2036.9301-5.1539882482470Clb=-2.6m/s t=0.8C h=96.6% p=754.9hPa 402.502 MHz Type=RS41-SGP ser=U0150025 Radiosonde
EA7KDTU01500252022-12-06 02:41:4936.9299-5.1587688522545Clb=-2.7m/s t=0.6C h=95.1% p=747.8hPa 402.502 MHz Type=RS41-SGP ser=U0150025 Radiosonde
EA7KDTU01500252022-12-06 02:41:1836.9302-5.1632794432613Clb=-2.2m/s t=0.9C h=87.0% p=741.6hPa 402.502 MHz Type=RS41-SGP ser=U0150025 Radiosonde
EA7KDTU01500252022-12-06 02:40:4736.9305-5.1675198462680Clb=-2.4m/s t=0.4C h=83.7% p=735.3hPa 402.502 MHz Type=RS41-SGP ser=U0150025 Radiosonde
EA7KDTU01500252022-12-06 02:40:1636.9307-5.172693542744Clb=-2.2m/s t=-0.1C h=85.8% p=729.4hPa 402.502 MHz Type=RS41-SGP ser=U0150025 Radiosonde
EA7KDTU01500252022-12-06 02:39:4536.931-5.1771689412808Clb=-2.2m/s t=-0.5C h=85.5% p=723.6hPa 402.502 MHz Type=RS41-SGP ser=U0150025 Radiosonde
EA7KDTU01500252022-12-06 02:39:1436.931-5.1811193392875Clb=-2.4m/s t=-0.8C h=81.8% p=717.7hPa 402.502 MHz Type=RS41-SGP ser=U0150025 Radiosonde
WINDFERU01500252022-12-06 02:39:1236.931-5.1836690372920Clb=-2.1m/s t=-1.0C h=85.5% p=713.7hPa 402.505 MHz Type=RS41-SGP ser=U0150025 Radiosonde
EA7KDTU01500252022-12-06 02:38:4336.9311-5.1849395372943Clb=-2.3m/s t=-1.2C h=85.7% p=711.4hPa 402.502 MHz Type=RS41-SGP ser=U0150025 Radiosonde
EA7KDTU01500252022-12-06 02:38:1236.9318-5.18961100463021Clb=-2.1m/s t=-1.1C h=75.7% p=704.6hPa 402.502 MHz Type=RS41-SGP ser=U0150025 Radiosonde
EA7KDTU01500252022-12-06 02:37:4136.9324-5.19329102443079Clb=-2.1m/s t=-1.5C h=78.6% p=699.6hPa 402.502 MHz Type=RS41-SGP ser=U0150025 Radiosonde
EA7KDTU01500252022-12-06 02:37:1036.933-5.1970999373150Clb=-2.4m/s t=-1.9C h=80.5% p=693.3hPa 402.502 MHz Type=RS41-SGP ser=U0150025 Radiosonde
EA7KDTU01500252022-12-06 02:36:3936.9333-5.2013796483223Clb=-2.7m/s t=-2.4C h=83.0% p=687.1hPa 402.502 MHz Type=RS41-SGP ser=U0150025 Radiosonde
WINDFERU01500252022-12-06 02:36:3736.9333-5.202395483239Clb=-2.6m/s t=-2.5C h=83.7% p=685.9hPa 402.505 MHz Type=RS41-SGP ser=U0150025 Radiosonde
EA7KDTU01500252022-12-06 02:36:0736.9334-5.2059190463301Clb=-2.6m/s t=-2.7C h=80.4% p=680.5hPa 402.502 MHz Type=RS41-SGP ser=U0150025 Radiosonde
WINDFERU01500252022-12-06 02:36:0536.9334-5.2065194483311Clb=-2.7m/s t=-2.7C h=78.4% p=679.6hPa 402.505 MHz Type=RS41-SGP ser=U0150025 Radiosonde
EA7KDTU01500252022-12-06 02:35:3636.934-5.21071108443382Clb=-2.5m/s t=-3.1C h=78.0% p=673.5hPa 402.502 MHz Type=RS41-SGP ser=U0150025 Radiosonde
EA7KDTU01500252022-12-06 02:35:0536.9347-5.21449103393461Clb=-2.9m/s t=-3.4C h=76.9% p=666.8hPa 402.502 MHz Type=RS41-SGP ser=U0150025 Radiosonde
EA7KDTU01500252022-12-06 02:34:3436.9349-5.2188290463539Clb=-2.5m/s t=-3.7C h=73.6% p=660.2hPa 402.502 MHz Type=RS41-SGP ser=U0150025 Radiosonde
WINDFERU01500252022-12-06 02:34:3236.9349-5.2198991503556Clb=-2.6m/s t=-3.8C h=74.2% p=658.7hPa 402.505 MHz Type=RS41-SGP ser=U0150025 Radiosonde
EA7KDTU01500252022-12-06 02:34:0336.935-5.2236290483615Clb=-2.4m/s t=-4.2C h=75.2% p=653.9hPa 402.502 MHz Type=RS41-SGP ser=U0150025 Radiosonde
WINDFERU01500252022-12-06 02:34:0136.935-5.2255994543643Clb=-2.3m/s t=-4.5C h=76.4% p=651.7hPa 402.505 MHz Type=RS41-SGP ser=U0150025 Radiosonde
EA7KDTU01500252022-12-06 02:33:3236.9351-5.2284489433687Clb=-2.2m/s t=-4.7C h=74.0% p=648.0hPa 402.502 MHz Type=RS41-SGP ser=U0150025 Radiosonde
WINDFERU01500252022-12-06 02:33:3036.9351-5.2287190433692Clb=-2.2m/s t=-4.7C h=73.0% p=647.6hPa 402.505 MHz Type=RS41-SGP ser=U0150025 Radiosonde
EA7KDTU01500252022-12-06 02:33:0136.9352-5.2324495393756Clb=-2.2m/s t=-5.2C h=75.0% p=642.3hPa 402.502 MHz Type=RS41-SGP ser=U0150025 Radiosonde
WINDFERU01500252022-12-06 02:32:5936.9353-5.2326997393761Clb=-2.4m/s t=-5.2C h=75.3% p=642.0hPa 402.505 MHz Type=RS41-SGP ser=U0150025 Radiosonde
EA7KDTU01500252022-12-06 02:32:3036.9355-5.2363988443819Clb=-2.2m/s t=-5.6C h=75.5% p=637.2hPa 402.502 MHz Type=RS41-SGP ser=U0150025 Radiosonde
WINDFERU01500252022-12-06 02:32:2836.9355-5.2366887463824Clb=-2.1m/s t=-5.7C h=76.2% p=636.8hPa 402.505 MHz Type=RS41-SGP ser=U0150025 Radiosonde
EA7KDTU01500252022-12-06 02:31:5936.9355-5.2413388523884Clb=-2.0m/s t=-5.8C h=74.5% p=632.0hPa 402.502 MHz Type=RS41-SGP ser=U0150025 Radiosonde
WINDFERU01500252022-12-06 02:31:5736.9354-5.2416587503888Clb=-1.9m/s t=-5.8C h=74.4% p=631.7hPa 402.505 MHz Type=RS41-SGP ser=U0150025 Radiosonde
EA7KDTU01500252022-12-06 02:31:2836.9358-5.24643104503948Clb=-2.3m/s t=-6.1C h=72.8% p=626.9hPa 402.502 MHz Type=RS41-SGP ser=U0150025 Radiosonde
WINDFERU01500252022-12-06 02:31:2636.9358-5.24672103463953Clb=-2.1m/s t=-6.1C h=72.8% p=626.5hPa 402.505 MHz Type=RS41-SGP ser=U0150025 Radiosonde
EA7KDTU01500252022-12-06 02:30:5736.9363-5.2505696414012Clb=-2.2m/s t=-6.6C h=75.3% p=621.7hPa 402.502 MHz Type=RS41-SGP ser=U0150025 Radiosonde
WINDFERU01500252022-12-06 02:30:5536.9363-5.2509496414018Clb=-2.3m/s t=-6.7C h=75.8% p=621.4hPa 402.505 MHz Type=RS41-SGP ser=U0150025 Radiosonde
EA7KDTU01500252022-12-06 02:30:2636.9364-5.2553594564077Clb=-2.0m/s t=-7.1C h=76.1% p=616.6hPa 402.502 MHz Type=RS41-SGP ser=U0150025 Radiosonde
WINDFERU01500252022-12-06 02:30:2436.9364-5.2558893564084Clb=-2.3m/s t=-7.1C h=76.2% p=616.2hPa 402.504 MHz Type=RS41-SGP ser=U0150025 Radiosonde
EA7KDTU01500252022-12-06 02:29:5536.937-5.26042102434145Clb=-2.3m/s t=-7.5C h=72.6% p=611.3hPa 402.502 MHz Type=RS41-SGP ser=U0150025 Radiosonde
WINDFERU01500252022-12-06 02:29:5336.9371-5.26082102434152Clb=-2.4m/s t=-7.5C h=72.4% p=610.8hPa 402.504 MHz Type=RS41-SGP ser=U0150025 Radiosonde
EA7KDTU01500252022-12-06 02:29:2436.9374-5.2644690414215Clb=-2.5m/s t=-7.9C h=64.3% p=605.9hPa 402.502 MHz Type=RS41-SGP ser=U0150025 Radiosonde
WINDFERU01500252022-12-06 02:29:2236.9374-5.2648689414222Clb=-2.3m/s t=-7.9C h=64.9% p=605.3hPa 402.505 MHz Type=RS41-SGP ser=U0150025 Radiosonde
EA7KDTU01500252022-12-06 02:28:5336.9373-5.2692488544288Clb=-2.4m/s t=-8.4C h=68.2% p=600.2hPa 402.502 MHz Type=RS41-SGP ser=U0150025 Radiosonde
WINDFERU01500252022-12-06 02:28:5036.9373-5.2697588544294Clb=-2.3m/s t=-8.5C h=68.3% p=599.7hPa 402.504 MHz Type=RS41-SGP ser=U0150025 Radiosonde
EA7KDTU01500252022-12-06 02:28:2236.9374-5.2747193574362Clb=-2.5m/s t=-9.0C h=71.6% p=594.5hPa 402.502 MHz Type=RS41-SGP ser=U0150025 Radiosonde
WINDFERU01500252022-12-06 02:28:1936.9375-5.2752595574369Clb=-2.4m/s t=-9.1C h=72.3% p=594.0hPa 402.504 MHz Type=RS41-SGP ser=U0150025 Radiosonde
EA7KDTU01500252022-12-06 02:27:5136.9382-5.27989102464442Clb=-2.9m/s t=-9.6C h=71.4% p=588.4hPa 402.502 MHz Type=RS41-SGP ser=U0150025 Radiosonde
WINDFERU01500252022-12-06 02:27:4836.9382-5.28017103464447Clb=-2.8m/s t=-9.6C h=71.5% p=588.0hPa 402.504 MHz Type=RS41-SGP ser=U0150025 Radiosonde
EA7KDTU01500252022-12-06 02:27:2036.9391-5.28452102544524Clb=-2.9m/s t=-10.4C h=75.1% p=582.2hPa 402.502 MHz Type=RS41-SGP ser=U0150025 Radiosonde
WINDFERU01500252022-12-06 02:27:1736.9392-5.28485102544529Clb=-2.7m/s t=-10.4C h=75.4% p=581.7hPa 402.504 MHz Type=RS41-SGP ser=U0150025 Radiosonde
EA7KDTU01500252022-12-06 02:26:4936.9402-5.28932108434608Clb=-2.8m/s t=-10.8C h=73.4% p=575.8hPa 402.502 MHz Type=RS41-SGP ser=U0150025 Radiosonde
WINDFERU01500252022-12-06 02:26:4636.9402-5.28957107414613Clb=-2.8m/s t=-10.8C h=73.5% p=575.4hPa 402.504 MHz Type=RS41-SGP ser=U0150025 Radiosonde
EA7KDTU01500252022-12-06 02:26:1836.9413-5.29321112414698Clb=-3.0m/s t=-11.2C h=68.9% p=569.1hPa 402.502 MHz Type=RS41-SGP ser=U0150025 Radiosonde
WINDFERU01500252022-12-06 02:26:1536.9415-5.29368113394709Clb=-3.0m/s t=-11.3C h=67.9% p=568.3hPa 402.504 MHz Type=RS41-SGP ser=U0150025 Radiosonde
EA7KDTU01500252022-12-06 02:25:4636.9428-5.29692119464788Clb=-2.8m/s t=-11.5C h=64.8% p=562.6hPa 402.502 MHz Type=RS41-SGP ser=U0150025 Radiosonde
WINDFERU01500252022-12-06 02:25:4436.9429-5.29719119484793Clb=-2.7m/s t=-11.5C h=64.2% p=562.0hPa 402.504 MHz Type=RS41-SGP ser=U0150025 Radiosonde
EA7KDTU01500252022-12-06 02:25:1536.9447-5.30106123464873Clb=-2.8m/s t=-11.8C h=61.5% p=556.3hPa 402.502 MHz Type=RS41-SGP ser=U0150025 Radiosonde
WINDFERU01500252022-12-06 02:25:1336.9449-5.30154124464884Clb=-2.5m/s t=-11.9C h=59.0% p=555.5hPa 402.504 MHz Type=RS41-SGP ser=U0150025 Radiosonde
EA7KDTU01500252022-12-06 02:24:4436.9466-5.30481116374957Clb=-2.5m/s t=-12.3C h=58.3% p=550.3hPa 402.502 MHz Type=RS41-SGP ser=U0150025 Radiosonde
WINDFERU01500252022-12-06 02:24:4236.9467-5.30502115374962Clb=-2.7m/s t=-12.3C h=58.2% p=549.9hPa 402.504 MHz Type=RS41-SGP ser=U0150025 Radiosonde
EA7KDTU01500252022-12-06 02:24:1336.9478-5.30818108395036Clb=-2.4m/s t=-12.9C h=51.4% p=544.6hPa 402.502 MHz Type=RS41-SGP ser=U0150025 Radiosonde
WINDFERU01500252022-12-06 02:24:1136.9478-5.30841108395041Clb=-2.6m/s t=-12.9C h=52.5% p=544.2hPa 402.504 MHz Type=RS41-SGP ser=U0150025 Radiosonde
EA7KDTU01500252022-12-06 02:23:4236.9486-5.31189100415118Clb=-2.7m/s t=-13.5C h=56.9% p=538.9hPa 402.502 MHz Type=RS41-SGP ser=U0150025 Radiosonde
WINDFERU01500252022-12-06 02:23:4036.9486-5.312498395129Clb=-2.5m/s t=-13.6C h=57.2% p=538.0hPa 402.504 MHz Type=RS41-SGP ser=U0150025 Radiosonde
EA7KDTU01500252022-12-06 02:23:1136.949-5.3157597465200Clb=-2.5m/s t=-14.0C h=53.5% p=533.1hPa 402.502 MHz Type=RS41-SGP ser=U0150025 Radiosonde
WINDFERU01500252022-12-06 02:23:0936.9491-5.3163499465210Clb=-2.5m/s t=-14.1C h=53.5% p=532.3hPa 402.504 MHz Type=RS41-SGP ser=U0150025 Radiosonde
EA7KDTU01500252022-12-06 02:22:4036.9502-5.3199115355280Clb=-2.8m/s t=-14.8C h=57.1% p=527.4hPa 402.502 MHz Type=RS41-SGP ser=U0150025 Radiosonde
WINDFERU01500252022-12-06 02:22:3836.9503-5.32021116355289Clb=-2.4m/s t=-14.8C h=57.6% p=526.9hPa 402.504 MHz Type=RS41-SGP ser=U0150025 Radiosonde
EA7KDTU01500252022-12-06 02:22:0936.9515-5.32298119335364Clb=-2.5m/s t=-15.5C h=58.3% p=521.6hPa 402.502 MHz Type=RS41-SGP ser=U0150025 Radiosonde
WINDFERU01500252022-12-06 02:22:0736.9516-5.32327120355372Clb=-2.5m/s t=-15.5C h=57.9% p=521.1hPa 402.505 MHz Type=RS41-SGP ser=U0150025 Radiosonde
EA7KDTU01500252022-12-06 02:21:3836.9532-5.32651120465450Clb=-2.6m/s t=-16.1C h=57.5% p=515.8hPa 402.502 MHz Type=RS41-SGP ser=U0150025 Radiosonde
WINDFERU01500252022-12-06 02:21:3536.9533-5.32689120445457Clb=-3.0m/s t=-16.1C h=57.7% p=515.2hPa 402.504 MHz Type=RS41-SGP ser=U0150025 Radiosonde
EA7KDTU01500252022-12-06 02:21:0736.9552-5.3303124505537Clb=-2.6m/s t=-16.8C h=54.5% p=509.7hPa 402.502 MHz Type=RS41-SGP ser=U0150025 Radiosonde
WINDFERU01500252022-12-06 02:21:0536.9554-5.3307124505546Clb=-2.8m/s t=-16.9C h=54.8% p=509.2hPa 402.504 MHz Type=RS41-SGP ser=U0150025 Radiosonde
EA7KDTU01500252022-12-06 02:20:3636.9574-5.33401123395623Clb=-2.7m/s t=-17.3C h=55.3% p=504.0hPa 402.502 MHz Type=RS41-SGP ser=U0150025 Radiosonde
WINDFERU01500252022-12-06 02:20:3336.9576-5.33433119395631Clb=-2.6m/s t=-17.4C h=54.2% p=503.5hPa 402.505 MHz Type=RS41-SGP ser=U0150025 Radiosonde
EA7KDTU01500252022-12-06 02:20:0736.9591-5.33804116545711Clb=-2.7m/s t=-17.8C h=43.3% p=498.2hPa 402.502 MHz Type=RS41-SGP ser=U0150025 Radiosonde
WINDFERU01500252022-12-06 02:20:0236.9592-5.33835116545716Clb=-2.6m/s t=-17.9C h=43.3% p=497.8hPa 402.504 MHz Type=RS41-SGP ser=U0150025 Radiosonde
EA7KDTU01500252022-12-06 02:19:3436.9614-5.3428123595800Clb=-2.9m/s t=-18.3C h=38.0% p=492.3hPa 402.502 MHz Type=RS41-SGP ser=U0150025 Radiosonde
WINDFERU01500252022-12-06 02:19:3136.9616-5.34311123595805Clb=-2.5m/s t=-18.4C h=37.1% p=491.8hPa 402.504 MHz Type=RS41-SGP ser=U0150025 Radiosonde
EA7KDTU01500252022-12-06 02:19:0336.9642-5.34736127485885Clb=-2.6m/s t=-18.9C h=33.7% p=486.7hPa 402.502 MHz Type=RS41-SGP ser=U0150025 Radiosonde
WINDFERU01500252022-12-06 02:19:0036.9643-5.34761125485891Clb=-2.8m/s t=-19.0C h=33.7% p=486.3hPa 402.504 MHz Type=RS41-SGP ser=U0150025 Radiosonde
EA7KDTU01500252022-12-06 02:18:3236.966-5.3518114525971Clb=-2.7m/s t=-19.7C h=33.2% p=481.0hPa 402.502 MHz Type=RS41-SGP ser=U0150025 Radiosonde
WINDFERU01500252022-12-06 02:18:2936.9661-5.3521114525977Clb=-2.6m/s t=-19.7C h=33.4% p=480.8hPa 402.504 MHz Type=RS41-SGP ser=U0150025 Radiosonde
EA7KDTU01500252022-12-06 02:18:0136.9678-5.35616110566057Clb=-2.6m/s t=-20.5C h=35.3% p=475.5hPa 402.502 MHz Type=RS41-SGP ser=U0150025 Radiosonde
WINDFERU01500252022-12-06 02:17:5836.9679-5.35649111566062Clb=-2.7m/s t=-20.5C h=35.4% p=475.1hPa 402.505 MHz Type=RS41-SGP ser=U0150025 Radiosonde
EA7KDTU01500252022-12-06 02:17:3036.9694-5.36061116466142Clb=-2.7m/s t=-21.2C h=36.3% p=470.1hPa 402.502 MHz Type=RS41-SGP ser=U0150025 Radiosonde
WINDFERU01500252022-12-06 02:17:2736.9695-5.36087117466147Clb=-2.6m/s t=-21.3C h=36.3% p=469.8hPa 402.505 MHz Type=RS41-SGP ser=U0150025 Radiosonde
EA7KDTU01500252022-12-06 02:16:5836.9711-5.36466115466225Clb=-2.6m/s t=-21.9C h=34.6% p=464.9hPa 402.502 MHz Type=RS41-SGP ser=U0150025 Radiosonde
WINDFERU01500252022-12-06 02:16:5636.9712-5.36493114466231Clb=-2.6m/s t=-21.9C h=34.4% p=464.5hPa 402.505 MHz Type=RS41-SGP ser=U0150025 Radiosonde
EA7KDTU01500252022-12-06 02:16:2736.9722-5.36937105576310Clb=-2.5m/s t=-22.6C h=35.5% p=459.5hPa 402.502 MHz Type=RS41-SGP ser=U0150025 Radiosonde
WINDFERU01500252022-12-06 02:16:2536.9723-5.36973107596315Clb=-2.6m/s t=-22.7C h=35.4% p=459.2hPa 402.505 MHz Type=RS41-SGP ser=U0150025 Radiosonde
EA7KDTU01500252022-12-06 02:15:5636.9742-5.37452122526393Clb=-2.4m/s t=-23.4C h=38.1% p=454.3hPa 402.502 MHz Type=RS41-SGP ser=U0150025 Radiosonde
WINDFERU01500252022-12-06 02:15:5436.9744-5.37494122526401Clb=-2.5m/s t=-23.5C h=38.2% p=453.9hPa 402.505 MHz Type=RS41-SGP ser=U0150025 Radiosonde
EA7KDTU01500252022-12-06 02:15:2536.976-5.3784120436478Clb=-2.8m/s t=-24.2C h=39.8% p=449.0hPa 402.502 MHz Type=RS41-SGP ser=U0150025 Radiosonde
WINDFERU01500252022-12-06 02:15:2336.9762-5.37874121436486Clb=-2.7m/s t=-24.3C h=40.0% p=448.7hPa 402.505 MHz Type=RS41-SGP ser=U0150025 Radiosonde
EA7KDTU01500252022-12-06 02:14:5436.9779-5.38196125486564Clb=-2.6m/s t=-24.9C h=40.9% p=443.9hPa 402.502 MHz Type=RS41-SGP ser=U0150025 Radiosonde
WINDFERU01500252022-12-06 02:14:5236.9781-5.38234124506572Clb=-2.5m/s t=-24.9C h=41.9% p=443.4hPa 402.505 MHz Type=RS41-SGP ser=U0150025 Radiosonde
EA7KDTU01500252022-12-06 02:14:2336.9801-5.38549130416650Clb=-2.5m/s t=-25.5C h=41.7% p=438.7hPa 402.502 MHz Type=RS41-SGP ser=U0150025 Radiosonde
WINDFERU01500252022-12-06 02:14:2136.9803-5.38578130396658Clb=-2.7m/s t=-25.6C h=40.8% p=438.2hPa 402.505 MHz Type=RS41-SGP ser=U0150025 Radiosonde
EA7KDTU01500252022-12-06 02:13:5236.9823-5.38849132376735Clb=-2.4m/s t=-26.3C h=52.6% p=433.5hPa 402.502 MHz Type=RS41-SGP ser=U0150025 Radiosonde
WINDFERU01500252022-12-06 02:13:5036.9825-5.38875131376743Clb=-2.8m/s t=-26.4C h=56.2% p=433.0hPa 402.505 MHz Type=RS41-SGP ser=U0150025 Radiosonde
EA7KDTU01500252022-12-06 02:13:2136.9837-5.39129107376823Clb=-2.8m/s t=-27.0C h=58.0% p=428.4hPa 402.502 MHz Type=RS41-SGP ser=U0150025 Radiosonde
WINDFERU01500252022-12-06 02:13:1936.9838-5.39165108436831Clb=-2.4m/s t=-27.0C h=57.1% p=427.9hPa 402.505 MHz Type=RS41-SGP ser=U0150025 Radiosonde
EA7KDTU01500252022-12-06 02:12:5036.9857-5.39497134416906Clb=-2.7m/s t=-27.5C h=37.7% p=423.4hPa 402.502 MHz Type=RS41-SGP ser=U0150025 Radiosonde
WINDFERU01500252022-12-06 02:12:4736.9859-5.39524134396914Clb=-2.4m/s t=-27.6C h=38.4% p=423.0hPa 402.505 MHz Type=RS41-SGP ser=U0150025 Radiosonde
EA7KDTU01500252022-12-06 02:12:1936.9874-5.39772113376988Clb=-2.6m/s t=-28.2C h=38.5% p=418.5hPa 402.502 MHz Type=RS41-SGP ser=U0150025 Radiosonde
WINDFERU01500252022-12-06 02:12:1636.9875-5.39806112416996Clb=-2.5m/s t=-28.3C h=38.6% p=418.1hPa 402.505 MHz Type=RS41-SGP ser=U0150025 Radiosonde
EA7KDTU01500252022-12-06 02:11:4836.9888-5.40141114417073Clb=-2.5m/s t=-29.0C h=39.4% p=413.7hPa 402.502 MHz Type=RS41-SGP ser=U0150025 Radiosonde
WINDFERU01500252022-12-06 02:11:4536.989-5.40209116397089Clb=-2.8m/s t=-29.1C h=37.1% p=412.8hPa 402.505 MHz Type=RS41-SGP ser=U0150025 Radiosonde
EA7KDTU01500252022-12-06 02:11:1736.9901-5.40475114397158Clb=-2.6m/s t=-29.6C h=32.0% p=408.8hPa 402.502 MHz Type=RS41-SGP ser=U0150025 Radiosonde
WINDFERU01500252022-12-06 02:11:1436.9902-5.40497114397163Clb=-2.6m/s t=-29.7C h=32.1% p=408.5hPa 402.505 MHz Type=RS41-SGP ser=U0150025 Radiosonde
EA7KDTU01500252022-12-06 02:10:4636.9918-5.40849130487240Clb=-2.7m/s t=-30.3C h=34.6% p=404.1hPa 402.502 MHz Type=RS41-SGP ser=U0150025 Radiosonde
WINDFERU01500252022-12-06 02:10:4336.9921-5.40884131487248Clb=-2.6m/s t=-30.3C h=35.4% p=403.7hPa 402.505 MHz Type=RS41-SGP ser=U0150025 Radiosonde
EA7KDTU01500252022-12-06 02:10:1536.994-5.41149115337328Clb=-2.7m/s t=-31.0C h=33.0% p=399.2hPa 402.502 MHz Type=RS41-SGP ser=U0150025 Radiosonde
WINDFERU01500252022-12-06 02:10:1236.994-5.41169113357333Clb=-2.6m/s t=-31.1C h=32.4% p=398.9hPa 402.505 MHz Type=RS41-SGP ser=U0150025 Radiosonde
EA7KDTU01500252022-12-06 02:09:4436.9951-5.41487115467414Clb=-2.9m/s t=-31.8C h=30.7% p=394.4hPa 402.502 MHz Type=RS41-SGP ser=U0150025 Radiosonde
WINDFERU01500252022-12-06 02:09:4136.9952-5.41514117487419Clb=-2.7m/s t=-31.9C h=30.6% p=394.0hPa 402.505 MHz Type=RS41-SGP ser=U0150025 Radiosonde
EA7KDTU01500252022-12-06 02:09:1336.9972-5.41808132357499Clb=-2.7m/s t=-32.5C h=28.3% p=389.6hPa 402.502 MHz Type=RS41-SGP ser=U0150025 Radiosonde
WINDFERU01500252022-12-06 02:09:1036.9973-5.41824131317504Clb=-2.9m/s t=-32.6C h=28.3% p=389.3hPa 402.505 MHz Type=RS41-SGP ser=U0150025 Radiosonde
EA7KDTU01500252022-12-06 02:08:4236.9982-5.421106397589Clb=-2.8m/s t=-33.3C h=27.3% p=384.6hPa 402.502 MHz Type=RS41-SGP ser=U0150025 Radiosonde
WINDFERU01500252022-12-06 02:08:3936.9983-5.42124105397595Clb=-2.9m/s t=-33.4C h=27.7% p=384.4hPa 402.505 MHz Type=RS41-SGP ser=U0150025 Radiosonde
EA7KDTU01500252022-12-06 02:08:1136.9991-5.4246106417680Clb=-2.8m/s t=-34.1C h=29.1% p=379.7hPa 402.502 MHz Type=RS41-SGP ser=U0150025 Radiosonde
WINDFERU01500252022-12-06 02:08:0836.9991-5.42486107417686Clb=-3.0m/s t=-34.2C h=29.6% p=379.4hPa 402.505 MHz Type=RS41-SGP ser=U0150025 Radiosonde
EA7KDTU01500252022-12-06 02:07:3937.0008-5.42815132357773Clb=-3.0m/s t=-35.0C h=32.5% p=374.8hPa 402.502 MHz Type=RS41-SGP ser=U0150025 Radiosonde
WINDFERU01500252022-12-06 02:07:3737.0009-5.42831133357778Clb=-2.8m/s t=-35.1C h=32.7% p=374.4hPa 402.505 MHz Type=RS41-SGP ser=U0150025 Radiosonde
EA7KDTU01500252022-12-06 02:07:0937.0022-5.43043116267865Clb=-2.8m/s t=-35.9C h=34.5% p=369.8hPa 402.502 MHz Type=RS41-SGP ser=U0150025 Radiosonde
WINDFERU01500252022-12-06 02:07:0637.0023-5.43067113287874Clb=-3.0m/s t=-36.0C h=35.2% p=369.3hPa 402.505 MHz Type=RS41-SGP ser=U0150025 Radiosonde
EA7KDTU01500252022-12-06 02:06:3737.0029-5.43348108437957Clb=-2.8m/s t=-36.7C h=32.1% p=365.0hPa 402.502 MHz Type=RS41-SGP ser=U0150025 Radiosonde
WINDFERU01500252022-12-06 02:06:3537.0031-5.43386115437966Clb=-3.0m/s t=-36.8C h=33.0% p=364.4hPa 402.505 MHz Type=RS41-SGP ser=U0150025 Radiosonde
EA7KDTU01500252022-12-06 02:06:0637.0045-5.43622125268048Clb=-2.8m/s t=-37.3C h=27.9% p=360.1hPa 402.502 MHz Type=RS41-SGP ser=U0150025 Radiosonde
WINDFERU01500252022-12-06 02:06:0437.0046-5.43642124248057Clb=-3.1m/s t=-37.3C h=28.0% p=359.7hPa 402.505 MHz Type=RS41-SGP ser=U0150025 Radiosonde
EA7KDTU01500252022-12-06 02:05:3537.0052-5.4385898338142Clb=-3.0m/s t=-38.1C h=26.2% p=355.4hPa 402.502 MHz Type=RS41-SGP ser=U0150025 Radiosonde
WINDFERU01500252022-12-06 02:05:3337.0053-5.43891101378151Clb=-3.1m/s t=-38.1C h=25.2% p=354.9hPa 402.505 MHz Type=RS41-SGP ser=U0150025 Radiosonde
EA7KDTU01500252022-12-06 02:05:0437.0062-5.44238108438238Clb=-3.3m/s t=-38.9C h=24.9% p=350.4hPa 402.502 MHz Type=RS41-SGP ser=U0150025 Radiosonde
WINDFERU01500252022-12-06 02:05:0137.0063-5.44276109438248Clb=-3.3m/s t=-38.9C h=23.6% p=349.8hPa 402.505 MHz Type=RS41-SGP ser=U0150025 Radiosonde
EA7KDTU01500252022-12-06 02:04:3337.0073-5.44654105468340Clb=-3.1m/s t=-39.6C h=20.8% p=345.2hPa 402.502 MHz Type=RS41-SGP ser=U0150025 Radiosonde
WINDFERU01500252022-12-06 02:04:3037.0074-5.44697107468350Clb=-3.8m/s t=-39.7C h=20.8% p=344.8hPa 402.505 MHz Type=RS41-SGP ser=U0150025 Radiosonde
EA7KDTU01500252022-12-06 02:04:0237.0085-5.45123101508444Clb=-3.3m/s t=-40.4C h=20.2% p=340.1hPa 402.502 MHz Type=RS41-SGP ser=U0150025 Radiosonde
WINDFERU01500252022-12-06 02:03:5937.0086-5.4517102508453Clb=-3.4m/s t=-40.5C h=20.1% p=339.6hPa 402.505 MHz Type=RS41-SGP ser=U0150025 Radiosonde
EA7KDTU01500252022-12-06 02:03:3137.0097-5.45623116578548Clb=-3.7m/s t=-41.3C h=20.6% p=334.8hPa 402.502 MHz Type=RS41-SGP ser=U0150025 Radiosonde
WINDFERU01500252022-12-06 02:03:2837.0099-5.45672116578558Clb=-3.4m/s t=-41.3C h=20.7% p=334.3hPa 402.505 MHz Type=RS41-SGP ser=U0150025 Radiosonde
EA7KDTU01500252022-12-06 02:03:0037.0118-5.46142111598660Clb=-3.7m/s t=-42.0C h=19.0% p=329.3hPa 402.502 MHz Type=RS41-SGP ser=U0150025 Radiosonde
WINDFERU01500252022-12-06 02:02:5737.012-5.46195111598671Clb=-3.6m/s t=-42.1C h=18.6% p=328.9hPa 402.505 MHz Type=RS41-SGP ser=U0150025 Radiosonde
WINDFERU01500252022-12-06 02:02:2637.0137-5.46762112708783Clb=-3.4m/s t=-42.4C h=12.2% p=323.5hPa 402.505 MHz Type=RS41-SGP ser=U0150025 Radiosonde
WINDFERU01500252022-12-06 02:01:5537.0165-5.4742117808896Clb=-3.5m/s t=-42.5C h=10.0% p=318.1hPa 402.505 MHz Type=RS41-SGP ser=U0150025 Radiosonde
WINDFERU01500252022-12-06 02:01:2437.0196-5.48152116919003Clb=-3.5m/s t=-42.7C h=8.5% p=313.1hPa 402.505 MHz Type=RS41-SGP ser=U0150025 Radiosonde
WINDFERU01500252022-12-06 02:00:5337.023-5.48971117989109Clb=-3.0m/s t=-43.2C h=7.7% p=308.2hPa 402.505 MHz Type=RS41-SGP ser=U0150025 Radiosonde
EA7KDTU01500252022-12-06 02:00:4737.0243-5.49258120989143Clb=-3.3m/s t=-43.5C h=7.6% p=306.6hPa 402.502 MHz Type=RS41-SGP ser=U0150025 Radiosonde
WINDFERU01500252022-12-06 02:00:2237.0271-5.497981231069208Clb=-3.6m/s t=-43.9C h=6.9% p=303.7hPa 402.505 MHz Type=RS41-SGP ser=U0150025 Radiosonde
EA7KDTU01500252022-12-06 02:00:1137.0287-5.501131211099242Clb=-3.0m/s t=-44.0C h=6.3% p=302.2hPa 402.502 MHz Type=RS41-SGP ser=U0150025 Radiosonde
WINDFERU01500252022-12-06 01:59:5137.0315-5.507161201139301Clb=-2.9m/s t=-44.0C h=5.4% p=299.6hPa 402.505 MHz Type=RS41-SGP ser=U0150025 Radiosonde
EA7KDTU01500252022-12-06 01:59:4037.0331-5.510251251009331Clb=-2.7m/s t=-44.1C h=5.2% p=298.3hPa 402.502 MHz Type=RS41-SGP ser=U0150025 Radiosonde
WINDFERU01500252022-12-06 01:59:2037.036-5.51519125949388Clb=-2.8m/s t=-44.4C h=5.0% p=295.8hPa 402.505 MHz Type=RS41-SGP ser=U0150025 Radiosonde
EA7KDTU01500252022-12-06 01:59:0937.0376-5.51786127989419Clb=-2.8m/s t=-44.5C h=4.9% p=294.4hPa 402.502 MHz Type=RS41-SGP ser=U0150025 Radiosonde
WINDFERU01500252022-12-06 01:58:4937.0404-5.5226125919475Clb=-2.8m/s t=-44.9C h=4.9% p=291.9hPa 402.505 MHz Type=RS41-SGP ser=U0150025 Radiosonde
EA7KDTU01500252022-12-06 01:58:3837.0417-5.52519118899505Clb=-2.7m/s t=-45.2C h=5.0% p=290.6hPa 402.502 MHz Type=RS41-SGP ser=U0150025 Radiosonde
WINDFERU01500252022-12-06 01:58:1837.044-5.53013117879566Clb=-2.7m/s t=-45.6C h=5.0% p=288.0hPa 402.505 MHz Type=RS41-SGP ser=U0150025 Radiosonde
EA7KDTU01500252022-12-06 01:58:0737.045-5.53254118859595Clb=-3.2m/s t=-45.6C h=5.0% p=286.7hPa 402.502 MHz Type=RS41-SGP ser=U0150025 Radiosonde
WINDFERU01500252022-12-06 01:57:4737.0472-5.53719117859653Clb=-3.0m/s t=-46.1C h=5.0% p=284.3hPa 402.505 MHz Type=RS41-SGP ser=U0150025 Radiosonde
EA7KDTU01500252022-12-06 01:57:3637.0482-5.53982112859687Clb=-2.7m/s t=-46.3C h=5.0% p=282.8hPa 402.502 MHz Type=RS41-SGP ser=U0150025 Radiosonde
WINDFERU01500252022-12-06 01:57:1637.0499-5.54544109939751Clb=-3.1m/s t=-46.8C h=5.2% p=280.1hPa 402.505 MHz Type=RS41-SGP ser=U0150025 Radiosonde
EA7KDTU01500252022-12-06 01:57:0537.0507-5.548321091029783Clb=-3.0m/s t=-46.9C h=5.3% p=278.8hPa 402.502 MHz Type=RS41-SGP ser=U0150025 Radiosonde
WINDFERU01500252022-12-06 01:56:4537.053-5.55453120969849Clb=-3.3m/s t=-47.5C h=5.5% p=276.0hPa 402.505 MHz Type=RS41-SGP ser=U0150025 Radiosonde
EA7KDTU01500252022-12-06 01:56:3437.0542-5.55705120899882Clb=-3.2m/s t=-47.8C h=5.4% p=274.6hPa 402.502 MHz Type=RS41-SGP ser=U0150025 Radiosonde
WINDFERU01500252022-12-06 01:56:1437.0565-5.56204121919951Clb=-3.4m/s t=-48.1C h=4.9% p=271.8hPa 402.505 MHz Type=RS41-SGP ser=U0150025 Radiosonde
EA7KDTU01500252022-12-06 01:56:0337.0577-5.56439122839985Clb=-3.4m/s t=-48.1C h=4.7% p=270.3hPa 402.502 MHz Type=RS41-SGP ser=U0150025 Radiosonde
WINDFERU01500252022-12-06 01:55:4337.0596-5.568971187610057Clb=-3.5m/s t=-48.2C h=4.5% p=267.4hPa 402.505 MHz Type=RS41-SGP ser=U0150025 Radiosonde
EA7KDTU01500252022-12-06 01:55:3237.0605-5.571081127410092Clb=-3.5m/s t=-48.1C h=4.5% p=266.0hPa 402.502 MHz Type=RS41-SGP ser=U0150025 Radiosonde
WINDFERU01500252022-12-06 01:55:1137.0621-5.576521139610164Clb=-3.3m/s t=-48.3C h=4.9% p=263.1hPa 402.505 MHz Type=RS41-SGP ser=U0150025 Radiosonde
EA7KDTU01500252022-12-06 01:55:0137.0632-5.579281159810198Clb=-3.3m/s t=-48.5C h=5.1% p=261.7hPa 402.502 MHz Type=RS41-SGP ser=U0150025 Radiosonde
WINDFERU01500252022-12-06 01:54:4037.0655-5.5852711710210267Clb=-3.4m/s t=-48.9C h=5.5% p=259.0hPa 402.505 MHz Type=RS41-SGP ser=U0150025 Radiosonde
EA7KDTU01500252022-12-06 01:54:3037.0668-5.588051209610299Clb=-3.4m/s t=-49.0C h=5.7% p=257.8hPa 402.502 MHz Type=RS41-SGP ser=U0150025 Radiosonde
WINDFERU01500252022-12-06 01:54:0937.069-5.593061168010366Clb=-3.6m/s t=-49.4C h=6.6% p=255.2hPa 402.505 MHz Type=RS41-SGP ser=U0150025 Radiosonde
EA7KDTU01500252022-12-06 01:53:5937.07-5.595481187610402Clb=-3.3m/s t=-49.4C h=6.8% p=253.7hPa 402.502 MHz Type=RS41-SGP ser=U0150025 Radiosonde
WINDFERU01500252022-12-06 01:53:3837.0717-5.600041129110466Clb=-3.0m/s t=-49.5C h=6.9% p=251.3hPa 402.505 MHz Type=RS41-SGP ser=U0150025 Radiosonde
EA7KDTU01500252022-12-06 01:53:2837.0728-5.602951199310502Clb=-3.2m/s t=-49.6C h=6.7% p=249.9hPa 402.502 MHz Type=RS41-SGP ser=U0150025 Radiosonde
WINDFERU01500252022-12-06 01:53:0737.0751-5.607371187410567Clb=-3.4m/s t=-50.0C h=7.1% p=247.5hPa 402.505 MHz Type=RS41-SGP ser=U0150025 Radiosonde
EA7KDTU01500252022-12-06 01:52:5737.076-5.609721107810602Clb=-3.1m/s t=-50.2C h=7.4% p=246.2hPa 402.502 MHz Type=RS41-SGP ser=U0150025 Radiosonde
WINDFERU01500252022-12-06 01:52:3637.0775-5.615011119810667Clb=-3.2m/s t=-50.8C h=7.3% p=243.7hPa 402.505 MHz Type=RS41-SGP ser=U0150025 Radiosonde
EA7KDTU01500252022-12-06 01:52:2537.0785-5.6181911310010704Clb=-3.6m/s t=-51.1C h=7.2% p=242.3hPa 402.502 MHz Type=RS41-SGP ser=U0150025 Radiosonde
WINDFERU01500252022-12-06 01:52:0537.0809-5.62381219410771Clb=-3.5m/s t=-51.6C h=7.0% p=239.8hPa 402.505 MHz Type=RS41-SGP ser=U0150025 Radiosonde
EA7KDTU01500252022-12-06 01:51:5537.0822-5.626681209810810Clb=-3.8m/s t=-51.5C h=6.9% p=238.4hPa 402.502 MHz Type=RS41-SGP ser=U0150025 Radiosonde
WINDFERU01500252022-12-06 01:51:3437.0842-5.63141118010881Clb=-3.7m/s t=-51.9C h=7.0% p=235.8hPa 402.505 MHz Type=RS41-SGP ser=U0150025 Radiosonde
EA7KDTU01500252022-12-06 01:51:2337.085-5.633861157410923Clb=-3.9m/s t=-52.1C h=7.1% p=234.3hPa 402.502 MHz Type=RS41-SGP ser=U0150025 Radiosonde
EA4EKH-11U01500252022-12-06 01:51:2237.0866-5.637981136910998Clb=-3.7m/s t=-52.0C h=7.4% p=231.6hPa 402.500 MHz Type=RS41-SGP ser=U0150025 Radiosonde
WINDFERU01500252022-12-06 01:51:0337.0867-5.638181136911002Clb=-4.1m/s t=-52.1C h=7.4% p=231.4hPa 402.505 MHz Type=RS41-SGP ser=U0150025 Radiosonde
EA7KDTU01500252022-12-06 01:50:5237.0874-5.640111176711039Clb=-3.8m/s t=-52.3C h=7.7% p=230.1hPa 402.502 MHz Type=RS41-SGP ser=U0150025 Radiosonde
EA4EKH-11U01500252022-12-06 01:50:5137.0876-5.640481176711047Clb=-4.1m/s t=-52.4C h=7.8% p=229.9hPa 402.500 MHz Type=RS41-SGP ser=U0150025 Radiosonde
WINDFERU01500252022-12-06 01:50:3237.0889-5.643681136111116Clb=-3.8m/s t=-52.9C h=8.1% p=227.4hPa 402.505 MHz Type=RS41-SGP ser=U0150025 Radiosonde
EA7KDTU01500252022-12-06 01:50:2137.0894-5.645761036111158Clb=-3.9m/s t=-53.1C h=8.1% p=226.0hPa 402.502 MHz Type=RS41-SGP ser=U0150025 Radiosonde
EA4EKH-11U01500252022-12-06 01:50:2037.0895-5.645951036311161Clb=-4.0m/s t=-53.1C h=-1.0% p=225.8hPa 402.500 MHz Type=RS41-SGP ser=U0150025 Radiosonde
WINDFERU01500252022-12-06 01:50:0137.0904-5.650341118111234Clb=-3.9m/s t=-53.5C h=8.6% p=223.4hPa 402.505 MHz Type=RS41-SGP ser=U0150025 Radiosonde
EA7KDTU01500252022-12-06 01:49:5037.0913-5.652991168111277Clb=-4.1m/s t=-53.5C h=8.5% p=221.9hPa 402.502 MHz Type=RS41-SGP ser=U0150025 Radiosonde
EA4EKH-11U01500252022-12-06 01:49:4937.0914-5.653221178011281Clb=-3.9m/s t=-273.0C h=-1.0% p=-1.0hPa 402.500 MHz Type=RS41-SGP ser=U0150025 Radiosonde
WINDFERU01500252022-12-06 01:49:3037.0926-5.65721007211357Clb=-3.5m/s t=-53.7C h=8.1% p=219.2hPa 402.505 MHz Type=RS41-SGP ser=U0150025 Radiosonde
EA7KDTU01500252022-12-06 01:49:1937.0929-5.659471007011395Clb=-3.8m/s t=-54.0C h=8.0% p=217.9hPa 402.502 MHz Type=RS41-SGP ser=U0150025 Radiosonde
EA4EKH-11U01500252022-12-06 01:49:1837.0929-5.659691007011399Clb=-3.7m/s t=-273.0C h=-1.0% p=-1.0hPa 402.500 MHz Type=RS41-SGP ser=U0150025 Radiosonde
WINDFERU01500252022-12-06 01:48:5937.0938-5.664661089111476Clb=-4.1m/s t=-54.3C h=7.7% p=215.1hPa 402.505 MHz Type=RS41-SGP ser=U0150025 Radiosonde
EA7KDTU01500252022-12-06 01:48:4837.0945-5.667351058911516Clb=-3.8m/s t=-54.2C h=7.3% p=213.8hPa 402.502 MHz Type=RS41-SGP ser=U0150025 Radiosonde
EA4EKH-11U01500252022-12-06 01:48:4737.0948-5.66871058911535Clb=-4.0m/s t=-273.0C h=-1.0% p=-1.0hPa 402.500 MHz Type=RS41 ser=U0150025 Radiosonde
WINDFERU01500252022-12-06 01:48:2837.096-5.673091119311597Clb=-3.9m/s t=-54.5C h=6.9% p=211.1hPa 402.505 MHz Type=RS41-SGP ser=U0150025 Radiosonde
EA7KDTU01500252022-12-06 01:48:1737.097-5.675811169411636Clb=-4.0m/s t=-54.4C h=6.1% p=209.8hPa 402.502 MHz Type=RS41-SGP ser=U0150025 Radiosonde
WINDFERU01500252022-12-06 01:47:5737.0987-5.680361166911721Clb=-4.2m/s t=-54.8C h=5.7% p=207.0hPa 402.505 MHz Type=RS41-SGP ser=U0150025 Radiosonde
EA7KDTU01500252022-12-06 01:47:4637.0996-5.682231226711763Clb=-4.1m/s t=-54.4C h=5.2% p=205.7hPa 402.502 MHz Type=RS41-SGP ser=U0150025 Radiosonde
WINDFERU01500252022-12-06 01:47:2637.1017-5.68591276511845Clb=-4.0m/s t=-54.0C h=4.6% p=203.1hPa 402.505 MHz Type=RS41-SGP ser=U0150025 Radiosonde
EA7KDTU01500252022-12-06 01:47:1537.1028-5.687511306511884Clb=-4.1m/s t=-54.2C h=4.4% p=201.8hPa 402.502 MHz Type=RS41-SGP ser=U0150025 Radiosonde
WINDFERU01500252022-12-06 01:46:5437.105-5.690591335711965Clb=-4.0m/s t=-54.7C h=4.3% p=199.2hPa 402.505 MHz Type=RS41-SGP ser=U0150025 Radiosonde
EA7KDTU01500252022-12-06 01:46:4437.1058-5.691871215012004Clb=-3.8m/s t=-54.3C h=3.9% p=198.1hPa 402.502 MHz Type=RS41-SGP ser=U0150025 Radiosonde
WINDFERU01500252022-12-06 01:46:2337.1069-5.695361095212084Clb=-3.8m/s t=-54.4C h=3.7% p=195.5hPa 402.505 MHz Type=RS41-SGP ser=U0150025 Radiosonde
EA7KDTU01500252022-12-06 01:46:1337.1074-5.696921144612125Clb=-3.6m/s t=-54.4C h=3.6% p=194.3hPa 402.502 MHz Type=RS41-SGP ser=U0150025 Radiosonde
WINDFERU01500252022-12-06 01:45:5237.1082-5.699551024812199Clb=-3.5m/s t=-54.4C h=3.4% p=192.1hPa 402.505 MHz Type=RS41-SGP ser=U0150025 Radiosonde
EA7KDTU01500252022-12-06 01:45:4237.1085-5.70109984612236Clb=-3.8m/s t=-54.7C h=3.4% p=191.0hPa 402.502 MHz Type=RS41-SGP ser=U0150025 Radiosonde
WINDFERU01500252022-12-06 01:45:2137.1089-5.70411984612312Clb=-3.7m/s t=-55.0C h=3.3% p=188.8hPa 402.505 MHz Type=RS41-SGP ser=U0150025 Radiosonde
EA7KDTU01500252022-12-06 01:45:1137.109-5.70577935712348Clb=-3.5m/s t=-55.1C h=3.2% p=187.7hPa 402.502 MHz Type=RS41-SGP ser=U0150025 Radiosonde
WINDFERU01500252022-12-06 01:44:5037.109-5.70954865712426Clb=-3.9m/s t=-55.6C h=3.2% p=185.4hPa 402.505 MHz Type=RS41-SGP ser=U0150025 Radiosonde
EA7KDTU01500252022-12-06 01:44:4037.1089-5.71186957412466Clb=-3.6m/s t=-55.7C h=3.1% p=184.2hPa 402.502 MHz Type=RS41-SGP ser=U0150025 Radiosonde
WINDFERU01500252022-12-06 01:44:1937.1095-5.716451007412538Clb=-3.9m/s t=-55.8C h=3.0% p=182.2hPa 402.505 MHz Type=RS41-SGP ser=U0150025 Radiosonde
EA7KDTU01500252022-12-06 01:44:0937.1099-5.718911066912578Clb=-3.6m/s t=-56.1C h=2.9% p=181.1hPa 402.502 MHz Type=RS41-SGP ser=U0150025 Radiosonde
EA4EKH-11U01500252022-12-06 01:44:0837.1106-5.721281106512623Clb=-3.6m/s t=-55.9C h=2.8% p=179.8hPa 402.500 MHz Type=RS41-SGP ser=U0150025 Radiosonde
WINDFERU01500252022-12-06 01:43:4837.111-5.722711065612651Clb=-3.7m/s t=-56.0C h=2.8% p=179.0hPa 402.505 MHz Type=RS41-SGP ser=U0150025 Radiosonde
EA7KDTU01500252022-12-06 01:43:3837.1112-5.72444905212693Clb=-3.6m/s t=-56.2C h=2.7% p=177.8hPa 402.502 MHz Type=RS41-SGP ser=U0150025 Radiosonde
WINDFERU01500252022-12-06 01:43:1737.1116-5.728941047612770Clb=-4.0m/s t=-56.6C h=2.6% p=175.6hPa 402.505 MHz Type=RS41-SGP ser=U0150025 Radiosonde
EA7KDTU01500252022-12-06 01:43:0737.1122-5.730941135912807Clb=-3.6m/s t=-56.5C h=2.5% p=174.7hPa 402.502 MHz Type=RS41-SGP ser=U0150025 Radiosonde
WINDFERU01500252022-12-06 01:42:4637.1135-5.734321195712888Clb=-3.9m/s t=-56.9C h=2.4% p=172.4hPa 402.505 MHz Type=RS41-SGP ser=U0150025 Radiosonde
EA7KDTU01500252022-12-06 01:42:3637.1142-5.735721194312927Clb=-4.0m/s t=-56.8C h=2.4% p=171.3hPa 402.502 MHz Type=RS41-SGP ser=U0150025 Radiosonde
EA4EKH-11U01500252022-12-06 01:42:3437.1143-5.735961114112935Clb=-4.0m/s t=-56.6C h=2.3% p=171.2hPa 402.500 MHz Type=RS41-SGP ser=U0150025 Radiosonde
WINDFERU01500252022-12-06 01:42:1537.1147-5.73908996313009Clb=-3.9m/s t=-56.6C h=2.2% p=169.2hPa 402.505 MHz Type=RS41-SGP ser=U0150025 Radiosonde
EA7KDTU01500252022-12-06 01:42:0537.1151-5.741171087213050Clb=-4.4m/s t=-56.9C h=2.3% p=168.1hPa 402.502 MHz Type=RS41-SGP ser=U0150025 Radiosonde
EA4EKH-11U01500252022-12-06 01:42:0337.1153-5.741771166713062Clb=-3.7m/s t=-57.0C h=2.3% p=167.7hPa 402.500 MHz Type=RS41-SGP ser=U0150025 Radiosonde
WINDFERU01500252022-12-06 01:41:4437.1162-5.74431964413133Clb=-4.0m/s t=-57.3C h=2.3% p=165.9hPa 402.505 MHz Type=RS41-SGP ser=U0150025 Radiosonde
EA7KDTU01500252022-12-06 01:41:3437.1162-5.74568884413177Clb=-4.6m/s t=-57.4C h=2.3% p=164.8hPa 402.502 MHz Type=RS41-SGP ser=U0150025 Radiosonde
EA4EKH-11U01500252022-12-06 01:41:3237.1162-5.74583864613181Clb=-4.3m/s t=-57.5C h=2.4% p=164.7hPa 402.500 MHz Type=RS41-SGP ser=U0150025 Radiosonde
WINDFERU01500252022-12-06 01:41:1337.1163-5.749521036113266Clb=-4.3m/s t=-57.2C h=2.2% p=162.5hPa 402.505 MHz Type=RS41-SGP ser=U0150025 Radiosonde
EA7KDTU01500252022-12-06 01:41:0337.1167-5.751241074813309Clb=-4.3m/s t=-57.4C h=2.3% p=161.4hPa 402.502 MHz Type=RS41-SGP ser=U0150025 Radiosonde
EA4EKH-11U01500252022-12-06 01:41:0137.1168-5.751521084613317Clb=-3.9m/s t=-57.4C h=2.3% p=161.2hPa 402.500 MHz Type=RS41-SGP ser=U0150025 Radiosonde
WINDFERU01500252022-12-06 01:40:4237.1173-5.7539903313400Clb=-4.3m/s t=-57.6C h=2.3% p=159.1hPa 402.505 MHz Type=RS41-SGP ser=U0150025 Radiosonde
EA7KDTU01500252022-12-06 01:40:3137.1172-5.75519774613443Clb=-4.6m/s t=-57.9C h=2.3% p=158.0hPa 402.502 MHz Type=RS41-SGP ser=U0150025 Radiosonde
EA4EKH-11U01500252022-12-06 01:40:3037.1171-5.75533774613448Clb=-4.6m/s t=-57.9C h=2.4% p=157.8hPa 402.500 MHz Type=RS41-SGP ser=U0150025 Radiosonde
WINDFERU01500252022-12-06 01:40:1137.1166-5.75805745013539Clb=-4.6m/s t=-58.0C h=2.4% p=155.6hPa 402.505 MHz Type=RS41-SGP ser=U0150025 Radiosonde
EA7KDTU01500252022-12-06 01:40:0037.1163-5.75977766313585Clb=-4.4m/s t=-58.3C h=2.5% p=154.5hPa 402.502 MHz Type=RS41-SGP ser=U0150025 Radiosonde
EA4EKH-11U01500252022-12-06 01:39:5937.1162-5.75996776313589Clb=-4.4m/s t=-58.3C h=2.5% p=154.4hPa 402.500 MHz Type=RS41-SGP ser=U0150025 Radiosonde
WINDFERU01500252022-12-06 01:39:3937.1161-5.76437947213683Clb=-4.8m/s t=-59.0C h=2.5% p=152.1hPa 402.505 MHz Type=RS41-SGP ser=U0150025 Radiosonde
EA7KDTU01500252022-12-06 01:39:2937.1161-5.76672837413729Clb=-4.4m/s t=-59.4C h=2.6% p=151.0hPa 402.502 MHz Type=RS41-SGP ser=U0150025 Radiosonde
EA4EKH-11U01500252022-12-06 01:39:2837.116-5.76719827613739Clb=-5.0m/s t=-59.4C h=2.6% p=150.8hPa 402.500 MHz Type=RS41-SGP ser=U0150025 Radiosonde
WINDFERU01500252022-12-06 01:39:0837.1162-5.77171026713830Clb=-4.4m/s t=-60.2C h=2.8% p=148.6hPa 402.505 MHz Type=RS41-SGP ser=U0150025 Radiosonde
EA7KDTU01500252022-12-06 01:38:5837.1165-5.773511035413877Clb=-4.8m/s t=-60.6C h=2.8% p=147.4hPa 402.502 MHz Type=RS41-SGP ser=U0150025 Radiosonde
EA4EKH-11U01500252022-12-06 01:38:5737.1166-5.773681035213881Clb=-4.7m/s t=-60.6C h=2.8% p=147.3hPa 402.500 MHz Type=RS41-SGP ser=U0150025 Radiosonde
WINDFERU01500252022-12-06 01:38:3737.1166-5.77678906513968Clb=-3.7m/s t=-60.8C h=2.9% p=145.3hPa 402.505 MHz Type=RS41-SGP ser=U0150025 Radiosonde
EA7KDTU01500252022-12-06 01:38:2737.117-5.778761155414012Clb=-4.1m/s t=-60.5C h=2.9% p=144.3hPa 402.502 MHz Type=RS41-SGP ser=U0150025 Radiosonde
EA4EKH-11U01500252022-12-06 01:38:2637.1171-5.779041174614020Clb=-4.5m/s t=-60.2C h=2.8% p=144.1hPa 402.500 MHz Type=RS41-SGP ser=U0150025 Radiosonde
WINDFERU01500252022-12-06 01:38:0637.1173-5.78138865614108Clb=-4.7m/s t=-60.7C h=2.9% p=142.1hPa 402.505 MHz Type=RS41-SGP ser=U0150025 Radiosonde
EA7KDTU01500252022-12-06 01:37:5637.1175-5.78321105714153Clb=-4.6m/s t=-61.1C h=3.0% p=141.1hPa 402.502 MHz Type=RS41-SGP ser=U0150025 Radiosonde
EA4EKH-11U01500252022-12-06 01:37:5537.1176-5.783371115614157Clb=-4.4m/s t=-61.1C h=3.0% p=141.0hPa 402.500 MHz Type=RS41-SGP ser=U0150025 Radiosonde
WINDFERU01500252022-12-06 01:37:3537.1186-5.785631213014246Clb=-4.5m/s t=-61.4C h=3.2% p=139.0hPa 402.505 MHz Type=RS41-SGP ser=U0150025 Radiosonde
EA7KDTU01500252022-12-06 01:37:2537.1189-5.786381212214291Clb=-4.7m/s t=-61.6C h=3.2% p=138.0hPa 402.502 MHz Type=RS41-SGP ser=U0150025 Radiosonde
EA4EKH-11U01500252022-12-06 01:37:2437.119-5.78651162014299Clb=-4.7m/s t=-61.4C h=3.2% p=137.8hPa 402.500 MHz Type=RS41-SGP ser=U0150025 Radiosonde
WINDFERU01500252022-12-06 01:37:0437.1189-5.788321004314384Clb=-4.4m/s t=-61.8C h=3.4% p=135.9hPa 402.505 MHz Type=RS41-SGP ser=U0150025 Radiosonde
EA7KDTU01500252022-12-06 01:36:5437.1193-5.789511273714428Clb=-4.9m/s t=-62.0C h=3.3% p=135.0hPa 402.502 MHz Type=RS41-SGP ser=U0150025 Radiosonde
EA4EKH-11U01500252022-12-06 01:36:5337.1194-5.789681323314437Clb=-4.7m/s t=-62.0C h=3.3% p=134.8hPa 402.500 MHz Type=RS41-SGP ser=U0150025 Radiosonde
WINDFERU01500252022-12-06 01:36:3337.1196-5.79092873914521Clb=-4.4m/s t=-62.3C h=3.5% p=133.0hPa 402.505 MHz Type=RS41-SGP ser=U0150025 Radiosonde
EA7KDTU01500252022-12-06 01:36:2337.1199-5.792241224414565Clb=-4.2m/s t=-62.6C h=3.5% p=132.0hPa 402.502 MHz Type=RS41-SGP ser=U0150025 Radiosonde
EA4EKH-11U01500252022-12-06 01:36:2237.12-5.792461294314574Clb=-4.7m/s t=-62.6C h=3.6% p=131.8hPa 402.500 MHz Type=RS41-SGP ser=U0150025 Radiosonde
WINDFERU01500252022-12-06 01:36:0237.1207-5.7937812614655Clb=-4.3m/s t=-63.1C h=3.6% p=130.1hPa 402.505 MHz Type=RS41-SGP ser=U0150025 Radiosonde
EA7KDTU01500252022-12-06 01:35:5237.1208-5.795051104614704Clb=-4.3m/s t=-63.2C h=3.8% p=129.1hPa 402.502 MHz Type=RS41-SGP ser=U0150025 Radiosonde
EA4EKH-11U01500252022-12-06 01:35:5137.1209-5.795321174614712Clb=-4.2m/s t=-63.3C h=3.8% p=128.9hPa 402.500 MHz Type=RS41-SGP ser=U0150025 Radiosonde
WINDFERU01500252022-12-06 01:35:3137.1216-5.79657871314790Clb=-4.7m/s t=-63.6C h=3.8% p=127.3hPa 402.505 MHz Type=RS41-SGP ser=U0150025 Radiosonde
EA7KDTU01500252022-12-06 01:35:2137.1214-5.79747844114838Clb=-3.9m/s t=-63.8C h=3.9% p=126.3hPa 402.502 MHz Type=RS41-SGP ser=U0150025 Radiosonde
EA4EKH-11U01500252022-12-06 01:35:2037.1214-5.7976884314842Clb=-3.9m/s t=-63.7C h=3.9% p=126.2hPa 402.500 MHz Type=RS41-SGP ser=U0150025 Radiosonde
WINDFERU01500252022-12-06 01:35:0037.122-5.799351181114924Clb=-4.5m/s t=-63.9C h=3.9% p=124.5hPa 402.505 MHz Type=RS41-SGP ser=U0150025 Radiosonde
EA7KDTU01500252022-12-06 01:34:5037.1218-5.79987552814972Clb=-4.7m/s t=-63.9C h=3.9% p=123.5hPa 402.502 MHz Type=RS41-SGP ser=U0150025 Radiosonde
EA4EKH-11U01500252022-12-06 01:34:4937.1217-5.79995573114976Clb=-4.7m/s t=-63.8C h=3.9% p=123.4hPa 402.500 MHz Type=RS41-SGP ser=U0150025 Radiosonde
WINDFERU01500252022-12-06 01:34:2937.1217-5.802241054115062Clb=-4.5m/s t=-63.7C h=4.0% p=121.8hPa 402.505 MHz Type=RS41-SGP ser=U0150025 Radiosonde
EA7KDTU01500252022-12-06 01:34:1937.1223-5.803391363315114Clb=-4.8m/s t=-63.6C h=3.8% p=120.7hPa 402.502 MHz Type=RS41-SGP ser=U0150025 Radiosonde
EA4EKH-11U01500252022-12-06 01:34:1837.1223-5.803471393115118Clb=-4.5m/s t=-63.6C h=3.9% p=120.6hPa 402.500 MHz Type=RS41-SGP ser=U0150025 Radiosonde
WINDFERU01500252022-12-06 01:33:5837.1228-5.80459873515210Clb=-5.2m/s t=-63.4C h=3.9% p=118.9hPa 402.505 MHz Type=RS41-SGP ser=U0150025 Radiosonde
EA7KDTU01500252022-12-06 01:33:4837.1231-5.805821234315257Clb=-4.7m/s t=-63.1C h=3.8% p=118.0hPa 402.502 MHz Type=RS41-SGP ser=U0150025 Radiosonde
EA4EKH-11U01500252022-12-06 01:33:4637.1233-5.806231323915276Clb=-4.8m/s t=-63.1C h=3.8% p=117.6hPa 402.500 MHz Type=RS41-SGP ser=U0150025 Radiosonde
WINDFERU01500252022-12-06 01:33:2737.1239-5.80711782215354Clb=-4.7m/s t=-63.8C h=4.0% p=116.1hPa 402.505 MHz Type=RS41-SGP ser=U0150025 Radiosonde
EA7KDTU01500252022-12-06 01:33:1737.1237-5.80802703115402Clb=-4.8m/s t=-64.1C h=4.1% p=115.2hPa 402.502 MHz Type=RS41-SGP ser=U0150025 Radiosonde
EA4EKH-11U01500252022-12-06 01:33:1537.1237-5.80821673115412Clb=-5.1m/s t=-64.1C h=4.1% p=115.0hPa 402.500 MHz Type=RS41-SGP ser=U0150025 Radiosonde
WINDFERU01500252022-12-06 01:32:5637.1231-5.81076885615505Clb=-5.2m/s t=-64.2C h=4.0% p=113.3hPa 402.505 MHz Type=RS41-SGP ser=U0150025 Radiosonde
EA7KDTU01500252022-12-06 01:32:4637.1233-5.812411094815553Clb=-4.9m/s t=-64.1C h=4.1% p=112.4hPa 402.502 MHz Type=RS41-SGP ser=U0150025 Radiosonde
EA4EKH-11U01500252022-12-06 01:32:4437.1234-5.812551104615558Clb=-4.7m/s t=-64.2C h=4.1% p=112.3hPa 402.500 MHz Type=RS41-SGP ser=U0150025 Radiosonde
WINDFERU01500252022-12-06 01:32:2537.1241-5.81458832215656Clb=-5.1m/s t=-64.4C h=4.0% p=110.5hPa 402.505 MHz Type=RS41-SGP ser=U0150025 Radiosonde
EA7KDTU01500252022-12-06 01:32:1537.1241-5.81583885215705Clb=-4.9m/s t=-64.5C h=4.2% p=109.7hPa 402.502 MHz Type=RS41-SGP ser=U0150025 Radiosonde
EA4EKH-11U01500252022-12-06 01:32:1337.1244-5.818161125915770Clb=-5.2m/s t=-64.5C h=4.0% p=108.5hPa 402.500 MHz Type=RS41-SGP ser=U0150025 Radiosonde
WINDFERU01500252022-12-06 01:31:5337.1249-5.819331265215809Clb=-4.9m/s t=-64.6C h=4.2% p=107.8hPa 402.505 MHz Type=RS41-SGP ser=U0150025 Radiosonde
EA7KDTU01500252022-12-06 01:31:4337.1257-5.820511334615861Clb=-5.0m/s t=-64.7C h=4.3% p=106.9hPa 402.502 MHz Type=RS41-SGP ser=U0150025 Radiosonde
EA4EKH-11U01500252022-12-06 01:31:4237.1258-5.820621344615866Clb=-4.8m/s t=-64.6C h=4.3% p=106.8hPa 402.500 MHz Type=RS41-SGP ser=U0150025 Radiosonde
WINDFERU01500252022-12-06 01:31:2237.1274-5.822051432215969Clb=-4.9m/s t=-63.6C h=3.9% p=105.0hPa 402.505 MHz Type=RS41-SGP ser=U0150025 Radiosonde
EA7KDTU01500252022-12-06 01:31:1237.1276-5.822751003516022Clb=-5.4m/s t=-63.7C h=3.9% p=104.1hPa 402.502 MHz Type=RS41-SGP ser=U0150025 Radiosonde
EA4EKH-11U01500252022-12-06 01:31:1137.1277-5.822861013716027Clb=-5.3m/s t=-63.6C h=3.9% p=104.0hPa 402.500 MHz Type=RS41-SGP ser=U0150025 Radiosonde
WINDFERU01500252022-12-06 01:30:5137.1281-5.825831035716132Clb=-5.9m/s t=-64.0C h=4.0% p=102.2hPa 402.505 MHz Type=RS41-SGP ser=U0150025 Radiosonde
EA7KDTU01500252022-12-06 01:30:4137.1287-5.827721217016187Clb=-5.5m/s t=-64.2C h=3.9% p=101.4hPa 402.502 MHz Type=RS41-SGP ser=U0150025 Radiosonde
EA4EKH-11U01500252022-12-06 01:30:4037.1288-5.827911237016193Clb=-5.6m/s t=-64.2C h=3.9% p=101.2hPa 402.500 MHz Type=RS41-SGP ser=U0150025 Radiosonde
WINDFERU01500252022-12-06 01:30:2037.1308-5.83031404416302Clb=-5.5m/s t=-64.6C h=4.0% p=99.5hPa 402.505 MHz Type=RS41-SGP ser=U0150025 Radiosonde
EA7KDTU01500252022-12-06 01:30:1037.1315-5.831091403316356Clb=-5.3m/s t=-64.7C h=3.9% p=98.6hPa 402.502 MHz Type=RS41-SGP ser=U0150025 Radiosonde
WINDFERU01500252022-12-06 01:29:4937.1326-5.832171431716474Clb=-5.7m/s t=-65.2C h=3.9% p=96.7hPa 402.505 MHz Type=RS41-SGP ser=U0150025 Radiosonde
EA7KDTU01500252022-12-06 01:29:3937.133-5.832411511116531Clb=-5.6m/s t=-65.5C h=4.0% p=95.8hPa 402.502 MHz Type=RS41-SGP ser=U0150025 Radiosonde
EA4EKH-11U01500252022-12-06 01:29:3837.133-5.83243146916536Clb=-5.8m/s t=-65.5C h=3.9% p=95.7hPa 402.500 MHz Type=RS41-SGP ser=U0150025 Radiosonde
WINDFERU01500252022-12-06 01:29:1837.1329-5.83312562616652Clb=-6.1m/s t=-64.9C h=3.8% p=93.9hPa 402.505 MHz Type=RS41-SGP ser=U0150025 Radiosonde
EA7KDTU01500252022-12-06 01:29:0837.1327-5.83406913316709Clb=-5.2m/s t=-64.9C h=3.8% p=93.1hPa 402.502 MHz Type=RS41-SGP ser=U0150025 Radiosonde
EA4EKH-11U01500252022-12-06 01:29:0737.1327-5.83417953316714Clb=-5.6m/s t=-65.0C h=3.8% p=93.0hPa 402.500 MHz Type=RS41-SGP ser=U0150025 Radiosonde
WINDFERU01500252022-12-06 01:28:4737.1325-5.83653764316828Clb=-5.8m/s t=-64.5C h=3.6% p=91.2hPa 402.505 MHz Type=RS41-SGP ser=U0150025 Radiosonde
EA7KDTU01500252022-12-06 01:28:3737.1324-5.83807985216888Clb=-5.9m/s t=-64.3C h=3.5% p=90.4hPa 402.502 MHz Type=RS41-SGP ser=U0150025 Radiosonde
EA4EKH-11U01500252022-12-06 01:28:3637.1324-5.838231015016894Clb=-5.9m/s t=-64.3C h=3.5% p=90.3hPa 402.500 MHz Type=RS41-SGP ser=U0150025 Radiosonde
WINDFERU01500252022-12-06 01:28:1637.1328-5.84014672617008Clb=-5.7m/s t=-64.2C h=3.5% p=88.6hPa 402.505 MHz Type=RS41-SGP ser=U0150025 Radiosonde
EA7KDTU01500252022-12-06 01:28:0637.1324-5.84102563717067Clb=-5.6m/s t=-64.2C h=3.3% p=87.8hPa 402.502 MHz Type=RS41-SGP ser=U0150025 Radiosonde
EA4EKH-11U01500252022-12-06 01:28:0537.1323-5.84123554317079Clb=-5.8m/s t=-64.2C h=3.3% p=87.6hPa 402.500 MHz Type=RS41-SGP ser=U0150025 Radiosonde
WINDFERU01500252022-12-06 01:27:4537.1315-5.84415835217187Clb=-6.1m/s t=-65.0C h=3.5% p=86.1hPa 402.505 MHz Type=RS41-SGP ser=U0150025 Radiosonde
EA7KDTU01500252022-12-06 01:27:3537.1315-5.84587915717246Clb=-6.3m/s t=-64.9C h=3.4% p=85.3hPa 402.502 MHz Type=RS41-SGP ser=U0150025 Radiosonde
EA4EKH-11U01500252022-12-06 01:27:3437.1315-5.84623955617258Clb=-6.0m/s t=-65.0C h=3.4% p=85.1hPa 402.500 MHz Type=RS41-SGP ser=U0150025 Radiosonde
WINDFERU01500252022-12-06 01:27:1437.1322-5.848861125417368Clb=-5.6m/s t=-64.5C h=3.3% p=83.5hPa 402.505 MHz Type=RS41-SGP ser=U0150025 Radiosonde
EA7KDTU01500252022-12-06 01:27:0437.1328-5.850491145617425Clb=-5.4m/s t=-64.1C h=3.1% p=82.8hPa 402.502 MHz Type=RS41-SGP ser=U0150025 Radiosonde
EA4EKH-11U01500252022-12-06 01:27:0337.1329-5.85081175617437Clb=-5.6m/s t=-64.1C h=3.1% p=82.6hPa 402.500 MHz Type=RS41-SGP ser=U0150025 Radiosonde
WINDFERU01500252022-12-06 01:26:4337.1343-5.853681345017549Clb=-5.7m/s t=-64.4C h=3.1% p=81.1hPa 402.505 MHz Type=RS41-SGP ser=U0150025 Radiosonde
EA7KDTU01500252022-12-06 01:26:3337.1351-5.854531434117600Clb=-5.7m/s t=-64.1C h=2.9% p=80.5hPa 402.502 MHz Type=RS41-SGP ser=U0150025 Radiosonde
EA4EKH-11U01500252022-12-06 01:26:3237.1353-5.854681444117612Clb=-5.3m/s t=-64.1C h=3.0% p=80.3hPa 402.500 MHz Type=RS41-SGP ser=U0150025 Radiosonde
WINDFERU01500252022-12-06 01:26:1237.1365-5.855831082217721Clb=-5.4m/s t=-64.4C h=3.0% p=78.9hPa 402.505 MHz Type=RS41-SGP ser=U0150025 Radiosonde
EA7KDTU01500252022-12-06 01:26:0237.1366-5.85647961717771Clb=-5.8m/s t=-63.7C h=2.9% p=78.3hPa 402.502 MHz Type=RS41-SGP ser=U0150025 Radiosonde
EA4EKH-11U01500252022-12-06 01:26:0137.1366-5.856571021117782Clb=-5.7m/s t=-63.7C h=2.9% p=78.1hPa 402.500 MHz Type=RS41-SGP ser=U0150025 Radiosonde
WINDFERU01500252022-12-06 01:25:4137.1362-5.85746693017897Clb=-5.4m/s t=-62.8C h=2.7% p=76.7hPa 402.505 MHz Type=RS41-SGP ser=U0150025 Radiosonde
EA7KDTU01500252022-12-06 01:25:3137.1361-5.85833813117946Clb=-5.4m/s t=-62.9C h=2.6% p=76.1hPa 402.502 MHz Type=RS41-SGP ser=U0150025 Radiosonde
EA4EKH-11U01500252022-12-06 01:25:3037.136-5.85853823117958Clb=-5.3m/s t=-63.0C h=2.6% p=76.0hPa 402.500 MHz Type=RS41-SGP ser=U0150025 Radiosonde
WINDFERU01500252022-12-06 01:25:1037.1353-5.8603433118066Clb=-5.6m/s t=-63.2C h=2.7% p=74.6hPa 402.505 MHz Type=RS41-SGP ser=U0150025 Radiosonde
EA7KDTU01500252022-12-06 01:25:0037.1348-5.86082303018116Clb=-5.5m/s t=-63.1C h=2.6% p=74.0hPa 402.502 MHz Type=RS41-SGP ser=U0150025 Radiosonde
EA4EKH-11U01500252022-12-06 01:24:5937.1347-5.86091283018127Clb=-5.5m/s t=-63.1C h=2.6% p=73.9hPa 402.500 MHz Type=RS41-SGP ser=U0150025 Radiosonde
WINDFERU01500252022-12-06 01:24:3937.1331-5.86235584618238Clb=-5.9m/s t=-63.1C h=2.6% p=72.6hPa 402.505 MHz Type=RS41-SGP ser=U0150025 Radiosonde
EA7KDTU01500252022-12-06 01:24:2937.1327-5.86338733118289Clb=-5.4m/s t=-63.4C h=2.6% p=72.0hPa 402.502 MHz Type=RS41-SGP ser=U0150025 Radiosonde
EA4EKH-11U01500252022-12-06 01:24:2837.1327-5.86356743018300Clb=-5.7m/s t=-63.4C h=2.6% p=71.8hPa 402.500 MHz Type=RS41-SGP ser=U0150025 Radiosonde
WINDFERU01500252022-12-06 01:24:0837.1323-5.86543783318414Clb=-5.8m/s t=-63.6C h=2.7% p=70.5hPa 402.505 MHz Type=RS41-SGP ser=U0150025 Radiosonde
EA7KDTU01500252022-12-06 01:23:5837.1322-5.8665863918468Clb=-6.3m/s t=-63.3C h=2.5% p=69.9hPa 402.502 MHz Type=RS41-SGP ser=U0150025 Radiosonde
EA4EKH-11U01500252022-12-06 01:23:5637.1322-5.86674873918481Clb=-6.1m/s t=-63.4C h=2.6% p=69.7hPa 402.500 MHz Type=RS41-SGP ser=U0150025 Radiosonde
WINDFERU01500252022-12-06 01:23:3637.1324-5.868941113118599Clb=-6.0m/s t=-63.3C h=2.6% p=68.4hPa 402.505 MHz Type=RS41-SGP ser=U0150025 Radiosonde
EA7KDTU01500252022-12-06 01:23:2737.1328-5.86991204618652Clb=-6.0m/s t=-63.2C h=2.4% p=67.8hPa 402.502 MHz Type=RS41-SGP ser=U0150025 Radiosonde
EA4EKH-11U01500252022-12-06 01:23:2537.1329-5.870171195018665Clb=-6.1m/s t=-63.3C h=2.5% p=67.7hPa 402.500 MHz Type=RS41-SGP ser=U0150025 Radiosonde
WINDFERU01500252022-12-06 01:23:0537.133-5.87431651718845Clb=-6.6m/s t=-63.6C h=2.6% p=65.8hPa 402.505 MHz Type=RS41-SGP ser=U0150025 Radiosonde
EA7KDTU01500252022-12-06 01:22:5637.133-5.87436771518852Clb=-6.3m/s t=-63.6C h=2.6% p=65.7hPa 402.502 MHz Type=RS41-SGP ser=U0150025 Radiosonde
EA4EKH-11U01500252022-12-06 01:22:5437.133-5.87441931718858Clb=-6.0m/s t=-63.6C h=2.6% p=65.6hPa 402.500 MHz Type=RS41-SGP ser=U0150025 Radiosonde
EA7KDTU01500252022-12-06 01:22:2537.1335-5.87826954319043Clb=-6.1m/s t=-63.7C h=2.6% p=63.7hPa 402.502 MHz Type=RS41-SGP ser=U0150025 Radiosonde
EA4EKH-11U01500252022-12-06 01:22:2337.1335-5.87839944319049Clb=-6.1m/s t=-63.7C h=2.6% p=63.6hPa 402.500 MHz Type=RS41-SGP ser=U0150025 Radiosonde
WINDFERU01500252022-12-06 01:22:0337.134-5.880841034319174Clb=-6.4m/s t=-63.4C h=2.4% p=62.3hPa 402.505 MHz Type=RS41-SGP ser=U0150025 Radiosonde
EA7KDTU01500252022-12-06 01:21:5437.134-5.88229754619239Clb=-6.2m/s t=-63.7C h=2.4% p=61.7hPa 402.502 MHz Type=RS41-SGP ser=U0150025 Radiosonde
EA4EKH-11U01500252022-12-06 01:21:5237.134-5.88244744619245Clb=-6.6m/s t=-63.8C h=2.5% p=61.6hPa 402.500 MHz Type=RS41-SGP ser=U0150025 Radiosonde
CT7AUS-11U01500252022-12-06 01:21:4637.1337-5.88339704619289Clb=-6.4m/s t=-64.2C h=2.5% p=61.2hPa 402.500 MHz Type=RS41-SGP ser=U0150025 Radiosonde
WINDFERU01500252022-12-06 01:21:3337.1335-5.885861054619392Clb=-6.4m/s t=-64.4C h=2.5% p=60.1hPa 402.505 MHz Type=RS41-SGP ser=U0150025 Radiosonde
EA7KDTU01500252022-12-06 01:21:2337.1338-5.886681153519438Clb=-6.5m/s t=-64.5C h=2.5% p=59.7hPa 402.502 MHz Type=RS41-SGP ser=U0150025 Radiosonde
EA4EKH-11U01500252022-12-06 01:21:2137.1338-5.886781173119445Clb=-6.3m/s t=-64.6C h=2.5% p=59.6hPa 402.500 MHz Type=RS41-SGP ser=U0150025 Radiosonde
WINDFERU01500252022-12-06 01:21:0237.1346-5.888251432019575Clb=-6.9m/s t=-64.2C h=2.4% p=58.3hPa 402.505 MHz Type=RS41-SGP ser=U0150025 Radiosonde
EA7KDTU01500252022-12-06 01:20:5137.1347-5.88856601519643Clb=-6.7m/s t=-64.2C h=2.3% p=57.7hPa 402.502 MHz Type=RS41-SGP ser=U0150025 Radiosonde
EA4EKH-11U01500252022-12-06 01:20:5037.1347-5.88866611919656Clb=-6.8m/s t=-64.3C h=2.3% p=57.6hPa 402.500 MHz Type=RS41-SGP ser=U0150025 Radiosonde
CT7AUS-11U01500252022-12-06 01:20:4637.1345-5.89005933919757Clb=-6.9m/s t=-64.8C h=2.5% p=56.7hPa 402.500 MHz Type=RS41-SGP ser=U0150025 Radiosonde
WINDFERU01500252022-12-06 01:20:3137.1346-5.890551034119785Clb=-6.9m/s t=-64.5C h=2.4% p=56.4hPa 402.505 MHz Type=RS41-SGP ser=U0150025 Radiosonde
EA7KDTU01500252022-12-06 01:20:2137.1352-5.891671373919855Clb=-7.1m/s t=-64.1C h=2.4% p=55.8hPa 402.502 MHz Type=RS41-SGP ser=U0150025 Radiosonde
EA4EKH-11U01500252022-12-06 01:20:1937.1353-5.891821443119870Clb=-6.9m/s t=-63.9C h=2.4% p=55.6hPa 402.500 MHz Type=RS41-SGP ser=U0150025 Radiosonde
WINDFERU01500252022-12-06 01:19:5937.1363-5.892321751120005Clb=-7.3m/s t=-62.5C h=2.2% p=54.4hPa 402.505 MHz Type=RS41-SGP ser=U0150025 Radiosonde
EA4EKH-11U01500252022-12-06 01:19:4837.1365-5.8923213420092Clb=-7.2m/s t=-62.3C h=2.1% p=53.7hPa 402.500 MHz Type=RS41-SGP ser=U0150025 Radiosonde
CT7AUS-11U01500252022-12-06 01:19:4337.1359-5.89255221920233Clb=-7.4m/s t=-62.2C h=2.0% p=52.4hPa 402.500 MHz Type=RS41-SGP ser=U0150025 Radiosonde
WINDFERU01500252022-12-06 01:19:2837.1359-5.89255221920233Clb=-7.4m/s t=-62.2C h=2.0% p=52.4hPa 402.505 MHz Type=RS41-SGP ser=U0150025 Radiosonde
EA7KDTU01500252022-12-06 01:19:1837.1354-5.89285222220306Clb=-7.2m/s t=-62.4C h=2.1% p=51.8hPa 402.502 MHz Type=RS41-SGP ser=U0150025 Radiosonde
CT7AUS-11U01500252022-12-06 01:19:1137.1348-5.892943523120372Clb=-7.6m/s t=-62.6C h=2.1% p=51.3hPa 402.500 MHz Type=RS41-SGP ser=U0150025 Radiosonde
WINDFERU01500252022-12-06 01:18:5737.1337-5.89306224320460Clb=-7.4m/s t=-62.5C h=2.0% p=50.6hPa 402.505 MHz Type=RS41-SGP ser=U0150025 Radiosonde
EA7KDTU01500252022-12-06 01:18:4837.1328-5.89392583920535Clb=-7.3m/s t=-63.1C h=2.1% p=49.9hPa 402.502 MHz Type=RS41-SGP ser=U0150025 Radiosonde
EA4EKH-11U01500252022-12-06 01:18:4637.1327-5.89414653720549Clb=-7.8m/s t=-63.1C h=2.1% p=49.8hPa 402.500 MHz Type=RS41-SGP ser=U0150025 Radiosonde
CT7AUS-11U01500252022-12-06 01:18:3937.1321-5.89622604620678Clb=-7.4m/s t=-63.4C h=2.1% p=48.8hPa 402.500 MHz Type=RS41-SGP ser=U0150025 Radiosonde
WINDFERU01500252022-12-06 01:18:2637.132-5.8966604620700Clb=-7.6m/s t=-63.5C h=2.1% p=48.7hPa 402.505 MHz Type=RS41-SGP ser=U0150025 Radiosonde
EA7KDTU01500252022-12-06 01:18:1737.1315-5.89779734820767Clb=-7.6m/s t=-63.5C h=2.1% p=48.1hPa 402.502 MHz Type=RS41-SGP ser=U0150025 Radiosonde
EA4EKH-11U01500252022-12-06 01:18:1537.1315-5.8981745020782Clb=-7.6m/s t=-63.4C h=2.1% p=48.0hPa 402.500 MHz Type=RS41-SGP ser=U0150025 Radiosonde
WINDFERU01500252022-12-06 01:17:5737.132-5.900881433920937Clb=-8.1m/s t=-63.6C h=2.0% p=46.9hPa 402.505 MHz Type=RS41-SGP ser=U0150025 Radiosonde
EA7KDTU01500252022-12-06 01:17:4837.1325-5.901071951521007Clb=-7.2m/s t=-63.7C h=2.1% p=46.3hPa 402.502 MHz Type=RS41-SGP ser=U0150025 Radiosonde
EA4EKH-11U01500252022-12-06 01:17:4637.1326-5.901042051321021Clb=-7.4m/s t=-63.8C h=2.2% p=46.2hPa 402.500 MHz Type=RS41-SGP ser=U0150025 Radiosonde
CT7AUS-11U01500252022-12-06 01:17:4037.1325-5.9005272421174Clb=-7.6m/s t=-63.2C h=2.0% p=45.0hPa 402.500 MHz Type=RS41-SGP ser=U0150025 Radiosonde
WINDFERU01500252022-12-06 01:17:2437.1325-5.9005272421174Clb=-7.6m/s t=-63.2C h=2.0% p=45.0hPa 402.505 MHz Type=RS41-SGP ser=U0150025 Radiosonde
EA7KDTU01500252022-12-06 01:17:1537.1321-5.90115833321243Clb=-7.9m/s t=-63.2C h=2.0% p=44.5hPa 402.502 MHz Type=RS41-SGP ser=U0150025 Radiosonde
EA4EKH-11U01500252022-12-06 01:17:1337.1321-5.90138943721259Clb=-7.9m/s t=-63.0C h=2.0% p=44.4hPa 402.500 MHz Type=RS41-SGP ser=U0150025 Radiosonde
WINDFERU01500252022-12-06 01:16:5337.1332-5.902283091121419Clb=-8.3m/s t=-62.9C h=2.0% p=43.3hPa 402.505 MHz Type=RS41-SGP ser=U0150025 Radiosonde
EA7KDTU01500252022-12-06 01:16:4437.1327-5.9025593721494Clb=-7.7m/s t=-62.4C h=1.9% p=42.8hPa 402.502 MHz Type=RS41-SGP ser=U0150025 Radiosonde
EA4EKH-11U01500252022-12-06 01:16:4237.1326-5.90274754421509Clb=-7.6m/s t=-62.4C h=1.9% p=42.7hPa 402.500 MHz Type=RS41-SGP ser=U0150025 Radiosonde
CT7AUS-11U01500252022-12-06 01:16:3537.1326-5.90381104621569Clb=-8.1m/s t=-62.4C h=1.9% p=42.2hPa 402.500 MHz Type=RS41-SGP ser=U0150025 Radiosonde
EA7KDTU01500252022-12-06 01:16:1237.1333-5.904083442621755Clb=-8.7m/s t=-61.3C h=1.8% p=41.0hPa 402.502 MHz Type=RS41-SGP ser=U0150025 Radiosonde
EA4EKH-11U01500252022-12-06 01:16:1137.1331-5.9040633121772Clb=-8.5m/s t=-61.4C h=1.8% p=40.9hPa 402.500 MHz Type=RS41-SGP ser=U0150025 Radiosonde
CT7AUS-11U01500252022-12-06 01:16:0437.1324-5.90472585621841Clb=-9.0m/s t=-61.0C h=1.7% p=40.4hPa 402.500 MHz Type=RS41-SGP ser=U0150025 Radiosonde
WINDFERU01500252022-12-06 01:15:5137.1328-5.90647215621999Clb=-9.6m/s t=-60.5C h=1.6% p=39.4hPa 402.505 MHz Type=RS41-SGP ser=U0150025 Radiosonde
EA7KDTU01500252022-12-06 01:15:4237.1327-5.906413522422036Clb=-9.1m/s t=-60.5C h=1.6% p=39.2hPa 402.502 MHz Type=RS41-SGP ser=U0150025 Radiosonde
EA4EKH-11U01500252022-12-06 01:15:4137.1325-5.9064143722054Clb=-10.0m/s t=-60.5C h=1.6% p=39.0hPa 402.500 MHz Type=RS41-SGP ser=U0150025 Radiosonde
CT7AUS-11U01500252022-12-06 01:15:3537.1317-5.90709665622133Clb=-9.2m/s t=-60.5C h=1.6% p=38.6hPa 402.500 MHz Type=RS41-SGP ser=U0150025 Radiosonde
WINDFERU01500252022-12-06 01:15:2237.132-5.908691881122271Clb=-9.8m/s t=-60.8C h=1.6% p=37.7hPa 402.505 MHz Type=RS41-SGP ser=U0150025 Radiosonde
EA7KDTU01500252022-12-06 01:15:1337.1319-5.908523583122341Clb=-10.4m/s t=-61.3C h=1.7% p=37.3hPa 402.502 MHz Type=RS41-SGP ser=U0150025 Radiosonde
EA4EKH-11U01500252022-12-06 01:15:1237.1317-5.90856184122362Clb=-9.9m/s t=-61.4C h=1.7% p=37.2hPa 402.500 MHz Type=RS41-SGP ser=U0150025 Radiosonde
CT7AUS-11U01500252022-12-06 01:15:0637.1311-5.90975846122452Clb=-10.0m/s t=-61.2C h=1.7% p=36.6hPa 402.500 MHz Type=RS41-SGP ser=U0150025 Radiosonde
WINDFERU01500252022-12-06 01:14:5337.1317-5.911311573522565Clb=-9.9m/s t=-61.2C h=1.8% p=36.0hPa 402.505 MHz Type=RS41-SGP ser=U0150025 Radiosonde
EA7KDTU01500252022-12-06 01:14:4437.1319-5.91133322022661Clb=-9.6m/s t=-60.3C h=1.6% p=35.5hPa 402.502 MHz Type=RS41-SGP ser=U0150025 Radiosonde
EA4EKH-11U01500252022-12-06 01:14:4237.1318-5.91145493722680Clb=-9.2m/s t=-60.2C h=1.6% p=35.3hPa 402.500 MHz Type=RS41-SGP ser=U0150025 Radiosonde
CT7AUS-11U01500252022-12-06 01:14:3637.1326-5.91393274222927Clb=-9.4m/s t=-59.9C h=1.5% p=34.0hPa 402.500 MHz Type=RS41-SGP ser=U0150025 Radiosonde
CT1EDGU01500252022-12-06 01:14:1837.1326-5.913920922947Clb=-10.0m/s t=-273.0C h=-1.0% p=-1.0hPa 402.501 MHz Type=RS41 ser=U0150025 Radiosonde
EA7KDTU01500252022-12-06 01:14:1437.1324-5.91396232622979Clb=-9.3m/s t=-60.0C h=1.5% p=33.8hPa 402.502 MHz Type=RS41-SGP ser=U0150025 Radiosonde
EA4EKH-11U01500252022-12-06 01:14:1237.1322-5.91415454123008Clb=-9.4m/s t=-59.9C h=1.5% p=33.5hPa 402.500 MHz Type=RS41-SGP ser=U0150025 Radiosonde
CT7AUS-11U01500252022-12-06 01:14:0537.1326-5.916881781723208Clb=-9.2m/s t=-59.8C h=1.5% p=32.5hPa 402.500 MHz Type=RS41-SGP ser=U0150025 Radiosonde
CT1EDGU01500252022-12-06 01:13:4737.1325-5.916833591723256Clb=-9.2m/s t=-273.0C h=-1.0% p=-1.0hPa 402.501 MHz Type=RS41 ser=U0150025 Radiosonde
EA7KDTU01500252022-12-06 01:13:4337.1324-5.91689253523285Clb=-9.6m/s t=-59.8C h=1.5% p=32.1hPa 402.502 MHz Type=RS41-SGP ser=U0150025 Radiosonde
EA4EKH-11U01500252022-12-06 01:13:4137.1321-5.91714475223314Clb=-9.7m/s t=-59.6C h=1.5% p=32.0hPa 402.500 MHz Type=RS41-SGP ser=U0150025 Radiosonde
CT7AUS-11U01500252022-12-06 01:13:3437.1317-5.91826837423373Clb=-9.8m/s t=-59.9C h=1.5% p=31.6hPa 402.500 MHz Type=RS41-SGP ser=U0150025 Radiosonde
WINDFERU01500252022-12-06 01:13:2137.1319-5.9197104323560Clb=-9.5m/s t=-60.6C h=1.5% p=30.7hPa 402.505 MHz Type=RS41-SGP ser=U0150025 Radiosonde
EA7KDTU01500252022-12-06 01:13:1237.1316-5.91991385723589Clb=-10.0m/s t=-60.7C h=1.6% p=30.6hPa 402.502 MHz Type=RS41-SGP ser=U0150025 Radiosonde
EA4EKH-11U01500252022-12-06 01:13:1037.1313-5.92036656323620Clb=-9.9m/s t=-60.8C h=1.6% p=30.4hPa 402.500 MHz Type=RS41-SGP ser=U0150025 Radiosonde
CT7AUS-11U01500252022-12-06 01:13:0237.1314-5.92151175723677Clb=-10.1m/s t=-60.8C h=1.6% p=30.1hPa 402.500 MHz Type=RS41-SGP ser=U0150025 Radiosonde
WINDFERU01500252022-12-06 01:12:5037.1312-5.92203135223813Clb=-10.2m/s t=-60.7C h=1.6% p=29.5hPa 402.505 MHz Type=RS41-SGP ser=U0150025 Radiosonde
EA7KDTU01500252022-12-06 01:12:4237.1302-5.92311667423891Clb=-10.0m/s t=-60.3C h=1.6% p=29.1hPa 402.502 MHz Type=RS41-SGP ser=U0150025 Radiosonde
EA4EKH-11U01500252022-12-06 01:12:3937.1301-5.92377826923920Clb=-10.0m/s t=-60.5C h=1.6% p=29.0hPa 402.500 MHz Type=RS41-SGP ser=U0150025 Radiosonde
CT7AUS-11U01500252022-12-06 01:12:3137.1303-5.924851325423976Clb=-9.7m/s t=-60.7C h=1.6% p=28.7hPa 402.500 MHz Type=RS41-SGP ser=U0150025 Radiosonde
EA7KDTU01500252022-12-06 01:12:0937.1305-5.924992461524191Clb=-11.2m/s t=-59.8C h=1.6% p=27.7hPa 402.502 MHz Type=RS41-SGP ser=U0150025 Radiosonde
EA4EKH-11U01500252022-12-06 01:12:0737.1308-5.924931653924234Clb=-11.4m/s t=-59.4C h=1.5% p=27.6hPa 402.500 MHz Type=RS41-SGP ser=U0150025 Radiosonde
CT7AUS-11U01500252022-12-06 01:11:5937.1313-5.925511187024290Clb=-11.7m/s t=-58.8C h=1.4% p=27.3hPa 402.500 MHz Type=RS41-SGP ser=U0150025 Radiosonde
WINDFERU01500252022-12-06 01:11:4637.1307-5.926932853024442Clb=-12.3m/s t=-58.6C h=1.4% p=26.6hPa 402.505 MHz Type=RS41-SGP ser=U0150025 Radiosonde
EA7KDTU01500252022-12-06 01:11:3737.1317-5.926871226924562Clb=-12.0m/s t=-59.1C h=1.5% p=26.1hPa 402.502 MHz Type=RS41-SGP ser=U0150025 Radiosonde
EA4EKH-11U01500252022-12-06 01:11:3537.1318-5.9275867024599Clb=-12.5m/s t=-59.1C h=1.5% p=26.0hPa 402.500 MHz Type=RS41-SGP ser=U0150025 Radiosonde
CT7AUS-11U01500252022-12-06 01:11:2837.1314-5.92828224324661Clb=-11.8m/s t=-58.9C h=1.5% p=25.7hPa 402.500 MHz Type=RS41-SGP ser=U0150025 Radiosonde
WINDFERU01500252022-12-06 01:11:1637.1322-5.928661208924826Clb=-12.3m/s t=-58.2C h=1.4% p=25.1hPa 402.505 MHz Type=RS41-SGP ser=U0150025 Radiosonde
EA7KDTU01500252022-12-06 01:11:0637.132-5.9308322624954Clb=-12.9m/s t=-57.5C h=1.3% p=24.6hPa 402.502 MHz Type=RS41-SGP ser=U0150025 Radiosonde
EA4EKH-11U01500252022-12-06 01:11:0337.132-5.93084192424980Clb=-13.1m/s t=-57.5C h=1.3% p=24.5hPa 402.500 MHz Type=RS41-SGP ser=U0150025 Radiosonde
CT7AUS-11U01500252022-12-06 01:10:5737.1326-5.931091468725060Clb=-13.2m/s t=-57.9C h=1.3% p=24.1hPa 402.500 MHz Type=RS41-SGP ser=U0150025 Radiosonde
WINDFERU01500252022-12-06 01:10:4437.1332-5.9343531925234Clb=-12.6m/s t=-58.0C h=1.3% p=23.5hPa 402.505 MHz Type=RS41-SGP ser=U0150025 Radiosonde
CT1EDGU01500252022-12-06 01:10:3937.1342-5.9346814510225340Clb=-13.5m/s t=-273.0C h=-1.0% p=-1.0hPa 402.501 MHz Type=RS41 ser=U0150025 Radiosonde
EA7KDTU01500252022-12-06 01:10:3637.1345-5.9351312911125367Clb=-13.1m/s t=-58.7C h=1.5% p=23.0hPa 402.502 MHz Type=RS41-SGP ser=U0150025 Radiosonde
EA4EKH-11U01500252022-12-06 01:10:3237.1348-5.9357211210725394Clb=-12.8m/s t=-58.8C h=1.5% p=22.9hPa 402.500 MHz Type=RS41-SGP ser=U0150025 Radiosonde
CT7AUS-11U01500252022-12-06 01:10:2637.135-5.936981936725572Clb=-13.2m/s t=-57.3C h=1.4% p=22.3hPa 402.500 MHz Type=RS41-SGP ser=U0150025 Radiosonde
WINDFERU01500252022-12-06 01:10:1337.1362-5.93902173725767Clb=-13.8m/s t=-56.4C h=1.3% p=21.6hPa 402.505 MHz Type=RS41-SGP ser=U0150025 Radiosonde
EA7KDTU01500252022-12-06 01:10:0337.136-5.9393132225796Clb=-13.2m/s t=-56.2C h=1.3% p=21.5hPa 402.502 MHz Type=RS41-SGP ser=U0150025 Radiosonde
EA4EKH-11U01500252022-12-06 01:10:0137.136-5.938852353025823Clb=-13.6m/s t=-55.7C h=1.3% p=21.4hPa 402.500 MHz Type=RS41-SGP ser=U0150025 Radiosonde
CT7AUS-11U01500252022-12-06 01:09:5437.1371-5.939151359825922Clb=-12.7m/s t=-54.5C h=1.1% p=21.1hPa 402.500 MHz Type=RS41-SGP ser=U0150025 Radiosonde
WINDFERU01500252022-12-06 01:09:4337.1372-5.941372093326106Clb=-14.0m/s t=-54.4C h=1.1% p=20.5hPa 402.505 MHz Type=RS41-SGP ser=U0150025 Radiosonde
EA7KDTU01500252022-12-06 01:09:3337.1387-5.9424410710226238Clb=-14.4m/s t=-54.1C h=1.1% p=20.1hPa 402.502 MHz Type=RS41-SGP ser=U0150025 Radiosonde
EA4EKH-11U01500252022-12-06 01:09:3137.1387-5.94303828926267Clb=-14.2m/s t=-53.9C h=1.1% p=20.0hPa 402.500 MHz Type=RS41-SGP ser=U0150025 Radiosonde
CT7AUS-11U01500252022-12-06 01:09:2537.1385-5.943441556526441Clb=-14.1m/s t=-54.1C h=1.1% p=19.4hPa 402.500 MHz Type=RS41-SGP ser=U0150025 Radiosonde
WINDFERU01500252022-12-06 01:09:1237.1386-5.94562448026574Clb=-15.2m/s t=-53.7C h=1.0% p=19.0hPa 402.505 MHz Type=RS41-SGP ser=U0150025 Radiosonde
EA7KDTU01500252022-12-06 01:09:0137.1383-5.945561875026693Clb=-15.9m/s t=-54.3C h=1.1% p=18.7hPa 402.502 MHz Type=RS41-SGP ser=U0150025 Radiosonde
EA4EKH-11U01500252022-12-06 01:08:5937.1385-5.945631536926724Clb=-15.7m/s t=-54.4C h=1.1% p=18.6hPa 402.500 MHz Type=RS41-SGP ser=U0150025 Radiosonde
WINDFERU01500252022-12-06 01:08:3937.1382-5.948751139827035Clb=-16.3m/s t=-54.9C h=1.1% p=17.7hPa 402.505 MHz Type=RS41-SGP ser=U0150025 Radiosonde
EA7KDTU01500252022-12-06 01:08:2837.1375-5.95168329127177Clb=-17.2m/s t=-56.1C h=1.1% p=17.3hPa 402.502 MHz Type=RS41-SGP ser=U0150025 Radiosonde
EA4EKH-11U01500252022-12-06 01:08:2637.1372-5.95187205027209Clb=-16.1m/s t=-56.4C h=1.2% p=17.2hPa 402.500 MHz Type=RS41-SGP ser=U0150025 Radiosonde
CT7AUS-11U01500252022-12-06 01:08:1937.1375-5.952531239827320Clb=-17.4m/s t=-57.2C h=1.2% p=16.9hPa 402.500 MHz Type=RS41-SGP ser=U0150025 Radiosonde
WINDFERU01500252022-12-06 01:08:0537.1367-5.95585343927529Clb=-15.5m/s t=-58.6C h=1.3% p=16.4hPa 402.505 MHz Type=RS41-SGP ser=U0150025 Radiosonde
EA7KDTU01500252022-12-06 01:07:5537.1376-5.957349011927676Clb=-17.4m/s t=-59.6C h=1.5% p=16.0hPa 402.502 MHz Type=RS41-SGP ser=U0150025 Radiosonde
EA4EKH-11U01500252022-12-06 01:07:5337.1375-5.958056911127710Clb=-17.4m/s t=-59.3C h=1.4% p=15.9hPa 402.500 MHz Type=RS41-SGP ser=U0150025 Radiosonde
CT7AUS-11U01500252022-12-06 01:07:4737.1365-5.95882422227842Clb=-16.8m/s t=-59.5C h=1.5% p=15.5hPa 402.500 MHz Type=RS41-SGP ser=U0150025 Radiosonde
WINDFERU01500252022-12-06 01:07:3437.1369-5.96106379428048Clb=-17.8m/s t=-60.2C h=1.5% p=15.1hPa 402.505 MHz Type=RS41-SGP ser=U0150025 Radiosonde
EA7KDTU01500252022-12-06 01:07:2437.1366-5.961041517028210Clb=-19.9m/s t=-60.2C h=1.6% p=14.7hPa 402.502 MHz Type=RS41-SGP ser=U0150025 Radiosonde
EA4EKH-11U01500252022-12-06 01:07:2337.137-5.962079011728283Clb=-17.6m/s t=-60.2C h=1.6% p=14.5hPa 402.500 MHz Type=RS41-SGP ser=U0150025 Radiosonde
CT7AUS-11U01500252022-12-06 01:07:1637.1361-5.9643310812028531Clb=-18.4m/s t=-60.3C h=1.8% p=13.9hPa 402.500 MHz Type=RS41-SGP ser=U0150025 Radiosonde
WINDFERU01500252022-12-06 01:07:0237.1359-5.966395712028625Clb=-20.1m/s t=-58.4C h=1.6% p=13.7hPa 402.505 MHz Type=RS41-SGP ser=U0150025 Radiosonde
EA7KDTU01500252022-12-06 01:06:5337.1357-5.966941608528771Clb=-19.3m/s t=-58.0C h=1.5% p=13.4hPa 402.502 MHz Type=RS41-SGP ser=U0150025 Radiosonde
EA4EKH-11U01500252022-12-06 01:06:5137.1361-5.9672813612028807Clb=-17.9m/s t=-57.9C h=1.6% p=13.3hPa 402.500 MHz Type=RS41-SGP ser=U0150025 Radiosonde
WINDFERU01500252022-12-06 01:06:4337.1371-5.97348448529265Clb=-21.6m/s t=-53.0C h=1.1% p=12.4hPa 402.505 MHz Type=RS41-SGP ser=U0150025 Radiosonde
EA7KDTU01500252022-12-06 01:06:4237.1371-5.973691786529357Clb=-18.7m/s t=-53.7C h=1.2% p=12.2hPa 402.502 MHz Type=RS41-SGP ser=U0150025 Radiosonde
WINDFERU01500252022-12-06 01:06:4137.1378-5.97999288029937Clb=-21.7m/s t=-50.2C h=1.0% p=11.1hPa 402.505 MHz Type=RS41-SGP ser=U0150025 Radiosonde
WINDFERU01500252022-12-06 01:06:3837.1372-5.98832348030668Clb=-25.2m/s t=-48.3C h=0.9% p=10.0hPa 402.505 MHz Type=RS41-SGP ser=U0150025 Radiosonde
EA7KDTU01500252022-12-06 01:06:3537.137-5.9885671730717Clb=-25.8m/s t=-48.2C h=0.9% p=9.9hPa 402.502 MHz Type=RS41-SGP ser=U0150025 Radiosonde
EA4EKH-11U01500252022-12-06 01:06:3437.1373-5.988821359130794Clb=-26.3m/s t=-47.1C h=0.8% p=9.8hPa 402.500 MHz Type=RS41-SGP ser=U0150025 Radiosonde
CT7AUS-11U01500252022-12-06 01:06:2937.1368-5.993421337231144Clb=-25.9m/s t=-46.9C h=0.8% p=9.3hPa 402.500 MHz Type=RS41-SGP ser=U0150025 Radiosonde
WINDFERU01500252022-12-06 01:06:1937.1372-5.998325410731429Clb=-24.1m/s t=-48.6C h=0.9% p=8.9hPa 402.505 MHz Type=RS41-SGP ser=U0150025 Radiosonde
EA7KDTU01500252022-12-06 01:06:1337.137-5.99877752031500Clb=-26.7m/s t=-49.0C h=1.0% p=8.8hPa 402.502 MHz Type=RS41-SGP ser=U0150025 Radiosonde
EA4EKH-11U01500252022-12-06 01:06:1237.1372-5.998991497831581Clb=-28.4m/s t=-48.9C h=1.0% p=8.7hPa 402.500 MHz Type=RS41-SGP ser=U0150025 Radiosonde
EA4GBR-10U01500252022-12-06 01:06:1137.1372-5.998991508031581Clb=-28.4m/s p=8.7hPa 402.500MHz Type=RS41-SGP rdzTTGOsonde
CT7AUS-11U01500252022-12-06 01:06:0737.1374-6.004961356332020Clb=-25.8m/s t=-44.7C h=0.8% p=8.1hPa 402.500 MHz Type=RS41-SGP ser=U0150025 Radiosonde
WINDFERU01500252022-12-06 01:06:0037.1378-6.0053114010932072Clb=-27.9m/s t=-44.3C h=0.7% p=8.1hPa 402.505 MHz Type=RS41-SGP ser=U0150025 Radiosonde
EA7KDTU01500252022-12-06 01:05:5937.1387-6.009137113732316Clb=-25.4m/s t=-45.0C h=0.8% p=7.8hPa 402.502 MHz Type=RS41-SGP ser=U0150025 Radiosonde
CT7AUS-11U01500252022-12-06 01:05:5737.1382-6.01141256532544Clb=-22.9m/s t=-43.8C h=0.7% p=7.5hPa 402.500 MHz Type=RS41-SGP ser=U0150025 Radiosonde
WINDFERU01500252022-12-06 01:05:5537.1398-6.0139910811332931Clb=-63.6m/s t=-43.8C h=0.7% p=7.2hPa 402.505 MHz Type=RS41-SGP ser=U0150025 Radiosonde
EA7KDTU01500252022-12-06 01:05:5437.1407-6.0169610711333440Clb=-40.6m/s t=-43.6C h=0.7% p=6.6hPa 402.502 MHz Type=RS41-SGP ser=U0150025 Radiosonde
EA4EKH-11U01500252022-12-06 01:05:5337.1409-6.0179810611333528Clb=-17.0m/s t=-43.9C h=0.7% p=6.5hPa 402.500 MHz Type=RS41-SGP ser=U0150025 Radiosonde
CT7AUS-11U01500252022-12-06 01:05:5237.1414-6.0200210411933528Clb=5.0m/s t=-44.0C h=0.7% p=6.5hPa 402.500 MHz Type=RS41-SGP ser=U0150025 Radiosonde
EA4GBR-10U01500252022-12-06 01:05:5137.1419-6.0223211012233501Clb=5.3m/s p=6.5hPa 402.500MHz Type=RS41-SGP rdzTTGOsonde
WINDFERU01500252022-12-06 01:05:5037.1424-6.024549811733467Clb=5.4m/s t=-43.8C h=0.7% p=6.5hPa 402.505 MHz Type=RS41-SGP ser=U0150025 Radiosonde
EA7KDTU01500252022-12-06 01:05:4837.1432-6.027771079333420Clb=5.4m/s t=-43.7C h=0.7% p=6.6hPa 402.502 MHz Type=RS41-SGP ser=U0150025 Radiosonde
CT7AUS-11U01500252022-12-06 01:05:4537.1438-6.0310510912833371Clb=5.0m/s t=-43.5C h=0.7% p=6.6hPa 402.500 MHz Type=RS41-SGP ser=U0150025 Radiosonde
EA4GBR-10U01500252022-12-06 01:05:4237.1447-6.036789612033275Clb=7.3m/s p=6.7hPa 402.500MHz Type=RS41-SGP rdzTTGOsonde
EA7KDTU01500252022-12-06 01:05:3837.1448-6.038949610633237Clb=6.6m/s t=-44.2C h=0.7% p=6.8hPa 402.502 MHz Type=RS41-SGP ser=U0150025 Radiosonde
EA4EKH-11U01500252022-12-06 01:05:3737.1449-6.039910710933216Clb=6.5m/s t=-44.3C h=0.7% p=6.8hPa 402.500 MHz Type=RS41-SGP ser=U0150025 Radiosonde
CT7AUS-11U01500252022-12-06 01:05:3137.1454-6.042129812433178Clb=6.1m/s t=-44.6C h=0.7% p=6.8hPa 402.500 MHz Type=RS41-SGP ser=U0150025 Radiosonde
EA4GBR-10U01500252022-12-06 01:05:2337.1456-6.0438110710233145Clb=6.2m/s p=6.9hPa 402.500MHz Type=RS41-SGP rdzTTGOsonde
WINDFERU01500252022-12-06 01:05:1737.1462-6.0465210911533093Clb=7.4m/s t=-44.5C h=0.8% p=7.0hPa 402.505 MHz Type=RS41-SGP ser=U0150025 Radiosonde
EA7KDTU01500252022-12-06 01:05:0937.1469-6.049431019633034Clb=6.8m/s t=-44.5C h=0.7% p=7.0hPa 402.502 MHz Type=RS41-SGP ser=U0150025 Radiosonde
EA4EKH-11U01500252022-12-06 01:05:0737.1471-6.0502811310033013Clb=6.5m/s t=-44.5C h=0.7% p=7.0hPa 402.500 MHz Type=RS41-SGP ser=U0150025 Radiosonde
EA4GBR-10U01500252022-12-06 01:05:0637.1471-6.0502811510233013Clb=6.5m/s 402.500MHz Type=RS41-SGP rdzTTGOsonde
CT7AUS-11U01500252022-12-06 01:05:0237.1478-6.0523510312032976Clb=5.6m/s t=-44.6C h=0.8% p=7.1hPa 402.500 MHz Type=RS41-SGP ser=U0150025 Radiosonde
WINDFERU01500252022-12-06 01:05:0037.1491-6.056569810932886Clb=5.4m/s t=-44.7C h=0.8% p=7.1hPa 402.505 MHz Type=RS41-SGP ser=U0150025 Radiosonde
EA7KDTU01500252022-12-06 01:04:5937.1499-6.0585512210932832Clb=6.4m/s t=-44.2C h=0.8% p=7.2hPa 402.502 MHz Type=RS41-SGP ser=U0150025 Radiosonde
EA7KDTU01500252022-12-06 01:04:5737.1526-6.06781049332632Clb=6.8m/s t=-42.5C h=0.7% p=7.4hPa 402.502 MHz Type=RS41-SGP ser=U0150025 Radiosonde
EA4EKH-11U01500252022-12-06 01:04:5637.1528-6.0687110110232612Clb=5.5m/s t=-42.3C h=0.7% p=7.4hPa 402.500 MHz Type=RS41-SGP ser=U0150025 Radiosonde
CT7AUS-11U01500252022-12-06 01:04:5237.1533-6.0708911211132567Clb=6.5m/s t=-42.3C h=0.7% p=7.5hPa 402.500 MHz Type=RS41-SGP ser=U0150025 Radiosonde
WINDFERU01500252022-12-06 01:04:4237.1541-6.0751210611532490Clb=6.6m/s t=-42.7C h=0.7% p=7.6hPa 402.505 MHz Type=RS41-SGP ser=U0150025 Radiosonde
EA7KDTU01500252022-12-06 01:04:3237.1545-6.077619610632444Clb=5.1m/s t=-43.1C h=0.7% p=7.6hPa 402.502 MHz Type=RS41-SGP ser=U0150025 Radiosonde
EA4EKH-11U01500252022-12-06 01:04:2837.1546-6.07856979432427Clb=6.3m/s t=-43.2C h=0.7% p=7.7hPa 402.500 MHz Type=RS41-SGP ser=U0150025 Radiosonde
EA4GBR-10U01500252022-12-06 01:04:2737.1546-6.07856989632427Clb=6.3m/s 402.500MHz Type=RS41-SGP rdzTTGOsonde
CT7AUS-11U01500252022-12-06 01:04:2037.155-6.080610410932385Clb=5.6m/s t=-43.4C h=0.7% p=7.7hPa 402.500 MHz Type=RS41-SGP ser=U0150025 Radiosonde
WINDFERU01500252022-12-06 01:04:0337.1557-6.084610610432316Clb=4.8m/s t=-43.8C h=0.7% p=7.8hPa 402.505 MHz Type=RS41-SGP ser=U0150025 Radiosonde
EA4GBR-10U01500252022-12-06 01:04:0137.1557-6.084610810632316Clb=4.8m/s 402.500MHz Type=RS41 rdzTTGOsonde
EA7KDTU01500252022-12-06 01:03:5137.1559-6.08687929432274Clb=4.8m/s t=-44.4C h=0.8% p=7.8hPa 402.502 MHz Type=RS41-SGP ser=U0150025 Radiosonde
EA4EKH-11U01500252022-12-06 01:03:4737.156-6.08774969132258Clb=5.7m/s t=-44.4C h=0.8% p=7.8hPa 402.500 MHz Type=RS41-SGP ser=U0150025 Radiosonde
CT7AUS-11U01500252022-12-06 01:03:3937.1561-6.089779210432220Clb=5.1m/s t=-44.2C h=0.7% p=7.9hPa 402.500 MHz Type=RS41-SGP ser=U0150025 Radiosonde
WINDFERU01500252022-12-06 01:03:1837.1564-6.09379210432155Clb=5.9m/s t=-43.9C h=0.8% p=8.0hPa 402.505 MHz Type=RS41-SGP ser=U0150025 Radiosonde
EA7KDTU01500252022-12-06 01:03:0737.1565-6.0963610411332117Clb=3.9m/s t=-43.8C h=0.7% p=8.0hPa 402.502 MHz Type=RS41-SGP ser=U0150025 Radiosonde
EA4EKH-11U01500252022-12-06 01:03:0437.1568-6.09764939632100Clb=5.1m/s t=-43.8C h=0.7% p=8.0hPa 402.500 MHz Type=RS41-SGP ser=U0150025 Radiosonde
CT7AUS-11U01500252022-12-06 01:02:5637.1567-6.099779513032071Clb=3.8m/s t=-43.7C h=0.7% p=8.1hPa 402.500 MHz Type=RS41-SGP ser=U0150025 Radiosonde
EA4GBR-10U01500252022-12-06 01:02:5137.1569-6.100910811532057Clb=5.5m/s 402.500MHz Type=RS41 rdzTTGOsonde
WINDFERU01500252022-12-06 01:02:3937.1574-6.104459914332012Clb=3.6m/s t=-44.4C h=0.7% p=8.2hPa 402.505 MHz Type=RS41-SGP ser=U0150025 Radiosonde
EA7KDTU01500252022-12-06 01:02:2837.1578-6.1073510111331976Clb=4.4m/s t=-44.8C h=0.7% p=8.2hPa 402.502 MHz Type=RS41-SGP ser=U0150025 Radiosonde
EA4EKH-11U01500252022-12-06 01:02:2437.1581-6.1089410014331957Clb=4.8m/s t=-45.1C h=0.7% p=8.2hPa 402.500 MHz Type=RS41-SGP ser=U0150025 Radiosonde
CT7AUS-11U01500252022-12-06 01:02:1537.1582-6.111519212831930Clb=4.6m/s t=-45.4C h=0.7% p=8.2hPa 402.500 MHz Type=RS41-SGP ser=U0150025 Radiosonde
WINDFERU01500252022-12-06 01:01:5837.1585-6.116439113331869Clb=3.2m/s t=-46.5C h=0.8% p=8.3hPa 402.505 MHz Type=RS41-SGP ser=U0150025 Radiosonde
EA7KDTU01500252022-12-06 01:01:4637.1584-6.119649112031827Clb=4.7m/s t=-46.9C h=0.8% p=8.4hPa 402.502 MHz Type=RS41-SGP ser=U0150025 Radiosonde
EA4EKH-11U01500252022-12-06 01:01:4337.1584-6.120798812231812Clb=5.5m/s t=-47.4C h=0.8% p=8.4hPa 402.500 MHz Type=RS41-SGP ser=U0150025 Radiosonde
CT7AUS-11U01500252022-12-06 01:01:3137.1584-6.122899110031782Clb=4.4m/s t=-48.2C h=0.8% p=8.4hPa 402.500 MHz Type=RS41-SGP ser=U0150025 Radiosonde
EA4GBR-10U01500252022-12-06 01:01:1737.1584-6.125739311931736Clb=3.7m/s 402.500MHz Type=RS41 rdzTTGOsonde
WINDFERU01500252022-12-06 01:01:1237.1584-6.12708879131718Clb=5.5m/s t=-48.8C h=0.9% p=8.5hPa 402.505 MHz Type=RS41-SGP ser=U0150025 Radiosonde
EA7KDTU01500252022-12-06 01:00:5937.1585-6.12989210931672Clb=5.7m/s t=-49.2C h=0.9% p=8.6hPa 402.502 MHz Type=RS41-SGP ser=U0150025 Radiosonde
EA4EKH-11U01500252022-12-06 01:00:5537.1585-6.13078909831657Clb=4.1m/s t=-49.4C h=0.9% p=8.6hPa 402.500 MHz Type=RS41-SGP ser=U0150025 Radiosonde
CT7AUS-11U01500252022-12-06 01:00:4637.1587-6.132531028931626Clb=5.4m/s t=-49.9C h=1.0% p=8.6hPa 402.500 MHz Type=RS41-SGP ser=U0150025 Radiosonde
EA4GBR-10U01500252022-12-06 01:00:4437.1587-6.132521049131626Clb=5.4m/s 402.500MHz Type=RS41 rdzTTGOsonde
WINDFERU01500252022-12-06 01:00:2937.1593-6.136681058931557Clb=4.6m/s t=-49.7C h=1.0% p=8.7hPa 402.505 MHz Type=RS41-SGP ser=U0150025 Radiosonde
EA7KDTU01500252022-12-06 01:00:1637.1595-6.139779212031508Clb=4.4m/s t=-49.4C h=1.0% p=8.8hPa 402.502 MHz Type=RS41-SGP ser=U0150025 Radiosonde
EA4EKH-11U01500252022-12-06 01:00:1137.1596-6.140889911931491Clb=6.2m/s t=-49.3C h=1.0% p=8.8hPa 402.500 MHz Type=RS41-SGP ser=U0150025 Radiosonde
CT7AUS-11U01500252022-12-06 01:00:0137.1598-6.142858810031458Clb=4.3m/s t=-49.1C h=0.9% p=8.8hPa 402.500 MHz Type=RS41-SGP ser=U0150025 Radiosonde
WINDFERU01500252022-12-06 00:59:4537.1601-6.147549510931386Clb=4.6m/s t=-48.8C h=0.9% p=9.0hPa 402.505 MHz Type=RS41-SGP ser=U0150025 Radiosonde
EA7KDTU01500252022-12-06 00:59:3437.16-6.151019513131338Clb=4.5m/s t=-48.5C h=0.9% p=9.0hPa 402.502 MHz Type=RS41-SGP ser=U0150025 Radiosonde
EA4EKH-11U01500252022-12-06 00:59:3037.1601-6.152129910631321Clb=6.1m/s t=-48.5C h=0.9% p=9.1hPa 402.500 MHz Type=RS41-SGP ser=U0150025 Radiosonde
CT7AUS-11U01500252022-12-06 00:59:2037.1602-6.154078712031290Clb=5.0m/s t=-48.4C h=0.9% p=9.1hPa 402.500 MHz Type=RS41-SGP ser=U0150025 Radiosonde
WINDFERU01500252022-12-06 00:59:0237.1603-6.1589889331218Clb=5.8m/s t=-48.7C h=0.9% p=9.2hPa 402.505 MHz Type=RS41-SGP ser=U0150025 Radiosonde
EA7KDTU01500252022-12-06 00:58:5037.1601-6.162129010731169Clb=5.8m/s t=-48.6C h=0.9% p=9.3hPa 402.502 MHz Type=RS41-SGP ser=U0150025 Radiosonde
EA4EKH-11U01500252022-12-06 00:58:4637.1601-6.16301888531151Clb=5.6m/s t=-48.6C h=0.9% p=9.3hPa 402.500 MHz Type=RS41-SGP ser=U0150025 Radiosonde
CT7AUS-11U01500252022-12-06 00:58:3837.16-6.164827910931117Clb=6.4m/s t=-48.6C h=0.9% p=9.3hPa 402.500 MHz Type=RS41-SGP ser=U0150025 Radiosonde
WINDFERU01500252022-12-06 00:58:2037.1597-6.16859769431046Clb=6.1m/s t=-48.9C h=1.0% p=9.4hPa 402.505 MHz Type=RS41-SGP ser=U0150025 Radiosonde
EA7KDTU01500252022-12-06 00:58:0837.1594-6.17142918330996Clb=6.5m/s t=-48.8C h=0.9% p=9.5hPa 402.502 MHz Type=RS41-SGP ser=U0150025 Radiosonde
EA4EKH-11U01500252022-12-06 00:58:0337.1594-6.17222868530980Clb=4.2m/s t=-48.8C h=0.9% p=9.5hPa 402.500 MHz Type=RS41-SGP ser=U0150025 Radiosonde
CT7AUS-11U01500252022-12-06 00:57:5437.1591-6.174078011730949Clb=5.9m/s t=-49.0C h=0.9% p=9.6hPa 402.500 MHz Type=RS41-SGP ser=U0150025 Radiosonde
WINDFERU01500252022-12-06 00:57:3437.1589-6.178188812030882Clb=5.4m/s t=-49.7C h=0.9% p=9.7hPa 402.505 MHz Type=RS41-SGP ser=U0150025 Radiosonde
EA7KDTU01500252022-12-06 00:57:2137.1589-6.18115889830834Clb=4.8m/s t=-49.8C h=1.0% p=9.7hPa 402.502 MHz Type=RS41-SGP ser=U0150025 Radiosonde
EA4EKH-11U01500252022-12-06 00:57:1637.1589-6.18206859630818Clb=6.3m/s t=-49.7C h=0.9% p=9.8hPa 402.500 MHz Type=RS41-SGP ser=U0150025 Radiosonde
CT7AUS-11U01500252022-12-06 00:57:0637.1587-6.184058612030784Clb=5.6m/s t=-49.5C h=0.9% p=9.8hPa 402.500 MHz Type=RS41-SGP ser=U0150025 Radiosonde
WINDFERU01500252022-12-06 00:56:4837.1583-6.187918812230715Clb=6.1m/s t=-49.3C h=0.9% p=9.9hPa 402.505 MHz Type=RS41-SGP ser=U0150025 Radiosonde
EA7KDTU01500252022-12-06 00:56:3437.158-6.1904688530667Clb=4.2m/s t=-49.2C h=0.8% p=10.0hPa 402.502 MHz Type=RS41-SGP ser=U0150025 Radiosonde
EA4EKH-11U01500252022-12-06 00:56:3037.1578-6.19121839130651Clb=6.2m/s t=-49.6C h=0.9% p=10.0hPa 402.500 MHz Type=RS41-SGP ser=U0150025 Radiosonde
CT7AUS-11U01500252022-12-06 00:56:2137.1577-6.19295799330619Clb=4.9m/s t=-50.4C h=1.0% p=10.1hPa 402.500 MHz Type=RS41-SGP ser=U0150025 Radiosonde
WINDFERU01500252022-12-06 00:56:0337.1573-6.19607855730544Clb=4.6m/s t=-50.4C h=1.0% p=10.2hPa 402.505 MHz Type=RS41-SGP ser=U0150025 Radiosonde
EA7KDTU01500252022-12-06 00:55:5037.1572-6.1978907230503Clb=4.9m/s t=-50.3C h=0.9% p=10.3hPa 402.502 MHz Type=RS41-SGP ser=U0150025 Radiosonde
EA4EKH-11U01500252022-12-06 00:55:4537.1572-6.19845866930488Clb=5.2m/s t=-50.4C h=0.9% p=10.3hPa 402.500 MHz Type=RS41-SGP ser=U0150025 Radiosonde
CT7AUS-11U01500252022-12-06 00:55:3637.1571-6.1999887830458Clb=5.5m/s t=-50.6C h=1.0% p=10.3hPa 402.500 MHz Type=RS41-SGP ser=U0150025 Radiosonde
WINDFERU01500252022-12-06 00:55:1737.157-6.20353909430387Clb=5.4m/s t=-51.4C h=1.0% p=10.4hPa 402.505 MHz Type=RS41-SGP ser=U0150025 Radiosonde
EA7KDTU01500252022-12-06 00:55:0337.157-6.20556928130347Clb=5.1m/s t=-52.0C h=1.1% p=10.5hPa 402.502 MHz Type=RS41-SGP ser=U0150025 Radiosonde
EA4EKH-11U01500252022-12-06 00:54:5837.157-6.2063867630331Clb=4.6m/s t=-52.0C h=1.1% p=10.5hPa 402.500 MHz Type=RS41-SGP ser=U0150025 Radiosonde
EA4GBR-10U01500252022-12-06 00:54:5137.157-6.20722977430311Clb=4.6m/s 402.500MHz Type=RS41 rdzTTGOsonde
CT7AUS-11U01500252022-12-06 00:54:4937.157-6.2077927830302Clb=4.6m/s t=-51.8C h=1.0% p=10.6hPa 402.500 MHz Type=RS41-SGP ser=U0150025 Radiosonde
WINDFERU01500252022-12-06 00:54:3037.1568-6.21097888030223Clb=6.4m/s t=-51.4C h=1.0% p=10.7hPa 402.505 MHz Type=RS41-SGP ser=U0150025 Radiosonde
EA7KDTU01500252022-12-06 00:54:1737.1566-6.21296816930181Clb=6.3m/s t=-51.6C h=0.9% p=10.8hPa 402.502 MHz Type=RS41-SGP ser=U0150025 Radiosonde
EA4EKH-11U01500252022-12-06 00:54:1237.1566-6.21359936930164Clb=4.4m/s t=-51.8C h=1.0% p=10.8hPa 402.500 MHz Type=RS41-SGP ser=U0150025 Radiosonde
CT7AUS-11U01500252022-12-06 00:54:0237.1564-6.21513769430132Clb=5.9m/s t=-52.4C h=1.0% p=10.9hPa 402.500 MHz Type=RS41-SGP ser=U0150025 Radiosonde
WINDFERU01500252022-12-06 00:53:4137.1558-6.2189808130056Clb=6.0m/s t=-53.4C h=1.1% p=11.0hPa 402.505 MHz Type=RS41-SGP ser=U0150025 Radiosonde
EA7KDTU01500252022-12-06 00:53:2837.1555-6.22076826530013Clb=4.5m/s t=-53.6C h=1.1% p=11.1hPa 402.502 MHz Type=RS41-SGP ser=U0150025 Radiosonde
EA4EKH-11U01500252022-12-06 00:53:2437.1554-6.22138766929997Clb=4.7m/s t=-53.7C h=1.1% p=11.1hPa 402.500 MHz Type=RS41-SGP ser=U0150025 Radiosonde
CT7AUS-11U01500252022-12-06 00:53:1437.1551-6.22254716329967Clb=5.6m/s t=-53.7C h=1.1% p=11.2hPa 402.500 MHz Type=RS41-SGP ser=U0150025 Radiosonde
WINDFERU01500252022-12-06 00:52:5437.1546-6.22506685429893Clb=4.9m/s t=-54.7C h=1.2% p=11.3hPa 402.505 MHz Type=RS41-SGP ser=U0150025 Radiosonde
EA7KDTU01500252022-12-06 00:52:3837.1542-6.22637904329851Clb=6.6m/s t=-54.6C h=1.1% p=11.4hPa 402.502 MHz Type=RS41-SGP ser=U0150025 Radiosonde
EA4EKH-11U01500252022-12-06 00:52:3437.1543-6.22688904329828Clb=6.1m/s t=-54.6C h=1.1% p=11.4hPa 402.500 MHz Type=RS41-SGP ser=U0150025 Radiosonde
CT7AUS-11U01500252022-12-06 00:52:2337.1542-6.2276784429798Clb=5.7m/s t=-55.0C h=1.1% p=11.4hPa 402.500 MHz Type=RS41-SGP ser=U0150025 Radiosonde
WINDFERU01500252022-12-06 00:52:0237.1546-6.229651065229714Clb=5.6m/s t=-55.1C h=1.2% p=11.6hPa 402.505 MHz Type=RS41-SGP ser=U0150025 Radiosonde
EA7KDTU01500252022-12-06 00:51:5337.155-6.230991126529664Clb=6.5m/s t=-54.9C h=1.2% p=11.7hPa 402.502 MHz Type=RS41-SGP ser=U0150025 Radiosonde
EA4EKH-11U01500252022-12-06 00:51:5037.1553-6.23171185629640Clb=5.9m/s t=-55.0C h=1.2% p=11.8hPa 402.500 MHz Type=RS41-SGP ser=U0150025 Radiosonde
CT7AUS-11U01500252022-12-06 00:51:4537.1555-6.23254996329610Clb=5.5m/s t=-55.0C h=1.2% p=11.8hPa 402.500 MHz Type=RS41-SGP ser=U0150025 Radiosonde
WINDFERU01500252022-12-06 00:51:3237.1564-6.235231106729528Clb=4.8m/s t=-55.1C h=1.2% p=11.9hPa 402.505 MHz Type=RS41-SGP ser=U0150025 Radiosonde
EA7KDTU01500252022-12-06 00:51:2237.1568-6.236951096929480Clb=5.0m/s t=-54.8C h=1.2% p=12.1hPa 402.502 MHz Type=RS41-SGP ser=U0150025 Radiosonde
EA4EKH-11U01500252022-12-06 00:51:1937.157-6.23781957429456Clb=5.7m/s t=-54.7C h=1.2% p=12.1hPa 402.500 MHz Type=RS41-SGP ser=U0150025 Radiosonde
CT7AUS-11U01500252022-12-06 00:51:1337.1571-6.239121027229422Clb=6.5m/s t=-54.4C h=1.2% p=12.1hPa 402.500 MHz Type=RS41-SGP ser=U0150025 Radiosonde
WINDFERU01500252022-12-06 00:50:5937.1574-6.24207897029346Clb=5.7m/s t=-53.7C h=1.0% p=12.3hPa 402.505 MHz Type=RS41-SGP ser=U0150025 Radiosonde
EA7KDTU01500252022-12-06 00:50:5137.1576-6.243931006929302Clb=5.4m/s t=-54.5C h=1.0% p=12.4hPa 402.502 MHz Type=RS41-SGP ser=U0150025 Radiosonde
EA4EKH-11U01500252022-12-06 00:50:4837.1576-6.24478837629282Clb=5.6m/s t=-55.4C h=1.1% p=12.4hPa 402.500 MHz Type=RS41-SGP ser=U0150025 Radiosonde
CT7AUS-11U01500252022-12-06 00:50:4537.1576-6.24634977429251Clb=5.4m/s t=-55.8C h=1.2% p=12.5hPa 402.500 MHz Type=RS41-SGP ser=U0150025 Radiosonde
WINDFERU01500252022-12-06 00:50:3037.1576-6.248971095629178Clb=4.7m/s t=-56.5C h=1.2% p=12.6hPa 402.505 MHz Type=RS41-SGP ser=U0150025 Radiosonde
EA7KDTU01500252022-12-06 00:50:2137.158-6.25057977029134Clb=5.0m/s t=-56.5C h=1.3% p=12.7hPa 402.502 MHz Type=RS41-SGP ser=U0150025 Radiosonde
EA4EKH-11U01500252022-12-06 00:50:1737.1581-6.25151997629112Clb=4.6m/s t=-56.4C h=1.2% p=12.7hPa 402.500 MHz Type=RS41-SGP ser=U0150025 Radiosonde
CT7AUS-11U01500252022-12-06 00:50:1137.1585-6.252751177629078Clb=5.9m/s t=-56.3C h=1.2% p=12.8hPa 402.500 MHz Type=RS41-SGP ser=U0150025 Radiosonde
WINDFERU01500252022-12-06 00:49:5737.1592-6.255781127429007Clb=5.7m/s t=-56.6C h=1.2% p=13.0hPa 402.505 MHz Type=RS41-SGP ser=U0150025 Radiosonde
EA7KDTU01500252022-12-06 00:49:4937.1596-6.25757946728965Clb=5.6m/s t=-56.5C h=1.2% p=13.0hPa 402.502 MHz Type=RS41-SGP ser=U0150025 Radiosonde
EA4EKH-11U01500252022-12-06 00:49:4537.1597-6.258371086928944Clb=5.7m/s t=-56.5C h=1.2% p=13.1hPa 402.500 MHz Type=RS41-SGP ser=U0150025 Radiosonde
WINDFERU01500252022-12-06 00:49:3737.1536-6.30409885427594Clb=5.2m/s t=-57.8C h=1.3% p=16.2hPa 402.505 MHz Type=RS41-SGP ser=U0150025 Radiosonde
CT1EDGU01500252022-12-06 00:49:3637.1536-6.30501977027567Clb=5.6m/s t=-57.8C h=1.4% p=16.3hPa 402.501 MHz Type=RS41-SGP ser=U0150025 Radiosonde
WINDFERU01500252022-12-06 00:49:3437.154-6.309981016127420Clb=6.9m/s t=-57.6C h=1.4% p=16.6hPa 402.505 MHz Type=RS41-SGP ser=U0150025 Radiosonde
EA4EKH-11U01500252022-12-06 00:49:3337.1541-6.31248875927349Clb=5.4m/s t=-56.9C h=1.3% p=16.9hPa 402.500 MHz Type=RS41-SGP ser=U0150025 Radiosonde
WINDFERU01500252022-12-06 00:49:3237.1542-6.31673957827241Clb=6.0m/s t=-56.0C h=1.3% p=17.1hPa 402.505 MHz Type=RS41-SGP ser=U0150025 Radiosonde
CT7AUS-11U01500252022-12-06 00:49:3137.1541-6.32055957627149Clb=5.1m/s t=-55.5C h=1.2% p=17.4hPa 402.500 MHz Type=RS41-SGP ser=U0150025 Radiosonde
WINDFERU01500252022-12-06 00:49:3037.1541-6.32395897227072Clb=6.2m/s t=-55.0C h=1.2% p=17.6hPa 402.505 MHz Type=RS41-SGP ser=U0150025 Radiosonde
CT7AUS-11U01500252022-12-06 00:49:2937.1542-6.32772946126981Clb=5.2m/s t=-54.4C h=1.2% p=17.9hPa 402.500 MHz Type=RS41-SGP ser=U0150025 Radiosonde
CT1EDGU01500252022-12-06 00:49:2837.1544-6.331791035026870Clb=5.5m/s t=-54.9C h=1.2% p=18.2hPa 402.501 MHz Type=RS41-SGP ser=U0150025 Radiosonde
CT7AUS-11U01500252022-12-06 00:49:2737.1546-6.332961043726826Clb=4.3m/s t=-55.4C h=1.2% p=18.3hPa 402.500 MHz Type=RS41-SGP ser=U0150025 Radiosonde
WINDFERU01500252022-12-06 00:49:1437.1558-6.335721225726724Clb=4.1m/s t=-55.3C h=1.2% p=18.6hPa 402.505 MHz Type=RS41-SGP ser=U0150025 Radiosonde
CT1EDGU01500252022-12-06 00:49:0537.156-6.336011235226714Clb=5.6m/s t=-55.4C h=1.2% p=18.6hPa 402.501 MHz Type=RS41-SGP ser=U0150025 Radiosonde
EA7KDTU01500252022-12-06 00:49:0137.156-6.336011235226714Clb=5.6m/s t=-55.4C h=1.2% p=18.6hPa 402.502 MHz Type=RS41-SGP ser=U0150025 Radiosonde
EA4EKH-11U01500252022-12-06 00:48:5537.1562-6.336551084826694Clb=5.4m/s t=-55.7C h=1.2% p=18.7hPa 402.500 MHz Type=RS41-SGP ser=U0150025 Radiosonde
CT7AUS-11U01500252022-12-06 00:48:4537.1564-6.33731164626670Clb=5.0m/s t=-55.8C h=1.2% p=18.7hPa 402.500 MHz Type=RS41-SGP ser=U0150025 Radiosonde
WINDFERU01500252022-12-06 00:48:2237.1572-6.339351183726588Clb=4.9m/s t=-56.1C h=1.2% p=19.0hPa 402.505 MHz Type=RS41-SGP ser=U0150025 Radiosonde
EA7KDTU01500252022-12-06 00:48:0837.1574-6.339921143526564Clb=5.6m/s t=-56.3C h=1.2% p=19.0hPa 402.502 MHz Type=RS41-SGP ser=U0150025 Radiosonde
EA4EKH-11U01500252022-12-06 00:48:0137.1576-6.340341164326544Clb=5.0m/s t=-56.8C h=1.2% p=19.1hPa 402.500 MHz Type=RS41-SGP ser=U0150025 Radiosonde
CT7AUS-11U01500252022-12-06 00:47:5137.1579-6.341041274426517Clb=4.4m/s t=-57.2C h=1.3% p=19.2hPa 402.500 MHz Type=RS41-SGP ser=U0150025 Radiosonde
WINDFERU01500252022-12-06 00:47:2537.159-6.342611376126449Clb=4.3m/s t=-57.1C h=1.3% p=19.4hPa 402.505 MHz Type=RS41-SGP ser=U0150025 Radiosonde
EA7KDTU01500252022-12-06 00:47:1037.1596-6.343521254126412Clb=4.5m/s t=-57.2C h=1.3% p=19.6hPa 402.502 MHz Type=RS41-SGP ser=U0150025 Radiosonde
EA4EKH-11U01500252022-12-06 00:47:0337.1599-6.343981275426391Clb=4.8m/s t=-57.1C h=1.3% p=19.6hPa 402.500 MHz Type=RS41-SGP ser=U0150025 Radiosonde
CT7AUS-11U01500252022-12-06 00:46:5337.1604-6.34481205626359Clb=5.8m/s t=-57.2C h=1.3% p=19.7hPa 402.500 MHz Type=RS41-SGP ser=U0150025 Radiosonde
EA7KDTU01500252022-12-06 00:46:1537.1619-6.347621295226247Clb=6.4m/s t=-56.9C h=1.3% p=20.1hPa 402.502 MHz Type=RS41-SGP ser=U0150025 Radiosonde
EA4EKH-11U01500252022-12-06 00:46:0837.1623-6.348111365026224Clb=5.5m/s t=-56.8C h=1.3% p=20.1hPa 402.500 MHz Type=RS41-SGP ser=U0150025 Radiosonde
CT7AUS-11U01500252022-12-06 00:45:5737.1627-6.348781193926191Clb=6.2m/s t=-56.9C h=1.3% p=20.2hPa 402.500 MHz Type=RS41-SGP ser=U0150025 Radiosonde
WINDFERU01500252022-12-06 00:45:3437.1638-6.350211243526114Clb=4.7m/s t=-57.2C h=1.3% p=20.5hPa 402.505 MHz Type=RS41-SGP ser=U0150025 Radiosonde
CT1EDGU01500252022-12-06 00:45:2337.164-6.350621273326087Clb=6.2m/s t=-57.3C h=1.3% p=20.6hPa 402.501 MHz Type=RS41-SGP ser=U0150025 Radiosonde
EA7KDTU01500252022-12-06 00:45:1937.1641-6.35081284326075Clb=4.9m/s t=-57.2C h=1.3% p=20.6hPa 402.502 MHz Type=RS41-SGP ser=U0150025 Radiosonde
EA4EKH-11U01500252022-12-06 00:45:1237.1644-6.351171343026053Clb=5.4m/s t=-57.2C h=1.3% p=20.7hPa 402.500 MHz Type=RS41-SGP ser=U0150025 Radiosonde
CT7AUS-11U01500252022-12-06 00:45:0237.1646-6.351611093026020Clb=5.4m/s t=-57.3C h=1.3% p=20.8hPa 402.500 MHz Type=RS41-SGP ser=U0150025 Radiosonde
WINDFERU01500252022-12-06 00:44:4137.1654-6.352751481725924Clb=4.7m/s t=-57.7C h=1.3% p=21.1hPa 402.505 MHz Type=RS41-SGP ser=U0150025 Radiosonde
CT1EDGU01500252022-12-06 00:44:3137.1655-6.352831462825913Clb=6.4m/s t=-57.7C h=1.3% p=21.2hPa 402.501 MHz Type=RS41-SGP ser=U0150025 Radiosonde
EA7KDTU01500252022-12-06 00:44:2737.1657-6.353041454425896Clb=5.2m/s t=-57.6C h=1.3% p=21.2hPa 402.502 MHz Type=RS41-SGP ser=U0150025 Radiosonde
EA4EKH-11U01500252022-12-06 00:44:2037.166-6.353241493525880Clb=4.8m/s t=-57.6C h=1.3% p=21.2hPa 402.500 MHz Type=RS41-SGP ser=U0150025 Radiosonde
CT7AUS-11U01500252022-12-06 00:44:0937.1663-6.353621372425846Clb=5.5m/s t=-57.7C h=1.3% p=21.4hPa 402.500 MHz Type=RS41-SGP ser=U0150025 Radiosonde
WINDFERU01500252022-12-06 00:43:4737.1676-6.354451393025768Clb=5.0m/s t=-58.2C h=1.4% p=21.6hPa 402.505 MHz Type=RS41-SGP ser=U0150025 Radiosonde
CT1EDGU01500252022-12-06 00:43:3537.1681-6.354861455425734Clb=6.0m/s t=-58.4C h=1.4% p=21.8hPa 402.501 MHz Type=RS41-SGP ser=U0150025 Radiosonde
EA7KDTU01500252022-12-06 00:43:3037.1682-6.354961455625728Clb=5.4m/s t=-58.3C h=1.4% p=21.7hPa 402.502 MHz Type=RS41-SGP ser=U0150025 Radiosonde
EA4EKH-11U01500252022-12-06 00:43:2337.1686-6.355311414125707Clb=5.1m/s t=-58.2C h=1.4% p=21.8hPa 402.500 MHz Type=RS41-SGP ser=U0150025 Radiosonde
CT7AUS-11U01500252022-12-06 00:43:1337.169-6.355821403525672Clb=5.1m/s t=-58.0C h=1.4% p=21.9hPa 402.500 MHz Type=RS41-SGP ser=U0150025 Radiosonde
WINDFERU01500252022-12-06 00:42:4937.17-6.356851363525604Clb=5.9m/s t=-58.1C h=1.4% p=22.2hPa 402.505 MHz Type=RS41-SGP ser=U0150025 Radiosonde
CT1EDGU01500252022-12-06 00:42:3837.1705-6.357261563325566Clb=5.8m/s t=-57.9C h=1.4% p=22.3hPa 402.501 MHz Type=RS41-SGP ser=U0150025 Radiosonde
EA7KDTU01500252022-12-06 00:42:3237.1707-6.357351543525556Clb=4.2m/s t=-57.9C h=1.4% p=22.4hPa 402.502 MHz Type=RS41-SGP ser=U0150025 Radiosonde
EA4EKH-11U01500252022-12-06 00:42:2437.1709-6.357561253925539Clb=5.2m/s t=-57.8C h=1.4% p=22.5hPa 402.500 MHz Type=RS41-SGP ser=U0150025 Radiosonde
CT7AUS-11U01500252022-12-06 00:42:1237.1711-6.358131213125508Clb=6.3m/s t=-57.6C h=1.3% p=22.5hPa 402.500 MHz Type=RS41-SGP ser=U0150025 Radiosonde
WINDFERU01500252022-12-06 00:41:4737.172-6.359461283525435Clb=4.9m/s t=-57.4C h=1.3% p=22.8hPa 402.505 MHz Type=RS41-SGP ser=U0150025 Radiosonde
CT1EDGU01500252022-12-06 00:41:3737.1723-6.360031285225410Clb=5.0m/s t=-57.5C h=1.3% p=22.9hPa 402.501 MHz Type=RS41-SGP ser=U0150025 Radiosonde
EA7KDTU01500252022-12-06 00:41:3237.1726-6.36041305225394Clb=5.0m/s t=-57.6C h=1.3% p=22.9hPa 402.502 MHz Type=RS41-SGP ser=U0150025 Radiosonde
EA4EKH-11U01500252022-12-06 00:41:2637.1728-6.360791255025379Clb=3.9m/s t=-57.7C h=1.3% p=23.0hPa 402.500 MHz Type=RS41-SGP ser=U0150025 Radiosonde
CT7AUS-11U01500252022-12-06 00:41:1437.1732-6.361471204625349Clb=5.2m/s t=-57.9C h=1.3% p=23.1hPa 402.500 MHz Type=RS41-SGP ser=U0150025 Radiosonde
WINDFERU01500252022-12-06 00:40:4937.1739-6.36394955625254Clb=5.9m/s t=-58.2C h=1.4% p=23.5hPa 402.505 MHz Type=RS41-SGP ser=U0150025 Radiosonde
CT1EDGU01500252022-12-06 00:40:3837.1739-6.36428905425243Clb=4.1m/s t=-58.3C h=1.4% p=23.5hPa 402.501 MHz Type=RS41-SGP ser=U0150025 Radiosonde
EA7KDTU01500252022-12-06 00:40:3337.1739-6.36462955425233Clb=5.5m/s t=-58.3C h=1.4% p=23.6hPa 402.502 MHz Type=RS41-SGP ser=U0150025 Radiosonde
EA4EKH-11U01500252022-12-06 00:40:2637.174-6.365131055425218Clb=4.8m/s t=-58.4C h=1.4% p=23.6hPa 402.500 MHz Type=RS41-SGP ser=U0150025 Radiosonde
CT7AUS-11U01500252022-12-06 00:40:1637.1741-6.36616876125187Clb=5.2m/s t=-58.2C h=1.4% p=23.7hPa 402.500 MHz Type=RS41-SGP ser=U0150025 Radiosonde
WINDFERU01500252022-12-06 00:39:5237.174-6.36872815425116Clb=6.1m/s t=-57.9C h=1.4% p=24.0hPa 402.505 MHz Type=RS41-SGP ser=U0150025 Radiosonde
CT1EDGU01500252022-12-06 00:39:4037.1739-6.36972796925089Clb=4.7m/s t=-57.7C h=1.4% p=24.1hPa 402.501 MHz Type=RS41-SGP ser=U0150025 Radiosonde
EA7KDTU01500252022-12-06 00:39:3637.1738-6.37034896325074Clb=6.2m/s t=-57.6C h=1.4% p=24.1hPa 402.502 MHz Type=RS41-SGP ser=U0150025 Radiosonde
EA4EKH-11U01500252022-12-06 00:39:3037.1738-6.37104844825053Clb=5.2m/s t=-57.4C h=1.3% p=24.2hPa 402.500 MHz Type=RS41-SGP ser=U0150025 Radiosonde
CT7AUS-11U01500252022-12-06 00:39:2137.1737-6.37189736325026Clb=5.1m/s t=-57.2C h=1.3% p=24.3hPa 402.500 MHz Type=RS41-SGP ser=U0150025 Radiosonde
WINDFERU01500252022-12-06 00:38:5737.1733-6.37457796124946Clb=5.7m/s t=-57.0C h=1.3% p=24.6hPa 402.505 MHz Type=RS41-SGP ser=U0150025 Radiosonde
CT1EDGU01500252022-12-06 00:38:4637.1732-6.37528825224923Clb=5.6m/s t=-57.0C h=1.3% p=24.8hPa 402.501 MHz Type=RS41-SGP ser=U0150025 Radiosonde
EA7KDTU01500252022-12-06 00:38:4137.1732-6.37577875424906Clb=5.4m/s t=-56.9C h=1.3% p=24.8hPa 402.502 MHz Type=RS41-SGP ser=U0150025 Radiosonde
EA4EKH-11U01500252022-12-06 00:38:3537.1732-6.3764814324885Clb=5.0m/s t=-56.7C h=1.3% p=24.9hPa 402.500 MHz Type=RS41-SGP ser=U0150025 Radiosonde
CT7AUS-11U01500252022-12-06 00:38:2637.1731-6.3771824624860Clb=4.8m/s t=-56.6C h=1.3% p=25.0hPa 402.500 MHz Type=RS41-SGP ser=U0150025 Radiosonde
WINDFERU01500252022-12-06 00:38:0137.1729-6.37937704324776Clb=6.5m/s t=-56.3C h=1.3% p=25.3hPa 402.505 MHz Type=RS41-SGP ser=U0150025 Radiosonde
CT1EDGU01500252022-12-06 00:37:4837.1726-6.37986654424755Clb=5.0m/s t=-56.2C h=1.2% p=25.4hPa 402.501 MHz Type=RS41-SGP ser=U0150025 Radiosonde
EA7KDTU01500252022-12-06 00:37:4337.1726-6.38013744324744Clb=5.4m/s t=-56.3C h=1.2% p=25.4hPa 402.502 MHz Type=RS41-SGP ser=U0150025 Radiosonde
EA4EKH-11U01500252022-12-06 00:37:3637.1725-6.38064914324722Clb=6.0m/s t=-56.6C h=1.3% p=25.5hPa 402.500 MHz Type=RS41-SGP ser=U0150025 Radiosonde
CT7AUS-11U01500252022-12-06 00:37:2737.1725-6.38126663324696Clb=4.8m/s t=-56.8C h=1.3% p=25.6hPa 402.500 MHz Type=RS41-SGP ser=U0150025 Radiosonde
WINDFERU01500252022-12-06 00:36:5537.1722-6.3827833324624Clb=5.8m/s t=-56.7C h=1.3% p=25.9hPa 402.505 MHz Type=RS41-SGP ser=U0150025 Radiosonde
CT1EDGU01500252022-12-06 00:36:4337.1721-6.38317712624592Clb=4.7m/s t=-56.5C h=1.3% p=26.1hPa 402.501 MHz Type=RS41-SGP ser=U0150025 Radiosonde
EA7KDTU01500252022-12-06 00:36:3937.1721-6.38333792624582Clb=5.1m/s t=-56.4C h=1.3% p=26.1hPa 402.502 MHz Type=RS41-SGP ser=U0150025 Radiosonde
EA4EKH-11U01500252022-12-06 00:36:3237.1721-6.38372903524561Clb=4.5m/s t=-56.3C h=1.2% p=26.2hPa 402.500 MHz Type=RS41-SGP ser=U0150025 Radiosonde
CT7AUS-11U01500252022-12-06 00:36:2137.1721-6.38416822424535Clb=6.1m/s t=-56.5C h=1.3% p=26.3hPa 402.500 MHz Type=RS41-SGP ser=U0150025 Radiosonde
WINDFERU01500252022-12-06 00:35:5837.172-6.38563873124461Clb=5.7m/s t=-56.7C h=1.3% p=26.6hPa 402.505 MHz Type=RS41-SGP ser=U0150025 Radiosonde
EA7KDTU01500252022-12-06 00:35:5137.1719-6.38637903924421Clb=5.0m/s t=-57.1C h=1.3% p=26.8hPa 402.502 MHz Type=RS41-SGP ser=U0150025 Radiosonde
EA4EKH-11U01500252022-12-06 00:35:4737.172-6.386851103124401Clb=4.1m/s t=-57.0C h=1.3% p=26.9hPa 402.500 MHz Type=RS41-SGP ser=U0150025 Radiosonde
CT7AUS-11U01500252022-12-06 00:35:4137.172-6.3871490724376Clb=5.5m/s t=-57.0C h=1.3% p=26.9hPa 402.500 MHz Type=RS41-SGP ser=U0150025 Radiosonde
WINDFERU01500252022-12-06 00:35:3437.1722-6.388031351924307Clb=4.5m/s t=-57.0C h=1.3% p=27.2hPa 402.505 MHz Type=RS41-SGP ser=U0150025 Radiosonde
CT1EDGU01500252022-12-06 00:35:2537.1724-6.388231051524277Clb=3.8m/s t=-56.9C h=1.3% p=27.4hPa 402.501 MHz Type=RS41-SGP ser=U0150025 Radiosonde
EA7KDTU01500252022-12-06 00:35:2237.1724-6.388331181924267Clb=5.3m/s t=-56.8C h=1.3% p=27.4hPa 402.502 MHz Type=RS41-SGP ser=U0150025 Radiosonde
EA4EKH-11U01500252022-12-06 00:35:1837.1726-6.388541182224248Clb=5.5m/s t=-56.8C h=1.2% p=27.5hPa 402.500 MHz Type=RS41-SGP ser=U0150025 Radiosonde
CT7AUS-11U01500252022-12-06 00:35:1237.1727-6.388911192424222Clb=3.9m/s t=-57.0C h=1.2% p=27.6hPa 402.500 MHz Type=RS41-SGP ser=U0150025 Radiosonde
WINDFERU01500252022-12-06 00:34:5637.1728-6.389811103024152Clb=5.3m/s t=-58.2C h=1.3% p=27.9hPa 402.505 MHz Type=RS41-SGP ser=U0150025 Radiosonde
CT1EDGU01500252022-12-06 00:34:5137.1729-6.390591002224113Clb=4.5m/s t=-58.9C h=1.4% p=28.1hPa 402.501 MHz Type=RS41-SGP ser=U0150025 Radiosonde
EA7KDTU01500252022-12-06 00:34:4837.1729-6.390591002224113Clb=4.5m/s t=-58.9C h=1.4% p=28.1hPa 402.502 MHz Type=RS41-SGP ser=U0150025 Radiosonde
EA4EKH-11U01500252022-12-06 00:34:4537.1729-6.39083752024093Clb=4.6m/s t=-59.0C h=1.4% p=28.2hPa 402.500 MHz Type=RS41-SGP ser=U0150025 Radiosonde
CT7AUS-11U01500252022-12-06 00:34:3937.1729-6.39128772224062Clb=5.6m/s t=-59.1C h=1.4% p=28.3hPa 402.500 MHz Type=RS41-SGP ser=U0150025 Radiosonde
WINDFERU01500252022-12-06 00:34:2837.173-6.392031063023998Clb=4.8m/s t=-60.1C h=1.5% p=28.6hPa 402.505 MHz Type=RS41-SGP ser=U0150025 Radiosonde
CT1EDGU01500252022-12-06 00:34:2337.1731-6.392521411923962Clb=4.7m/s t=-59.8C h=1.5% p=28.8hPa 402.501 MHz Type=RS41-SGP ser=U0150025 Radiosonde
EA7KDTU01500252022-12-06 00:34:2037.1731-6.392561421923957Clb=4.4m/s t=-59.8C h=1.5% p=28.8hPa 402.502 MHz Type=RS41-SGP ser=U0150025 Radiosonde
EA4EKH-11U01500252022-12-06 00:34:1737.1733-6.392761212423934Clb=5.8m/s t=-59.7C h=1.5% p=28.9hPa 402.500 MHz Type=RS41-SGP ser=U0150025 Radiosonde
CT7AUS-11U01500252022-12-06 00:34:1037.1734-6.39321032023903Clb=5.2m/s t=-59.8C h=1.5% p=29.1hPa 402.500 MHz Type=RS41-SGP ser=U0150025 Radiosonde
WINDFERU01500252022-12-06 00:33:5437.1737-6.394321053123825Clb=4.8m/s t=-60.2C h=1.5% p=29.4hPa 402.505 MHz Type=RS41-SGP ser=U0150025 Radiosonde
EA7KDTU01500252022-12-06 00:33:4637.1737-6.3948802023794Clb=6.1m/s t=-60.5C h=1.5% p=29.6hPa 402.502 MHz Type=RS41-SGP ser=U0150025 Radiosonde
EA4EKH-11U01500252022-12-06 00:33:4337.1737-6.39506692223771Clb=5.7m/s t=-60.6C h=1.5% p=29.7hPa 402.500 MHz Type=RS41-SGP ser=U0150025 Radiosonde
CT7AUS-11U01500252022-12-06 00:33:3737.1736-6.3955812423740Clb=5.3m/s t=-61.1C h=1.6% p=29.9hPa 402.500 MHz Type=RS41-SGP ser=U0150025 Radiosonde
WINDFERU01500252022-12-06 00:33:2337.1735-6.396131171723671Clb=4.9m/s t=-61.4C h=1.7% p=30.1hPa 402.505 MHz Type=RS41-SGP ser=U0150025 Radiosonde
EA7KDTU01500252022-12-06 00:33:1537.1735-6.39658841523628Clb=5.3m/s t=-61.3C h=1.6% p=30.4hPa 402.502 MHz Type=RS41-SGP ser=U0150025 Radiosonde
EA4EKH-11U01500252022-12-06 00:33:1237.1735-6.3967257923607Clb=5.4m/s t=-61.2C h=1.6% p=30.5hPa 402.500 MHz Type=RS41-SGP ser=U0150025 Radiosonde
CT7AUS-11U01500252022-12-06 00:33:0637.1735-6.39696631323575Clb=4.6m/s t=-61.2C h=1.7% p=30.6hPa 402.500 MHz Type=RS41-SGP ser=U0150025 Radiosonde
CT1EDGU01500252022-12-06 00:32:5937.1685-6.420241052821205Clb=4.0m/s t=-61.2C h=-1.0% p=-1.0hPa 402.501 MHz Type=RS41 ser=U0150025 Radiosonde
EA7KDTU01500252022-12-06 00:32:5437.1686-6.42041932621196Clb=4.1m/s t=-61.2C h=1.8% p=44.9hPa 402.502 MHz Type=RS41-SGP ser=U0150025 Radiosonde
EA4EKH-11U01500252022-12-06 00:32:4637.1685-6.42075782821178Clb=4.8m/s t=-61.3C h=1.8% p=45.0hPa 402.500 MHz Type=RS41-SGP ser=U0150025 Radiosonde
CT7AUS-11U01500252022-12-06 00:32:3537.1685-6.421191042421149Clb=4.5m/s t=-61.4C h=1.8% p=45.2hPa 402.500 MHz Type=RS41-SGP ser=U0150025 Radiosonde
WINDFERU01500252022-12-06 00:32:0837.1687-6.422361033021083Clb=4.7m/s t=-61.4C h=1.9% p=45.7hPa 402.505 MHz Type=RS41-SGP ser=U0150025 Radiosonde
CT1EDGU01500252022-12-06 00:31:5637.1688-6.42292962421050Clb=4.9m/s t=-61.7C h=-1.0% p=-1.0hPa 402.501 MHz Type=RS41 ser=U0150025 Radiosonde
EA7KDTU01500252022-12-06 00:31:5337.1688-6.42292962421050Clb=4.9m/s t=-61.7C h=1.9% p=46.0hPa 402.502 MHz Type=RS41-SGP ser=U0150025 Radiosonde
EA4EKH-11U01500252022-12-06 00:31:4637.1688-6.42319932021030Clb=5.6m/s t=-61.7C h=1.8% p=46.1hPa 402.500 MHz Type=RS41-SGP ser=U0150025 Radiosonde
CT7AUS-11U01500252022-12-06 00:31:3737.1689-6.423571151921000Clb=4.5m/s t=-61.9C h=1.9% p=46.3hPa 402.500 MHz Type=RS41-SGP ser=U0150025 Radiosonde
WINDFERU01500252022-12-06 00:31:0937.1692-6.4245972620919Clb=4.1m/s t=-62.4C h=1.9% p=47.0hPa 402.505 MHz Type=RS41-SGP ser=U0150025 Radiosonde
CT1EDGU01500252022-12-06 00:30:5837.1693-6.424741082620904Clb=4.5m/s t=-62.7C h=-1.0% p=-1.0hPa 402.501 MHz Type=RS41 ser=U0150025 Radiosonde
EA7KDTU01500252022-12-06 00:30:5437.1693-6.424911123020893Clb=5.9m/s t=-62.8C h=2.1% p=47.1hPa 402.502 MHz Type=RS41-SGP ser=U0150025 Radiosonde
EA4EKH-11U01500252022-12-06 00:30:4837.1695-6.425361132820868Clb=4.5m/s t=-62.7C h=2.0% p=47.3hPa 402.500 MHz Type=RS41-SGP ser=U0150025 Radiosonde
CT7AUS-11U01500252022-12-06 00:30:3837.1697-6.425961153320835Clb=5.4m/s t=-62.8C h=2.0% p=47.6hPa 402.500 MHz Type=RS41-SGP ser=U0150025 Radiosonde
WINDFERU01500252022-12-06 00:30:1237.1698-6.42728933720765Clb=4.7m/s t=-63.0C h=2.0% p=48.1hPa 402.505 MHz Type=RS41-SGP ser=U0150025 Radiosonde
EA7KDTU01500252022-12-06 00:29:5637.1698-6.42815883720727Clb=4.8m/s t=-62.8C h=2.1% p=48.4hPa 402.502 MHz Type=RS41-SGP ser=U0150025 Radiosonde
EA4EKH-11U01500252022-12-06 00:29:5037.1697-6.42863744120706Clb=4.5m/s t=-62.7C h=2.1% p=48.5hPa 402.500 MHz Type=RS41-SGP ser=U0150025 Radiosonde
CT7AUS-11U01500252022-12-06 00:29:4037.1695-6.42934723920672Clb=5.1m/s t=-62.6C h=2.0% p=48.8hPa 402.500 MHz Type=RS41-SGP ser=U0150025 Radiosonde
WINDFERU01500252022-12-06 00:29:1637.1691-6.43111704120593Clb=5.2m/s t=-62.6C h=2.1% p=49.5hPa 402.505 MHz Type=RS41-SGP ser=U0150025 Radiosonde
CT1EDGU01500252022-12-06 00:29:0237.1689-6.43179723520560Clb=5.7m/s t=-62.5C h=-1.0% p=-1.0hPa 402.501 MHz Type=RS41 ser=U0150025 Radiosonde
EA7KDTU01500252022-12-06 00:28:5837.1688-6.4319743720554Clb=5.2m/s t=-62.5C h=2.0% p=49.8hPa 402.502 MHz Type=RS41-SGP ser=U0150025 Radiosonde
EA4EKH-11U01500252022-12-06 00:28:5237.1687-6.4324703920533Clb=5.7m/s t=-62.6C h=2.1% p=49.9hPa 402.500 MHz Type=RS41-SGP ser=U0150025 Radiosonde
CT7AUS-11U01500252022-12-06 00:28:4237.1684-6.43296533320502Clb=6.1m/s t=-62.5C h=2.0% p=50.2hPa 402.500 MHz Type=RS41-SGP ser=U0150025 Radiosonde
WINDFERU01500252022-12-06 00:28:1737.1679-6.43407502820428Clb=4.6m/s t=-62.6C h=2.1% p=50.8hPa 402.505 MHz Type=RS41-SGP ser=U0150025 Radiosonde
EA7KDTU01500252022-12-06 00:28:0237.1675-6.43461441920389Clb=5.5m/s t=-62.8C h=2.2% p=51.1hPa 402.502 MHz Type=RS41-SGP ser=U0150025 Radiosonde
EA4EKH-11U01500252022-12-06 00:27:5437.1674-6.43475432220374Clb=4.9m/s t=-62.8C h=2.1% p=51.2hPa 402.500 MHz Type=RS41-SGP ser=U0150025 Radiosonde
CT7AUS-11U01500252022-12-06 00:27:4437.1672-6.43512652620343Clb=4.8m/s t=-62.9C h=2.2% p=51.5hPa 402.500 MHz Type=RS41-SGP ser=U0150025 Radiosonde
WINDFERU01500252022-12-06 00:27:1637.167-6.43603962220273Clb=4.2m/s t=-62.8C h=2.2% p=52.1hPa 402.505 MHz Type=RS41-SGP ser=U0150025 Radiosonde
EA7KDTU01500252022-12-06 00:27:0037.167-6.4365721720241Clb=5.0m/s t=-62.7C h=2.2% p=52.4hPa 402.502 MHz Type=RS41-SGP ser=U0150025 Radiosonde
EA4EKH-11U01500252022-12-06 00:26:5337.167-6.43677872620223Clb=3.5m/s t=-62.7C h=2.2% p=52.5hPa 402.500 MHz Type=RS41-SGP ser=U0150025 Radiosonde
CT7AUS-11U01500252022-12-06 00:26:4937.1669-6.43732793320195Clb=3.4m/s t=-62.8C h=2.2% p=52.8hPa 402.500 MHz Type=RS41-SGP ser=U0150025 Radiosonde
WINDFERU01500252022-12-06 00:26:1637.1668-6.43863903520136Clb=4.3m/s t=-63.5C h=2.4% p=53.3hPa 402.505 MHz Type=RS41-SGP ser=U0150025 Radiosonde
CT1EDGU01500252022-12-06 00:26:0537.1669-6.43945903120109Clb=4.3m/s t=-273.0C h=-1.0% p=-1.0hPa 402.501 MHz Type=RS41 ser=U0150025 Radiosonde
EA7KDTU01500252022-12-06 00:26:0137.1669-6.43955852820105Clb=3.6m/s t=-63.4C h=2.4% p=53.5hPa 402.502 MHz Type=RS41-SGP ser=U0150025 Radiosonde
EA4EKH-11U01500252022-12-06 00:25:5537.1668-6.43993793120089Clb=3.3m/s t=-63.4C h=2.3% p=53.7hPa 402.500 MHz Type=RS41-SGP ser=U0150025 Radiosonde
CT7AUS-11U01500252022-12-06 00:25:4637.1668-6.44039903120070Clb=4.0m/s t=-63.6C h=2.4% p=53.9hPa 402.500 MHz Type=RS41-SGP ser=U0150025 Radiosonde
WINDFERU01500252022-12-06 00:25:1737.1666-6.44175783120017Clb=3.4m/s t=-64.3C h=2.4% p=54.3hPa 402.505 MHz Type=RS41-SGP ser=U0150025 Radiosonde
EA7KDTU01500252022-12-06 00:25:0137.1666-6.44236902219987Clb=4.4m/s t=-64.9C h=2.5% p=54.6hPa 402.502 MHz Type=RS41-SGP ser=U0150025 Radiosonde
EA4EKH-11U01500252022-12-06 00:24:5637.1666-6.44257952019975Clb=4.0m/s t=-65.1C h=2.5% p=54.7hPa 402.500 MHz Type=RS41-SGP ser=U0150025 Radiosonde
CT7AUS-11U01500252022-12-06 00:24:4437.1666-6.4431062419953Clb=3.2m/s t=-65.2C h=2.6% p=54.9hPa 402.500 MHz Type=RS41-SGP ser=U0150025 Radiosonde
WINDFERU01500252022-12-06 00:24:1637.1668-6.444071131919903Clb=3.5m/s t=-65.4C h=2.6% p=55.4hPa 402.505 MHz Type=RS41-SGP ser=U0150025 Radiosonde
EA7KDTU01500252022-12-06 00:24:0237.167-6.44454941319871Clb=4.3m/s t=-65.8C h=2.6% p=55.6hPa 402.502 MHz Type=RS41-SGP ser=U0150025 Radiosonde
EA4EKH-11U01500252022-12-06 00:23:5637.167-6.44465115919860Clb=4.3m/s t=-65.9C h=2.7% p=55.7hPa 402.500 MHz Type=RS41-SGP ser=U0150025 Radiosonde
CT7AUS-11U01500252022-12-06 00:23:4537.1671-6.44474136919835Clb=3.5m/s t=-65.8C h=2.7% p=56.0hPa 402.500 MHz Type=RS41-SGP ser=U0150025 Radiosonde
WINDFERU01500252022-12-06 00:23:1837.1675-6.445411101919778Clb=4.6m/s t=-65.3C h=2.7% p=56.5hPa 402.505 MHz Type=RS41-SGP ser=U0150025 Radiosonde
EA7KDTU01500252022-12-06 00:23:0337.1676-6.445831182019742Clb=4.0m/s t=-65.1C h=2.6% p=56.8hPa 402.502 MHz Type=RS41-SGP ser=U0150025 Radiosonde
EA4EKH-11U01500252022-12-06 00:22:5837.1677-6.446031102619729Clb=4.3m/s t=-65.0C h=2.5% p=57.0hPa 402.500 MHz Type=RS41-SGP ser=U0150025 Radiosonde
CT7AUS-11U01500252022-12-06 00:22:4637.1677-6.44641071719702Clb=3.9m/s t=-64.9C h=2.6% p=57.2hPa 402.500 MHz Type=RS41-SGP ser=U0150025 Radiosonde
WINDFERU01500252022-12-06 00:22:1837.1678-6.447521062219634Clb=4.2m/s t=-64.5C h=2.5% p=57.8hPa 402.505 MHz Type=RS41-SGP ser=U0150025 Radiosonde
EA7KDTU01500252022-12-06 00:22:0437.1678-6.4483783119592Clb=5.8m/s t=-64.5C h=2.5% p=58.2hPa 402.502 MHz Type=RS41-SGP ser=U0150025 Radiosonde
EA4EKH-11U01500252022-12-06 00:21:5837.1678-6.44858872819577Clb=5.7m/s t=-64.6C h=2.5% p=58.4hPa 402.500 MHz Type=RS41-SGP ser=U0150025 Radiosonde
CT7AUS-11U01500252022-12-06 00:21:4937.1678-6.44914873319546Clb=5.8m/s t=-64.4C h=2.5% p=58.6hPa 402.500 MHz Type=RS41-SGP ser=U0150025 Radiosonde
WINDFERU01500252022-12-06 00:21:2237.1674-6.45084753019471Clb=5.3m/s t=-64.0C h=2.4% p=59.4hPa 402.505 MHz Type=RS41-SGP ser=U0150025 Radiosonde
EA7KDTU01500252022-12-06 00:21:0837.1672-6.45153663319436Clb=4.5m/s t=-64.1C h=2.5% p=59.7hPa 402.502 MHz Type=RS41-SGP ser=U0150025 Radiosonde
EA4EKH-11U01500252022-12-06 00:21:0237.1671-6.45182733319421Clb=4.8m/s t=-64.0C h=2.4% p=59.9hPa 402.500 MHz Type=RS41-SGP ser=U0150025 Radiosonde
CT7AUS-11U01500252022-12-06 00:20:5037.167-6.45239762419386Clb=4.2m/s t=-63.9C h=2.4% p=60.2hPa 402.500 MHz Type=RS41-SGP ser=U0150025 Radiosonde
WINDFERU01500252022-12-06 00:20:2237.1665-6.45361643019318Clb=5.7m/s t=-63.8C h=2.5% p=60.9hPa 402.505 MHz Type=RS41-SGP ser=U0150025 Radiosonde
EA7KDTU01500252022-12-06 00:20:0937.1663-6.45419672819283Clb=5.3m/s t=-63.7C h=2.4% p=61.2hPa 402.502 MHz Type=RS41-SGP ser=U0150025 Radiosonde
EA4EKH-11U01500252022-12-06 00:20:0237.1662-6.45452672819263Clb=5.2m/s t=-63.5C h=2.5% p=61.4hPa 402.500 MHz Type=RS41-SGP ser=U0150025 Radiosonde
WINDFERU01500252022-12-06 00:19:2337.1659-6.45582871919165Clb=5.2m/s t=-62.8C h=2.3% p=62.4hPa 402.505 MHz Type=RS41-SGP ser=U0150025 Radiosonde
EA7KDTU01500252022-12-06 00:19:1137.1659-6.45631971719133Clb=4.0m/s t=-63.3C h=2.4% p=62.8hPa 402.502 MHz Type=RS41-SGP ser=U0150025 Radiosonde
EA4EKH-11U01500252022-12-06 00:19:0537.1659-6.45644112719114Clb=4.6m/s t=-63.4C h=2.5% p=62.9hPa 402.500 MHz Type=RS41-SGP ser=U0150025 Radiosonde
WINDFERU01500252022-12-06 00:18:2737.1662-6.457491012019019Clb=4.1m/s t=-63.0C h=2.4% p=63.9hPa 402.505 MHz Type=RS41-SGP ser=U0150025 Radiosonde
EA7KDTU01500252022-12-06 00:18:1537.1663-6.45791991918990Clb=3.8m/s t=-62.9C h=2.5% p=64.2hPa 402.502 MHz Type=RS41-SGP ser=U0150025 Radiosonde
EA4EKH-11U01500252022-12-06 00:18:0837.1663-6.45818832218971Clb=5.1m/s t=-62.9C h=2.4% p=64.4hPa 402.500 MHz Type=RS41-SGP ser=U0150025 Radiosonde
WINDFERU01500252022-12-06 00:17:2937.1663-6.45982802818888Clb=3.6m/s t=-63.3C h=2.5% p=65.3hPa 402.505 MHz Type=RS41-SGP ser=U0150025 Radiosonde
EA7KDTU01500252022-12-06 00:17:1537.1662-6.4605882818859Clb=4.1m/s t=-63.5C h=2.6% p=65.5hPa 402.502 MHz Type=RS41-SGP ser=U0150025 Radiosonde
EA4EKH-11U01500252022-12-06 00:17:0837.1663-6.461041023018835Clb=3.9m/s t=-63.6C h=2.6% p=65.9hPa 402.500 MHz Type=RS41-SGP ser=U0150025 Radiosonde
CT7AUS-11U01500252022-12-06 00:16:5637.1664-6.461961003518801Clb=3.4m/s t=-63.7C h=2.7% p=66.2hPa 402.500 MHz Type=RS41-SGP ser=U0150025 Radiosonde
WINDFERU01500252022-12-06 00:16:3037.1665-6.462921003118760Clb=4.3m/s t=-63.9C h=2.7% p=66.6hPa 402.505 MHz Type=RS41-SGP ser=U0150025 Radiosonde
EA7KDTU01500252022-12-06 00:16:1737.1667-6.463581073718731Clb=3.7m/s t=-63.9C h=2.8% p=66.9hPa 402.502 MHz Type=RS41-SGP ser=U0150025 Radiosonde
EA4EKH-11U01500252022-12-06 00:16:1037.1668-6.464061124318715Clb=4.3m/s t=-63.8C h=2.7% p=67.1hPa 402.500 MHz Type=RS41-SGP ser=U0150025 Radiosonde
CT7AUS-11U01500252022-12-06 00:16:0137.167-6.46468992218687Clb=3.6m/s t=-63.8C h=2.8% p=67.4hPa 402.500 MHz Type=RS41-SGP ser=U0150025 Radiosonde
WINDFERU01500252022-12-06 00:15:4637.1671-6.46678993718606Clb=4.6m/s t=-64.2C h=2.8% p=68.3hPa 402.505 MHz Type=RS41-SGP ser=U0150025 Radiosonde
EA7KDTU01500252022-12-06 00:15:4037.1672-6.46712883718591Clb=6.0m/s t=-64.2C h=2.9% p=68.5hPa 402.502 MHz Type=RS41-SGP ser=U0150025 Radiosonde
EA4EKH-11U01500252022-12-06 00:15:3837.1671-6.46756713018572Clb=4.9m/s t=-64.2C h=2.9% p=68.7hPa 402.500 MHz Type=RS41-SGP ser=U0150025 Radiosonde
CT7AUS-11U01500252022-12-06 00:15:3537.167-6.46809962618542Clb=4.6m/s t=-64.5C h=2.9% p=69.0hPa 402.500 MHz Type=RS41-SGP ser=U0150025 Radiosonde
WINDFERU01500252022-12-06 00:15:1937.1667-6.46932692018474Clb=5.3m/s t=-64.8C h=3.0% p=69.8hPa 402.505 MHz Type=RS41-SGP ser=U0150025 Radiosonde
EA7KDTU01500252022-12-06 00:15:1037.1666-6.46978672218438Clb=4.9m/s t=-64.6C h=3.1% p=70.2hPa 402.502 MHz Type=RS41-SGP ser=U0150025 Radiosonde
EA4EKH-11U01500252022-12-06 00:15:0637.1665-6.46997361518420Clb=4.1m/s t=-64.5C h=3.1% p=70.4hPa 402.500 MHz Type=RS41-SGP ser=U0150025 Radiosonde
CT7AUS-11U01500252022-12-06 00:14:5837.1663-6.47026492418391Clb=4.9m/s t=-64.5C h=3.2% p=70.8hPa 402.500 MHz Type=RS41-SGP ser=U0150025 Radiosonde
WINDFERU01500252022-12-06 00:14:4437.1658-6.47079612218325Clb=5.8m/s t=-64.2C h=3.1% p=71.5hPa 402.505 MHz Type=RS41-SGP ser=U0150025 Radiosonde
EA4EKH-11U01500252022-12-06 00:14:4337.1656-6.47142231318271Clb=3.8m/s t=-64.3C h=3.1% p=72.2hPa 402.500 MHz Type=RS41-SGP ser=U0150025 Radiosonde
CT7AUS-11U01500252022-12-06 00:14:4137.1655-6.4717872418242Clb=5.5m/s t=-64.4C h=3.3% p=72.5hPa 402.500 MHz Type=RS41-SGP ser=U0150025 Radiosonde
WINDFERU01500252022-12-06 00:14:3737.1655-6.472661181918146Clb=5.4m/s t=-64.9C h=3.4% p=73.7hPa 402.505 MHz Type=RS41-SGP ser=U0150025 Radiosonde
EA7KDTU01500252022-12-06 00:14:3037.1656-6.472721241918140Clb=4.8m/s t=-64.9C h=3.5% p=73.7hPa 402.502 MHz Type=RS41-SGP ser=U0150025 Radiosonde
EA4EKH-11U01500252022-12-06 00:14:2737.1657-6.472991302018112Clb=5.3m/s t=-64.9C h=3.5% p=74.0hPa 402.500 MHz Type=RS41-SGP ser=U0150025 Radiosonde
CT7AUS-11U01500252022-12-06 00:14:1937.1658-6.473241132418093Clb=3.8m/s t=-64.8C h=3.5% p=74.3hPa 402.500 MHz Type=RS41-SGP ser=U0150025 Radiosonde
WINDFERU01500252022-12-06 00:14:0637.1663-6.474011332418028Clb=4.2m/s t=-65.1C h=3.5% p=75.1hPa 402.505 MHz Type=RS41-SGP ser=U0150025 Radiosonde
EA7KDTU01500252022-12-06 00:14:0037.1666-6.474461292417995Clb=4.8m/s t=-65.3C h=3.5% p=75.5hPa 402.502 MHz Type=RS41-SGP ser=U0150025 Radiosonde
EA4EKH-11U01500252022-12-06 00:13:5937.1668-6.474721382817976Clb=4.8m/s t=-65.6C h=3.7% p=75.7hPa 402.500 MHz Type=RS41-SGP ser=U0150025 Radiosonde
CT7AUS-11U01500252022-12-06 00:13:5737.1672-6.475231253317944Clb=5.2m/s t=-65.8C h=3.7% p=76.1hPa 402.500 MHz Type=RS41-SGP ser=U0150025 Radiosonde
WINDFERU01500252022-12-06 00:13:5337.1682-6.476741253317869Clb=4.3m/s t=-66.4C h=3.9% p=77.1hPa 402.505 MHz Type=RS41-SGP ser=U0150025 Radiosonde
EA7KDTU01500252022-12-06 00:13:5137.1684-6.477021314117855Clb=4.2m/s t=-66.4C h=3.9% p=77.2hPa 402.502 MHz Type=RS41-SGP ser=U0150025 Radiosonde
EA4EKH-11U01500252022-12-06 00:13:5037.1688-6.477481324417833Clb=4.0m/s t=-66.3C h=3.9% p=77.5hPa 402.500 MHz Type=RS41-SGP ser=U0150025 Radiosonde
CT7AUS-11U01500252022-12-06 00:13:4937.1691-6.478091153517808Clb=4.1m/s t=-66.2C h=3.9% p=77.8hPa 402.500 MHz Type=RS41-SGP ser=U0150025 Radiosonde
WINDFERU01500252022-12-06 00:13:4437.1696-6.479381102817752Clb=5.0m/s t=-66.1C h=3.8% p=78.6hPa 402.505 MHz Type=RS41-SGP ser=U0150025 Radiosonde
EA4EKH-11U01500252022-12-06 00:13:4337.1699-6.480381023517704Clb=3.5m/s t=-65.8C h=3.8% p=79.2hPa 402.500 MHz Type=RS41-SGP ser=U0150025 Radiosonde
CT7AUS-11U01500252022-12-06 00:13:4237.1702-6.481791093117644Clb=4.5m/s t=-65.5C h=3.7% p=80.0hPa 402.500 MHz Type=RS41-SGP ser=U0150025 Radiosonde
WINDFERU01500252022-12-06 00:13:3937.1704-6.482321003717623Clb=4.7m/s t=-65.4C h=3.7% p=80.2hPa 402.505 MHz Type=RS41-SGP ser=U0150025 Radiosonde
CT7AUS-11U01500252022-12-06 00:13:3837.1706-6.48462913017535Clb=4.1m/s t=-65.1C h=3.7% p=81.5hPa 402.500 MHz Type=RS41-SGP ser=U0150025 Radiosonde
WINDFERU01500252022-12-06 00:13:3737.1706-6.48563902417486Clb=5.2m/s t=-65.0C h=3.6% p=82.1hPa 402.505 MHz Type=RS41-SGP ser=U0150025 Radiosonde
EA7KDTU01500252022-12-06 00:13:3637.1706-6.48629823017455Clb=4.4m/s t=-64.9C h=3.6% p=82.5hPa 402.502 MHz Type=RS41-SGP ser=U0150025 Radiosonde
WINDFERU01500252022-12-06 00:13:3237.17-6.48842583317344Clb=3.7m/s t=-65.1C h=3.7% p=84.0hPa 402.505 MHz Type=RS41-SGP ser=U0150025 Radiosonde
EA7KDTU01500252022-12-06 00:13:2337.1696-6.48902513517310Clb=5.4m/s t=-65.0C h=3.7% p=84.4hPa 402.502 MHz Type=RS41-SGP ser=U0150025 Radiosonde
EA4EKH-11U01500252022-12-06 00:13:1937.1694-6.48929563317294Clb=4.3m/s t=-64.9C h=3.7% p=84.6hPa 402.500 MHz Type=RS41-SGP ser=U0150025 Radiosonde
CT7AUS-11U01500252022-12-06 00:13:1337.1691-6.48982523517263Clb=3.1m/s t=-64.8C h=3.6% p=85.0hPa 402.500 MHz Type=RS41-SGP ser=U0150025 Radiosonde
WINDFERU01500252022-12-06 00:13:0137.1683-6.49082413017206Clb=5.2m/s t=-64.9C h=3.7% p=85.9hPa 402.505 MHz Type=RS41-SGP ser=U0150025 Radiosonde
EA7KDTU01500252022-12-06 00:13:0037.1679-6.4912382017176Clb=5.5m/s t=-64.9C h=3.7% p=86.3hPa 402.502 MHz Type=RS41-SGP ser=U0150025 Radiosonde
WINDFERU01500252022-12-06 00:12:5937.1671-6.49294783017064Clb=4.5m/s t=-64.6C h=3.7% p=87.9hPa 402.505 MHz Type=RS41-SGP ser=U0150025 Radiosonde
EA4EKH-11U01500252022-12-06 00:12:5837.167-6.49366692417031Clb=4.5m/s t=-64.5C h=3.7% p=88.4hPa 402.500 MHz Type=RS41-SGP ser=U0150025 Radiosonde
WINDFERU01500252022-12-06 00:12:5737.1665-6.49534743016937Clb=4.1m/s t=-64.3C h=3.7% p=89.8hPa 402.505 MHz Type=RS41-SGP ser=U0150025 Radiosonde
EA7KDTU01500252022-12-06 00:12:5637.1664-6.49602643016904Clb=4.3m/s t=-64.4C h=3.7% p=90.2hPa 402.502 MHz Type=RS41-SGP ser=U0150025 Radiosonde
WINDFERU01500252022-12-06 00:12:5537.1659-6.49759651916801Clb=4.6m/s t=-64.6C h=3.6% p=91.8hPa 402.505 MHz Type=RS41-SGP ser=U0150025 Radiosonde
EA7KDTU01500252022-12-06 00:12:4837.1657-6.49799491316769Clb=5.0m/s t=-64.7C h=3.7% p=92.3hPa 402.502 MHz Type=RS41-SGP ser=U0150025 Radiosonde
EA4EKH-11U01500252022-12-06 00:12:4537.1657-6.4981167916750Clb=4.3m/s t=-64.8C h=3.7% p=92.5hPa 402.500 MHz Type=RS41-SGP ser=U0150025 Radiosonde
CT7AUS-11U01500252022-12-06 00:12:3637.1656-6.49842741716724Clb=4.3m/s t=-64.7C h=3.7% p=93.0hPa 402.500 MHz Type=RS41-SGP ser=U0150025 Radiosonde
WINDFERU01500252022-12-06 00:12:1237.1656-6.499271051116646Clb=4.4m/s t=-64.6C h=3.7% p=94.1hPa 402.505 MHz Type=RS41-SGP ser=U0150025 Radiosonde
EA7KDTU01500252022-12-06 00:11:5537.1656-6.499391071516634Clb=4.7m/s t=-64.6C h=3.7% p=94.3hPa 402.502 MHz Type=RS41-SGP ser=U0150025 Radiosonde
EA4EKH-11U01500252022-12-06 00:11:5137.1657-6.499551071716620Clb=5.6m/s t=-64.6C h=3.7% p=94.5hPa 402.500 MHz Type=RS41-SGP ser=U0150025 Radiosonde
CT7AUS-11U01500252022-12-06 00:11:3937.1658-6.499871051116591Clb=5.2m/s t=-64.6C h=3.7% p=95.0hPa 402.500 MHz Type=RS41-SGP ser=U0150025 Radiosonde
WINDFERU01500252022-12-06 00:11:1637.166-6.500351211716530Clb=3.9m/s t=-64.3C h=3.5% p=95.9hPa 402.505 MHz Type=RS41-SGP ser=U0150025 Radiosonde
EA7KDTU01500252022-12-06 00:11:0037.1662-6.50071312016499Clb=5.0m/s t=-64.4C h=3.6% p=96.4hPa 402.502 MHz Type=RS41-SGP ser=U0150025 Radiosonde
EA4EKH-11U01500252022-12-06 00:10:5537.1664-6.500861431716482Clb=3.9m/s t=-64.5C h=3.7% p=96.7hPa 402.500 MHz Type=RS41-SGP ser=U0150025 Radiosonde
CT7AUS-11U01500252022-12-06 00:10:4337.1665-6.501121001716456Clb=5.2m/s t=-64.4C h=3.6% p=97.1hPa 402.500 MHz Type=RS41-SGP ser=U0150025 Radiosonde
WINDFERU01500252022-12-06 00:10:1537.1669-6.501941182416395Clb=5.0m/s t=-64.1C h=3.6% p=98.1hPa 402.505 MHz Type=RS41-SGP ser=U0150025 Radiosonde
EA7KDTU01500252022-12-06 00:10:0037.1671-6.502431142616364Clb=4.9m/s t=-64.0C h=3.5% p=98.5hPa 402.502 MHz Type=RS41-SGP ser=U0150025 Radiosonde
EA4EKH-11U01500252022-12-06 00:09:5437.1672-6.502821002816342Clb=3.6m/s t=-63.8C h=3.5% p=98.9hPa 402.500 MHz Type=RS41-SGP ser=U0150025 Radiosonde
CT7AUS-11U01500252022-12-06 00:09:4237.1673-6.503321123716319Clb=4.6m/s t=-63.7C h=3.5% p=99.3hPa 402.500 MHz Type=RS41-SGP ser=U0150025 Radiosonde
WINDFERU01500252022-12-06 00:09:1837.1677-6.504891094416256Clb=4.1m/s t=-63.3C h=3.4% p=100.3hPa 402.505 MHz Type=RS41-SGP ser=U0150025 Radiosonde
EA7KDTU01500252022-12-06 00:09:0437.168-6.505841034316225Clb=5.3m/s t=-63.1C h=3.3% p=100.8hPa 402.502 MHz Type=RS41-SGP ser=U0150025 Radiosonde
EA4EKH-11U01500252022-12-06 00:08:5737.1682-6.507261045416175Clb=4.3m/s t=-62.8C h=3.3% p=101.7hPa 402.500 MHz Type=RS41-SGP ser=U0150025 Radiosonde
CT7AUS-11U01500252022-12-06 00:08:4637.1682-6.507261045416175Clb=4.3m/s t=-62.8C h=3.3% p=101.7hPa 402.500 MHz Type=RS41-SGP ser=U0150025 Radiosonde
WINDFERU01500252022-12-06 00:08:2137.1685-6.50952995716109Clb=4.6m/s t=-63.1C h=3.4% p=102.7hPa 402.505 MHz Type=RS41-SGP ser=U0150025 Radiosonde
EA7KDTU01500252022-12-06 00:08:0537.1687-6.51079995716078Clb=4.1m/s t=-63.1C h=3.4% p=103.3hPa 402.502 MHz Type=RS41-SGP ser=U0150025 Radiosonde
EA4EKH-11U01500252022-12-06 00:07:5937.1688-6.51156956316058Clb=5.7m/s t=-63.0C h=3.3% p=103.6hPa 402.500 MHz Type=RS41-SGP ser=U0150025 Radiosonde
CT7AUS-11U01500252022-12-06 00:07:5237.1689-6.51269935616029Clb=4.4m/s t=-63.0C h=3.4% p=104.1hPa 402.500 MHz Type=RS41-SGP ser=U0150025 Radiosonde
WINDFERU01500252022-12-06 00:07:2437.169-6.51528965215962Clb=4.4m/s t=-62.6C h=3.3% p=105.2hPa 402.505 MHz Type=RS41-SGP ser=U0150025 Radiosonde
EA7KDTU01500252022-12-06 00:07:1037.1691-6.51633995615934Clb=5.0m/s t=-62.4C h=3.3% p=105.7hPa 402.502 MHz Type=RS41-SGP ser=U0150025 Radiosonde
EA4EKH-11U01500252022-12-06 00:07:0437.1693-6.51742994415903Clb=3.9m/s t=-62.2C h=3.2% p=106.2hPa 402.500 MHz Type=RS41-SGP ser=U0150025 Radiosonde
CT7AUS-11U01500252022-12-06 00:06:5537.1693-6.51787935015889Clb=3.6m/s t=-62.4C h=3.3% p=106.5hPa 402.500 MHz Type=RS41-SGP ser=U0150025 Radiosonde
WINDFERU01500252022-12-06 00:06:3137.1697-6.520021024815825Clb=3.8m/s t=-62.4C h=3.3% p=107.6hPa 402.505 MHz Type=RS41-SGP ser=U0150025 Radiosonde
EA7KDTU01500252022-12-06 00:06:1837.1698-6.521071075215796Clb=3.6m/s t=-62.3C h=3.3% p=108.1hPa 402.502 MHz Type=RS41-SGP ser=U0150025 Radiosonde
CT7AUS-11U01500252022-12-06 00:05:5937.1701-6.52261915415754Clb=4.5m/s t=-62.1C h=3.2% p=108.8hPa 402.500 MHz Type=RS41-SGP ser=U0150025 Radiosonde
WINDFERU01500252022-12-06 00:05:3237.1702-6.52506915715698Clb=3.9m/s t=-63.0C h=3.4% p=109.8hPa 402.505 MHz Type=RS41-SGP ser=U0150025 Radiosonde
EA7KDTU01500252022-12-06 00:05:1937.1703-6.52628945615672Clb=4.2m/s t=-62.8C h=3.4% p=110.2hPa 402.502 MHz Type=RS41-SGP ser=U0150025 Radiosonde
CT7AUS-11U01500252022-12-06 00:05:0137.1702-6.52821835415626Clb=3.4m/s t=-62.5C h=3.2% p=111.1hPa 402.500 MHz Type=RS41-SGP ser=U0150025 Radiosonde
WINDFERU01500252022-12-06 00:04:3837.1702-6.53047875215578Clb=4.5m/s t=-62.7C h=3.4% p=111.9hPa 402.505 MHz Type=RS41-SGP ser=U0150025 Radiosonde
EA7KDTU01500252022-12-06 00:04:2437.17-6.53165825215552Clb=3.1m/s t=-62.6C h=3.2% p=112.4hPa 402.502 MHz Type=RS41-SGP ser=U0150025 Radiosonde
EA4EKH-11U01500252022-12-06 00:04:1837.17-6.53231934815537Clb=4.0m/s t=-62.5C h=3.3% p=112.7hPa 402.500 MHz Type=RS41-SGP ser=U0150025 Radiosonde
CT7AUS-11U01500252022-12-06 00:04:0737.17-6.5333854315510Clb=3.9m/s t=-62.5C h=3.3% p=113.2hPa 402.500 MHz Type=RS41-SGP ser=U0150025 Radiosonde
WINDFERU01500252022-12-06 00:03:5237.17-6.53507844115460Clb=2.6m/s t=-62.2C h=3.3% p=114.1hPa 402.505 MHz Type=RS41-SGP ser=U0150025 Radiosonde
EA7KDTU01500252022-12-06 00:03:4637.17-6.53597933715436Clb=3.6m/s t=-62.0C h=3.2% p=114.6hPa 402.502 MHz Type=RS41-SGP ser=U0150025 Radiosonde
EA4EKH-11U01500252022-12-06 00:03:4237.17-6.53663864415417Clb=3.1m/s t=-62.1C h=3.2% p=114.9hPa 402.500 MHz Type=RS41-SGP ser=U0150025 Radiosonde
CT7AUS-11U01500252022-12-06 00:03:3637.17-6.53771903715387Clb=4.8m/s t=-62.1C h=3.3% p=115.5hPa 402.500 MHz Type=RS41-SGP ser=U0150025 Radiosonde
WINDFERU01500252022-12-06 00:03:2437.1699-6.53905853915342Clb=4.8m/s t=-62.3C h=3.2% p=116.3hPa 402.505 MHz Type=RS41-SGP ser=U0150025 Radiosonde
EA7KDTU01500252022-12-06 00:03:1737.1698-6.53995763515310Clb=3.0m/s t=-62.2C h=3.1% p=116.9hPa 402.502 MHz Type=RS41-SGP ser=U0150025 Radiosonde
EA4EKH-11U01500252022-12-06 00:03:1437.1697-6.54026643315297Clb=3.3m/s t=-62.2C h=3.3% p=117.2hPa 402.500 MHz Type=RS41-SGP ser=U0150025 Radiosonde
CT7AUS-11U01500252022-12-06 00:03:0437.1697-6.54094902815269Clb=3.1m/s t=-62.7C h=3.5% p=117.7hPa 402.500 MHz Type=RS41-SGP ser=U0150025 Radiosonde
WINDFERU01500252022-12-06 00:02:5037.1696-6.542221033515202Clb=7.6m/s t=-62.2C h=3.2% p=119.0hPa 402.505 MHz Type=RS41-SGP ser=U0150025 Radiosonde
EA7KDTU01500252022-12-06 00:02:4337.1697-6.542981092815154Clb=5.3m/s t=-61.9C h=3.2% p=119.8hPa 402.502 MHz Type=RS41-SGP ser=U0150025 Radiosonde
EA4EKH-11U01500252022-12-06 00:02:4037.1698-6.543241093015139Clb=3.7m/s t=-61.8C h=3.3% p=120.2hPa 402.500 MHz Type=RS41-SGP ser=U0150025 Radiosonde
CT7AUS-11U01500252022-12-06 00:02:3337.1699-6.543891042615096Clb=5.5m/s t=-61.6C h=3.1% p=121.0hPa 402.500 MHz Type=RS41-SGP ser=U0150025 Radiosonde
WINDFERU01500252022-12-06 00:02:1937.1704-6.544991203115014Clb=8.2m/s t=-61.9C h=3.2% p=122.6hPa 402.505 MHz Type=RS41-SGP ser=U0150025 Radiosonde
EA7KDTU01500252022-12-06 00:02:1337.1708-6.545711174114965Clb=7.0m/s t=-62.0C h=3.2% p=123.5hPa 402.502 MHz Type=RS41-SGP ser=U0150025 Radiosonde
EA4EKH-11U01500252022-12-06 00:02:1037.1709-6.546071123914947Clb=4.9m/s t=-62.1C h=3.1% p=124.0hPa 402.500 MHz Type=RS41-SGP ser=U0150025 Radiosonde
CT7AUS-11U01500252022-12-06 00:02:0237.1712-6.546721112814904Clb=8.9m/s t=-62.9C h=3.3% p=124.8hPa 402.500 MHz Type=RS41-SGP ser=U0150025 Radiosonde
WINDFERU01500252022-12-06 00:01:4837.1715-6.547871152614820Clb=2.2m/s t=-63.2C h=3.4% p=126.5hPa 402.505 MHz Type=RS41-SGP ser=U0150025 Radiosonde
EA7KDTU01500252022-12-06 00:01:4137.1717-6.548391242814777Clb=5.2m/s t=-63.1C h=3.4% p=127.4hPa 402.502 MHz Type=RS41-SGP ser=U0150025 Radiosonde
EA4EKH-11U01500252022-12-06 00:01:3737.1718-6.548611242614759Clb=2.5m/s t=-63.1C h=3.3% p=127.8hPa 402.500 MHz Type=RS41-SGP ser=U0150025 Radiosonde
CT7AUS-11U01500252022-12-06 00:01:3337.1721-6.549091293014717Clb=5.6m/s t=-62.8C h=3.3% p=128.6hPa 402.500 MHz Type=RS41-SGP ser=U0150025 Radiosonde
WINDFERU01500252022-12-06 00:01:1937.1728-6.550181293314630Clb=4.0m/s t=-62.3C h=3.2% p=130.5hPa 402.505 MHz Type=RS41-SGP ser=U0150025 Radiosonde
EA7KDTU01500252022-12-06 00:01:1037.1732-6.550751303114583Clb=7.9m/s t=-62.2C h=3.1% p=131.4hPa 402.502 MHz Type=RS41-SGP ser=U0150025 Radiosonde
EA4EKH-11U01500252022-12-06 00:01:0737.1733-6.550971343114564Clb=5.8m/s t=-62.1C h=3.1% p=131.8hPa 402.500 MHz Type=RS41-SGP ser=U0150025 Radiosonde
CT7AUS-11U01500252022-12-06 00:01:0037.1738-6.551591324614524Clb=8.1m/s t=-62.1C h=3.1% p=132.7hPa 402.500 MHz Type=RS41-SGP ser=U0150025 Radiosonde
WINDFERU01500252022-12-06 00:00:5537.1763-6.554641283114246Clb=9.5m/s t=-61.2C h=2.9% p=138.8hPa 402.505 MHz Type=RS41-SGP ser=U0150025 Radiosonde
EA7KDTU01500252022-12-06 00:00:5337.1767-6.555211313314202Clb=4.2m/s t=-61.2C h=2.9% p=139.8hPa 402.502 MHz Type=RS41-SGP ser=U0150025 Radiosonde
EA4EKH-11U01500252022-12-06 00:00:5237.1768-6.555461293514183Clb=9.3m/s t=-61.1C h=3.0% p=-1.0hPa 402.500 MHz Type=RS41-SGP ser=U0150025 Radiosonde
CT7AUS-11U01500252022-12-06 00:00:5137.1772-6.556181203714142Clb=3.6m/s t=-61.0C h=3.0% p=141.2hPa 402.500 MHz Type=RS41-SGP ser=U0150025 Radiosonde
WINDFERU01500252022-12-06 00:00:4837.1779-6.557581114314058Clb=4.6m/s t=-60.6C h=2.8% p=143.0hPa 402.505 MHz Type=RS41-SGP ser=U0150025 Radiosonde
EA7KDTU01500252022-12-06 00:00:4637.1782-6.558431143714017Clb=8.1m/s t=-60.9C h=2.9% p=144.0hPa 402.502 MHz Type=RS41-SGP ser=U0150025 Radiosonde
EA4EKH-11U01500252022-12-06 00:00:4537.1783-6.558731223513999Clb=6.5m/s t=-273.0C h=-1.0% p=-1.0hPa 402.500 MHz Type=RS41-SGP ser=U0150025 Radiosonde
CT7AUS-11U01500252022-12-06 00:00:4437.1786-6.559491164413959Clb=5.3m/s t=-61.5C h=3.1% p=145.4hPa 402.500 MHz Type=RS41-SGP ser=U0150025 Radiosonde
WINDFERU01500252022-12-06 00:00:4137.179-6.561381034113876Clb=9.4m/s t=-61.0C h=3.0% p=147.3hPa 402.505 MHz Type=RS41-SGP ser=U0150025 Radiosonde
EA7KDTU01500252022-12-06 00:00:3837.1792-6.562291084113832Clb=4.0m/s t=-60.6C h=2.9% p=148.4hPa 402.502 MHz Type=RS41-SGP ser=U0150025 Radiosonde
EA4EKH-11U01500252022-12-06 00:00:3737.1794-6.562781084113805Clb=9.1m/s t=-273.0C h=-1.0% p=-1.0hPa 402.500 MHz Type=RS41 ser=U0150025 Radiosonde
CT7AUS-11U01500252022-12-06 00:00:3637.1796-6.563481133913771Clb=7.5m/s t=-60.1C h=2.9% p=149.8hPa 402.500 MHz Type=RS41-SGP ser=U0150025 Radiosonde
WINDFERU01500252022-12-06 00:00:3337.18-6.565031103913690Clb=6.6m/s t=-60.0C h=2.9% p=151.8hPa 402.505 MHz Type=RS41-SGP ser=U0150025 Radiosonde
EA4EKH-11U01500252022-12-06 00:00:3237.1806-6.56641143713616Clb=8.1m/s t=-273.0C h=-1.0% p=-1.0hPa 402.500 MHz Type=RS41 ser=U0150025 Radiosonde
WINDFERU01500252022-12-06 00:00:3137.1813-6.568551114113511Clb=2.8m/s t=-59.0C h=2.9% p=156.2hPa 402.505 MHz Type=RS41-SGP ser=U0150025 Radiosonde
EA7KDTU01500252022-12-06 00:00:3037.1816-6.569511044813472Clb=8.0m/s t=-58.9C h=2.9% p=157.2hPa 402.502 MHz Type=RS41-SGP ser=U0150025 Radiosonde
CT7AUS-11U01500252022-12-06 00:00:2337.182-6.570851124413416Clb=7.2m/s t=-59.1C h=3.0% p=158.6hPa 402.500 MHz Type=RS41-SGP ser=U0150025 Radiosonde
WINDFERU01500252022-12-05 23:59:5837.1827-6.572951145213334Clb=5.0m/s t=-59.0C h=3.0% p=160.7hPa 402.505 MHz Type=RS41-SGP ser=U0150025 Radiosonde
EA7KDTU01500252022-12-05 23:59:4637.183-6.574031115213291Clb=5.9m/s t=-58.8C h=3.0% p=161.7hPa 402.502 MHz Type=RS41-SGP ser=U0150025 Radiosonde
CT7AUS-11U01500252022-12-05 23:59:2737.1835-6.575711095713234Clb=3.6m/s t=-58.4C h=2.9% p=163.2hPa 402.500 MHz Type=RS41-SGP ser=U0150025 Radiosonde
WINDFERU01500252022-12-05 23:59:0337.1843-6.578121126113153Clb=4.1m/s t=-57.8C h=2.9% p=165.3hPa 402.505 MHz Type=RS41-SGP ser=U0150025 Radiosonde
EA7KDTU01500252022-12-05 23:58:5137.1846-6.579351095913110Clb=6.4m/s t=-57.5C h=2.9% p=166.4hPa 402.502 MHz Type=RS41-SGP ser=U0150025 Radiosonde
CT7AUS-11U01500252022-12-05 23:58:3337.1852-6.581191126113051Clb=5.2m/s t=-57.3C h=2.8% p=168.0hPa 402.500 MHz Type=RS41-SGP ser=U0150025 Radiosonde
WINDFERU01500252022-12-05 23:58:1037.186-6.583551195712965Clb=3.0m/s t=-57.0C h=3.0% p=170.3hPa 402.505 MHz Type=RS41-SGP ser=U0150025 Radiosonde
EA7KDTU01500252022-12-05 23:57:5737.1866-6.584681206112922Clb=8.0m/s t=-57.2C h=3.0% p=171.4hPa 402.502 MHz Type=RS41-SGP ser=U0150025 Radiosonde
CT7AUS-11U01500252022-12-05 23:57:3937.1872-6.586361106112859Clb=4.9m/s t=-56.9C h=3.1% p=173.2hPa 402.500 MHz Type=RS41-SGP ser=U0150025 Radiosonde
WINDFERU01500252022-12-05 23:57:1637.1879-6.588941046512771Clb=7.3m/s t=-56.3C h=3.0% p=175.6hPa 402.505 MHz Type=RS41-SGP ser=U0150025 Radiosonde
EA7KDTU01500252022-12-05 23:57:0037.1882-6.590341046712728Clb=4.0m/s t=-56.0C h=3.0% p=176.9hPa 402.502 MHz Type=RS41-SGP ser=U0150025 Radiosonde
CT7AUS-11U01500252022-12-05 23:56:4237.1887-6.592671056312651Clb=4.0m/s t=-55.4C h=3.0% p=178.9hPa 402.500 MHz Type=RS41-SGP ser=U0150025 Radiosonde
WINDFERU01500252022-12-05 23:56:1837.1892-6.595191027212577Clb=6.2m/s t=-55.2C h=3.0% p=181.0hPa 402.505 MHz Type=RS41-SGP ser=U0150025 Radiosonde
EA7KDTU01500252022-12-05 23:56:0537.1895-6.5966976112528Clb=8.7m/s t=-54.9C h=3.1% p=182.3hPa 402.502 MHz Type=RS41-SGP ser=U0150025 Radiosonde
CT7AUS-11U01500252022-12-05 23:56:0237.1898-6.598641026312459Clb=3.5m/s t=-54.5C h=3.0% p=184.4hPa 402.500 MHz Type=RS41-SGP ser=U0150025 Radiosonde
WINDFERU01500252022-12-05 23:56:0137.1903-6.60121005712373Clb=7.6m/s t=-54.3C h=3.2% p=186.8hPa 402.505 MHz Type=RS41-SGP ser=U0150025 Radiosonde
EA7KDTU01500252022-12-05 23:56:0037.1904-6.602261025412336Clb=7.4m/s t=-54.5C h=3.3% p=187.9hPa 402.502 MHz Type=RS41-SGP ser=U0150025 Radiosonde
WINDFERU01500252022-12-05 23:55:5937.1913-6.606561046512192Clb=6.6m/s t=-53.6C h=3.3% p=192.1hPa 402.505 MHz Type=RS41-SGP ser=U0150025 Radiosonde
EA7KDTU01500252022-12-05 23:55:5337.1916-6.607941106312151Clb=5.0m/s t=-53.3C h=3.4% p=193.4hPa 402.502 MHz Type=RS41-SGP ser=U0150025 Radiosonde
CT7AUS-11U01500252022-12-05 23:55:4237.193-6.612141155612012Clb=7.4m/s t=-52.5C h=3.6% p=197.6hPa 402.500 MHz Type=RS41-SGP ser=U0150025 Radiosonde
EA7KDTU01500252022-12-05 23:55:0637.1935-6.613281155611970Clb=5.4m/s t=-52.6C h=3.7% p=198.9hPa 402.502 MHz Type=RS41-SGP ser=U0150025 Radiosonde
CT7AUS-11U01500252022-12-05 23:54:5237.1941-6.61521156711910Clb=8.6m/s t=-53.1C h=4.3% p=200.8hPa 402.500 MHz Type=RS41-SGP ser=U0150025 Radiosonde
WINDFERU01500252022-12-05 23:54:3137.1952-6.617861178111833Clb=7.4m/s t=-53.2C h=4.6% p=203.1hPa 402.504 MHz Type=RS41-SGP ser=U0150025 Radiosonde
EA7KDTU01500252022-12-05 23:54:1837.196-6.619741158011794Clb=7.6m/s t=-53.1C h=4.6% p=204.3hPa 402.502 MHz Type=RS41-SGP ser=U0150025 Radiosonde
CT7AUS-11U01500252022-12-05 23:54:0137.1968-6.622051147811741Clb=5.3m/s t=-53.1C h=5.1% p=206.0hPa 402.500 MHz Type=RS41-SGP ser=U0150025 Radiosonde
WINDFERU01500252022-12-05 23:53:4037.1978-6.625361058511671Clb=5.0m/s t=-53.6C h=6.0% p=208.3hPa 402.504 MHz Type=RS41-SGP ser=U0150025 Radiosonde
EA7KDTU01500252022-12-05 23:53:2737.1982-6.627271079611643Clb=2.9m/s t=-53.7C h=6.2% p=209.2hPa 402.502 MHz Type=RS41-SGP ser=U0150025 Radiosonde
CT7AUS-11U01500252022-12-05 23:53:1537.1989-6.630381039111604Clb=3.1m/s t=-53.4C h=6.4% p=210.5hPa 402.500 MHz Type=RS41-SGP ser=U0150025 Radiosonde
WINDFERU01500252022-12-05 23:52:4837.1995-6.634081038911552Clb=4.5m/s t=-53.2C h=6.8% p=212.2hPa 402.504 MHz Type=RS41-SGP ser=U0150025 Radiosonde
EA7KDTU01500252022-12-05 23:52:3637.1998-6.63602998711524Clb=4.0m/s t=-53.6C h=7.4% p=213.2hPa 402.502 MHz Type=RS41-SGP ser=U0150025 Radiosonde
CT7AUS-11U01500252022-12-05 23:52:1837.2002-6.638751048011478Clb=3.5m/s t=-53.7C h=7.7% p=214.7hPa 402.500 MHz Type=RS41-SGP ser=U0150025 Radiosonde
WINDFERU01500252022-12-05 23:51:5837.2011-6.642111128111402Clb=5.9m/s t=-53.6C h=7.7% p=217.2hPa 402.504 MHz Type=RS41-SGP ser=U0150025 Radiosonde
EA7KDTU01500252022-12-05 23:51:5137.2016-6.643741127411364Clb=4.4m/s t=-53.4C h=7.5% p=218.5hPa 402.502 MHz Type=RS41-SGP ser=U0150025 Radiosonde
CT7AUS-11U01500252022-12-05 23:51:4037.2024-6.64591147411314Clb=2.9m/s t=-53.2C h=7.1% p=220.3hPa 402.500 MHz Type=RS41-SGP ser=U0150025 Radiosonde
WINDFERU01500252022-12-05 23:51:2737.2037-6.649341186711223Clb=4.5m/s t=-52.7C h=6.7% p=223.4hPa 402.504 MHz Type=RS41-SGP ser=U0150025 Radiosonde
EA7KDTU01500252022-12-05 23:51:1937.204-6.650121157011202Clb=8.4m/s t=-52.7C h=6.7% p=224.1hPa 402.502 MHz Type=RS41-SGP ser=U0150025 Radiosonde
CT7AUS-11U01500252022-12-05 23:51:1737.2047-6.652151177211145Clb=7.2m/s t=-52.7C h=6.8% p=226.0hPa 402.500 MHz Type=RS41-SGP ser=U0150025 Radiosonde
WINDFERU01500252022-12-05 23:51:1637.2059-6.655211148011069Clb=5.1m/s t=-52.5C h=6.9% p=228.7hPa 402.504 MHz Type=RS41-SGP ser=U0150025 Radiosonde
EA7KDTU01500252022-12-05 23:51:1537.2065-6.65691138311027Clb=3.2m/s t=-52.4C h=6.7% p=230.2hPa 402.502 MHz Type=RS41-SGP ser=U0150025 Radiosonde
WINDFERU01500252022-12-05 23:51:1437.2082-6.66321079310894Clb=7.3m/s t=-51.4C h=6.5% p=234.9hPa 402.504 MHz Type=RS41-SGP ser=U0150025 Radiosonde
CT7AUS-11U01500252022-12-05 23:51:1337.2101-6.669321098910768Clb=4.6m/s t=-50.5C h=6.4% p=239.6hPa 402.500 MHz Type=RS41-SGP ser=U0150025 Radiosonde
WINDFERU01500252022-12-05 23:50:5937.2112-6.672961108910713Clb=4.5m/s t=-50.3C h=6.5% p=241.6hPa 402.504 MHz Type=RS41-SGP ser=U0150025 Radiosonde
EA7KDTU01500252022-12-05 23:50:4837.2113-6.673221119110709Clb=3.7m/s t=-50.3C h=6.5% p=241.7hPa 402.502 MHz Type=RS41-SGP ser=U0150025 Radiosonde
CT7AUS-11U01500252022-12-05 23:50:3237.2121-6.675941129410669Clb=4.7m/s t=-50.2C h=6.2% p=243.2hPa 402.500 MHz Type=RS41-SGP ser=U0150025 Radiosonde
WINDFERU01500252022-12-05 23:50:1137.2134-6.681139410606Clb=3.1m/s t=-50.2C h=5.9% p=245.5hPa 402.504 MHz Type=RS41-SGP ser=U0150025 Radiosonde
EA7KDTU01500252022-12-05 23:49:5837.214-6.681581169310583Clb=2.9m/s t=-50.4C h=5.8% p=246.4hPa 402.502 MHz Type=RS41-SGP ser=U0150025 Radiosonde
CT7AUS-11U01500252022-12-05 23:49:4337.215-6.684061148710544Clb=4.4m/s t=-50.6C h=5.9% p=247.9hPa 402.500 MHz Type=RS41-SGP ser=U0150025 Radiosonde
WINDFERU01500252022-12-05 23:49:2237.2165-6.687551118710488Clb=4.0m/s t=-50.3C h=5.5% p=250.0hPa 402.504 MHz Type=RS41-SGP ser=U0150025 Radiosonde
EA7KDTU01500252022-12-05 23:49:0937.2171-6.689381148910457Clb=3.4m/s t=-50.0C h=5.4% p=251.3hPa 402.502 MHz Type=RS41-SGP ser=U0150025 Radiosonde
CT7AUS-11U01500252022-12-05 23:48:5437.2182-6.69211178910412Clb=3.1m/s t=-49.7C h=5.2% p=252.9hPa 402.500 MHz Type=RS41-SGP ser=U0150025 Radiosonde
WINDFERU01500252022-12-05 23:48:3137.2194-6.695491118710360Clb=3.0m/s t=-49.3C h=5.2% p=254.9hPa 402.504 MHz Type=RS41-SGP ser=U0150025 Radiosonde
EA7KDTU01500252022-12-05 23:48:1937.2201-6.697321159310328Clb=2.7m/s t=-49.2C h=5.3% p=256.2hPa 402.502 MHz Type=RS41-SGP ser=U0150025 Radiosonde
CT7AUS-11U01500252022-12-05 23:48:0337.221-6.700141138110271Clb=5.0m/s t=-49.2C h=5.0% p=258.4hPa 402.500 MHz Type=RS41-SGP ser=U0150025 Radiosonde
WINDFERU01500252022-12-05 23:47:5037.2223-6.703271168510210Clb=3.2m/s t=-49.1C h=5.1% p=260.9hPa 402.504 MHz Type=RS41-SGP ser=U0150025 Radiosonde
EA7KDTU01500252022-12-05 23:47:4237.2229-6.705021168710181Clb=3.0m/s t=-48.9C h=5.2% p=262.1hPa 402.502 MHz Type=RS41-SGP ser=U0150025 Radiosonde
CT7AUS-11U01500252022-12-05 23:47:3237.224-6.707811189110124Clb=7.5m/s t=-48.3C h=-1.0% p=264.3hPa 402.500 MHz Type=RS41-SGP ser=U0150025 Radiosonde
WINDFERU01500252022-12-05 23:47:1937.2251-6.71141138910047Clb=6.3m/s t=-47.8C h=5.0% p=267.5hPa 402.504 MHz Type=RS41-SGP ser=U0150025 Radiosonde
EA7KDTU01500252022-12-05 23:47:1237.2258-6.7132611410610004Clb=5.4m/s t=-47.7C h=4.9% p=269.1hPa 402.502 MHz Type=RS41-SGP ser=U0150025 Radiosonde
CT7AUS-11U01500252022-12-05 23:47:0137.227-6.71631118939938Clb=3.2m/s t=-47.1C h=-1.0% p=-1.0hPa 402.500 MHz Type=RS41 ser=U0150025 Radiosonde
WINDFERU01500252022-12-05 23:46:5037.2282-6.71945114879875Clb=4.5m/s t=-46.7C h=4.7% p=274.5hPa 402.504 MHz Type=RS41-SGP ser=U0150025 Radiosonde
CT7AUS-11U01500252022-12-05 23:46:4937.2298-6.7241113989800Clb=4.7m/s t=-273.0C h=-1.0% p=-1.0hPa 402.500 MHz Type=RS41 ser=U0150025 Radiosonde
WINDFERU01500252022-12-05 23:46:4837.2311-6.7274119969744Clb=3.4m/s t=-45.4C h=4.3% p=279.9hPa 402.504 MHz Type=RS41-SGP ser=U0150025 Radiosonde
WINDFERU01500252022-12-05 23:46:3937.2349-6.73636126879563Clb=3.9m/s t=-45.2C h=5.2% p=287.5hPa 402.504 MHz Type=RS41-SGP ser=U0150025 Radiosonde
EA7KDTU01500252022-12-05 23:46:3037.2353-6.73705124919551Clb=6.1m/s t=-45.2C h=5.3% p=288.0hPa 402.502 MHz Type=RS41-SGP ser=U0150025 Radiosonde
CT7AUS-11U01500252022-12-05 23:46:1337.2367-6.73929126899502Clb=3.3m/s t=-273.0C h=-1.0% p=-1.0hPa 402.500 MHz Type=RS41 ser=U0150025 Radiosonde
WINDFERU01500252022-12-05 23:45:5237.2387-6.74263121899431Clb=5.3m/s t=-44.8C h=6.6% p=293.3hPa 402.504 MHz Type=RS41-SGP ser=U0150025 Radiosonde
EA7KDTU01500252022-12-05 23:45:4137.2397-6.74431128969396Clb=4.4m/s t=-44.6C h=6.7% p=294.8hPa 402.502 MHz Type=RS41-SGP ser=U0150025 Radiosonde
CT7AUS-11U01500252022-12-05 23:45:2537.241-6.74662125879345Clb=6.2m/s t=-273.0C h=-1.0% p=-1.0hPa 402.500 MHz Type=RS41 ser=U0150025 Radiosonde
WINDFERU01500252022-12-05 23:45:0437.2427-6.74988122859284Clb=3.5m/s t=-44.0C h=6.8% p=299.8hPa 402.504 MHz Type=RS41-SGP ser=U0150025 Radiosonde
EA7KDTU01500252022-12-05 23:44:5137.2435-6.75141123839254Clb=4.9m/s t=-43.8C h=6.9% p=301.2hPa 402.502 MHz Type=RS41-SGP ser=U0150025 Radiosonde
CT7AUS-11U01500252022-12-05 23:44:3737.2445-6.75384119859202Clb=5.9m/s t=-273.0C h=-1.0% p=-1.0hPa 402.500 MHz Type=RS41 ser=U0150025 Radiosonde
WINDFERU01500252022-12-05 23:44:1737.246-6.75675124749127Clb=4.9m/s t=-43.1C h=7.3% p=306.9hPa 402.504 MHz Type=RS41-SGP ser=U0150025 Radiosonde
EA7KDTU01500252022-12-05 23:44:0537.2467-6.75811123789091Clb=4.6m/s t=-42.9C h=7.4% p=308.4hPa 402.502 MHz Type=RS41-SGP ser=U0150025 Radiosonde
WINDFERU01500252022-12-05 23:43:4137.2492-6.7625133768983Clb=4.9m/s t=-43.1C h=10.2% p=313.5hPa 402.504 MHz Type=RS41-SGP ser=U0150025 Radiosonde
EA7KDTU01500252022-12-05 23:43:3437.2501-6.76365132638945Clb=5.3m/s t=-43.4C h=12.8% p=315.2hPa 402.502 MHz Type=RS41-SGP ser=U0150025 Radiosonde
WINDFERU01500252022-12-05 23:43:1037.252-6.76722121528835Clb=4.2m/s t=-43.1C h=17.6% p=320.5hPa 402.504 MHz Type=RS41-SGP ser=U0150025 Radiosonde
EA7KDTU01500252022-12-05 23:43:0237.2526-6.76804124488807Clb=3.1m/s t=-43.0C h=19.0% p=321.8hPa 402.502 MHz Type=RS41-SGP ser=U0150025 Radiosonde
EA7KDTU01500252022-12-05 23:42:3137.254-6.77205104468620Clb=7.0m/s t=-42.2C h=27.7% p=330.6hPa 402.502 MHz Type=RS41-SGP ser=U0150025 Radiosonde
EA7KDTU01500252022-12-05 23:42:2737.2545-6.7744886268454Clb=6.6m/s t=-40.8C h=29.4% p=338.9hPa 402.502 MHz Type=RS41-SGP ser=U0150025 Radiosonde
EA7KDTU01500252022-12-05 23:42:1037.2547-6.775957148299Clb=3.7m/s t=-39.6C h=34.0% p=346.7hPa 402.502 MHz Type=RS41-SGP ser=U0150025 Radiosonde
EA7KDTU01500252022-12-05 23:41:2337.2548-6.777695208124Clb=5.7m/s t=-38.3C h=37.4% p=355.7hPa 402.502 MHz Type=RS41-SGP ser=U0150025 Radiosonde
EA7KDTU01500252022-12-05 23:40:3837.2549-6.7793186177961Clb=5.2m/s t=-36.9C h=37.2% p=364.2hPa 402.502 MHz Type=RS41-SGP ser=U0150025 Radiosonde
WINDFERU01500252022-12-05 23:40:0437.2555-6.78083129197821Clb=5.7m/s t=-35.6C h=33.4% p=371.5hPa 402.504 MHz Type=RS41-SGP ser=U0150025 Radiosonde
EA7KDTU01500252022-12-05 23:39:5637.2557-6.78118114267786Clb=5.2m/s t=-35.3C h=33.2% p=373.4hPa 402.502 MHz Type=RS41-SGP ser=U0150025 Radiosonde
EA7KDTU01500252022-12-05 23:39:2537.2566-6.783123227635Clb=5.2m/s t=-34.0C h=34.3% p=381.5hPa 402.502 MHz Type=RS41-SGP ser=U0150025 Radiosonde
WINDFERU01500252022-12-05 23:39:0137.2575-6.78455126247518Clb=8.7m/s t=-33.1C h=42.8% p=387.9hPa 402.504 MHz Type=RS41-SGP ser=U0150025 Radiosonde
EA7KDTU01500252022-12-05 23:38:5437.2577-6.78507112357476Clb=6.7m/s t=-32.7C h=-1.0% p=390.1hPa 402.502 MHz Type=RS41-SGP ser=U0150025 Radiosonde
WINDFERU01500252022-12-05 23:38:3037.2587-6.78666129287348Clb=4.5m/s t=-31.6C h=36.1% p=397.5hPa 402.504 MHz Type=RS41-SGP ser=U0150025 Radiosonde
EA7KDTU01500252022-12-05 23:38:2337.2591-6.78711123287318Clb=5.0m/s t=-273.0C h=-1.0% p=399.1hPa 402.502 MHz Type=RS41-SGP ser=U0150025 Radiosonde
WINDFERU01500252022-12-05 23:37:5937.2599-6.78898123377194Clb=4.3m/s t=-30.2C h=36.2% p=406.0hPa 402.504 MHz Type=RS41-SGP ser=U0150025 Radiosonde
EA7KDTU01500252022-12-05 23:37:5437.2612-6.79179119287011Clb=6.6m/s t=-273.0C h=-1.0% p=416.6hPa 402.502 MHz Type=RS41-SGP ser=U0150025 Radiosonde
WINDFERU01500252022-12-05 23:37:2337.2623-6.79412112316859Clb=6.4m/s t=-27.1C h=28.1% p=425.5hPa 402.504 MHz Type=RS41-SGP ser=U0150025 Radiosonde
EA7KDTU01500252022-12-05 23:37:1137.2624-6.79444122246841Clb=4.6m/s t=-273.0C h=-1.0% p=426.6hPa 402.502 MHz Type=RS41-SGP ser=U0150025 Radiosonde
EA7KDTU01500252022-12-05 23:36:2937.2634-6.79721112356705Clb=3.4m/s t=-273.0C h=-1.0% p=-1.0hPa 402.502 MHz Type=RS41 ser=U0150025 Radiosonde
WINDFERU01500252022-12-05 23:34:5237.2656-6.8102109436156Clb=5.5m/s t=-21.5C h=43.8% p=468.3hPa 402.504 MHz Type=RS41-SGP ser=U0150025 Radiosonde
WINDFERU01500252022-12-05 23:34:2137.2674-6.81457114435976Clb=4.5m/s t=-20.3C h=58.2% p=479.9hPa 402.504 MHz Type=RS41-SGP ser=U0150025 Radiosonde
WINDFERU01500252022-12-05 23:33:5037.2686-6.81696131435874Clb=5.1m/s t=-19.7C h=60.4% p=486.7hPa 402.504 MHz Type=RS41-SGP ser=U0150025 Radiosonde
WINDFERU01500252022-12-05 23:33:3737.2696-6.81916121415768Clb=6.7m/s t=-18.8C h=-1.0% p=493.4hPa 402.504 MHz Type=RS41-SGP ser=U0150025 Radiosonde
WINDFERU01500252022-12-05 23:33:0437.271-6.82257122335622Clb=6.1m/s t=-273.0C h=-1.0% p=-1.0hPa 402.504 MHz Type=RS41 ser=U0150025 Radiosonde
WINDFERU01500252022-12-05 23:32:2237.2724-6.82678110395423Clb=3.8m/s t=-273.0C h=-1.0% p=-1.0hPa 402.504 MHz Type=RS41 ser=U0150025 Radiosonde
WINDFERU01500252022-12-05 23:31:4837.2745-6.8316115435248Clb=3.8m/s t=-273.0C h=-1.0% p=-1.0hPa 402.504 MHz Type=RS41 ser=U0150025 Radiosonde